Black River (Missouri), Williamsville (07062575)

StateMissouriLatestLow (1420 cfs)
RiverBlack RiverRatingObservedEstimated
Updated2021-02-25 9:30 (23 minutes ago)Flood - The river is flooding. Obstacles can be treacherous or deadly. The river should be avoided at this stage for casual trips and definitely for the inexperienced. Trips should be attempted only with protective gear and equipment.Flood(none)4907
Discharge1420 cfs (median: 1150 cfs)High - The river is high and potentially dangerous, especially for the young and / or inexperienced. Normal stream obstacles are sometimes difficult to navigate. Extended distances can be attempted, but canoe travel may not be advisable.High(none)2697
Height4.9 feetGood - Conditions are ideal for a canoe or kayak. Boats typically will drag on fewer than one-quarter of riffles, if at all, and portages are unnecessary or rare. Normal float lengths can be attempted without a problem.Good(none)1904
TrendSteady (rising over 24 hours)Low - River is low but can still be floated. Some riffles are okay but most come with significant dragging and might need a portage. Float lengths should be reduced to accommodate low flow, dragging, and portages.Low(none)637
USGSExternal icon USGS Site (External icon Google Maps)Poor - River is too low to float comfortably. Most or all riffles will drag or must be portaged and some obstacles (such as slick shelf rock) cause undue problems. Avoid the river at this stage for casual paddling trips.Poor(none)298

Trending Data

Plot Image

Trips for Black River (Missouri), Williamsville (07062575)

DateStartEndDistanceConditionDischargeHeightFishingDetails

A total of 0 rows are displayed.

Condition Descriptions

Fishing Conditions

Fish Species

Notes

Classic Trip List

The classic River Trips application is still available for use. It is updated with the new system using a data retrofit. It is no longer maintained. The original River Trips application is no longer updated (as of 1 Dec 2016) but can be checked for errors or for the condition of the data before it was converted to the new system.

Gauge Data Table

ObservationHeightDischargeMaximum
Discharge
Minimum
Discharge
Mean
Discharge
P05P10P20P25P50
(Median)
P75P80P90P95
2021-02-25 09:30 4.90 1420 3600 (2019) 495 (2017) 1460 529 639 689 1150 2060 2590 3470
2021-02-25 08:30 4.91 1420 3600 (2019) 495 (2017) 1460 529 639 689 1150 2060 2590 3470
2021-02-25 07:30 4.91 1420 3600 (2019) 495 (2017) 1460 529 639 689 1150 2060 2590 3470
2021-02-25 06:30 4.91 1420 3600 (2019) 495 (2017) 1460 529 639 689 1150 2060 2590 3470
2021-02-25 05:30 4.92 1430 3600 (2019) 495 (2017) 1460 529 639 689 1150 2060 2590 3470
2021-02-25 04:30 4.92 1430 3600 (2019) 495 (2017) 1460 529 639 689 1150 2060 2590 3470
2021-02-25 03:30 4.92 1430 3600 (2019) 495 (2017) 1460 529 639 689 1150 2060 2590 3470
2021-02-25 02:30 4.92 1430 3600 (2019) 495 (2017) 1460 529 639 689 1150 2060 2590 3470
2021-02-25 01:30 4.92 1430 3600 (2019) 495 (2017) 1460 529 639 689 1150 2060 2590 3470
2021-02-25 00:30 4.92 1430 3600 (2019) 495 (2017) 1460 529 639 689 1150 2060 2590 3470
2021-02-24 23:30 4.92 1430 3630 (2019) 553 (2011) 1340 569 623 660 1130 1650 1840 3170
2021-02-24 22:30 4.91 1420 3630 (2019) 553 (2011) 1340 569 623 660 1130 1650 1840 3170
2021-02-24 21:30 4.91 1420 3630 (2019) 553 (2011) 1340 569 623 660 1130 1650 1840 3170
2021-02-24 20:30 4.91 1420 3630 (2019) 553 (2011) 1340 569 623 660 1130 1650 1840 3170
2021-02-24 19:30 4.91 1420 3630 (2019) 553 (2011) 1340 569 623 660 1130 1650 1840 3170
2021-02-24 18:30 4.90 1420 3630 (2019) 553 (2011) 1340 569 623 660 1130 1650 1840 3170
2021-02-24 17:30 4.89 1410 3630 (2019) 553 (2011) 1340 569 623 660 1130 1650 1840 3170
2021-02-24 16:30 4.89 1410 3630 (2019) 553 (2011) 1340 569 623 660 1130 1650 1840 3170
2021-02-24 15:30 4.88 1400 3630 (2019) 553 (2011) 1340 569 623 660 1130 1650 1840 3170
2021-02-24 14:30 4.87 1390 3630 (2019) 553 (2011) 1340 569 623 660 1130 1650 1840 3170
2021-02-24 13:30 4.86 1390 3630 (2019) 553 (2011) 1340 569 623 660 1130 1650 1840 3170
2021-02-24 12:30 4.86 1390 3630 (2019) 553 (2011) 1340 569 623 660 1130 1650 1840 3170
2021-02-24 11:30 4.86 1390 3630 (2019) 553 (2011) 1340 569 623 660 1130 1650 1840 3170
2021-02-24 10:30 4.85 1380 3630 (2019) 553 (2011) 1340 569 623 660 1130 1650 1840 3170
2021-02-24 09:30 4.84 1370 3630 (2019) 553 (2011) 1340 569 623 660 1130 1650 1840 3170
2021-02-24 08:30 4.84 1370 3630 (2019) 553 (2011) 1340 569 623 660 1130 1650 1840 3170
2021-02-24 07:30 4.82 1360 3630 (2019) 553 (2011) 1340 569 623 660 1130 1650 1840 3170
2021-02-24 06:30 4.81 1350 3630 (2019) 553 (2011) 1340 569 623 660 1130 1650 1840 3170
2021-02-24 05:30 4.79 1330 3630 (2019) 553 (2011) 1340 569 623 660 1130 1650 1840 3170
2021-02-24 04:30 4.77 1320 3630 (2019) 553 (2011) 1340 569 623 660 1130 1650 1840 3170
2021-02-24 03:30 4.75 1300 3630 (2019) 553 (2011) 1340 569 623 660 1130 1650 1840 3170
2021-02-24 02:30 4.73 1290 3630 (2019) 553 (2011) 1340 569 623 660 1130 1650 1840 3170
2021-02-24 01:30 4.71 1270 3630 (2019) 553 (2011) 1340 569 623 660 1130 1650 1840 3170
2021-02-24 00:30 4.68 1250 3630 (2019) 553 (2011) 1340 569 623 660 1130 1650 1840 3170
2021-02-23 23:30 4.64 1220 3710 (2019) 482 (2017) 1350 526 649 686 1130 1660 1810 3190
2021-02-23 22:30 4.61 1200 3710 (2019) 482 (2017) 1350 526 649 686 1130 1660 1810 3190
2021-02-23 21:30 4.59 1190 3710 (2019) 482 (2017) 1350 526 649 686 1130 1660 1810 3190
2021-02-23 20:30 4.55 1160 3710 (2019) 482 (2017) 1350 526 649 686 1130 1660 1810 3190
2021-02-23 19:30 4.52 1140 3710 (2019) 482 (2017) 1350 526 649 686 1130 1660 1810 3190
2021-02-23 18:30 4.48 1110 3710 (2019) 482 (2017) 1350 526 649 686 1130 1660 1810 3190
2021-02-23 17:30 4.44 1080 3710 (2019) 482 (2017) 1350 526 649 686 1130 1660 1810 3190
2021-02-23 16:30 4.39 1040 3710 (2019) 482 (2017) 1350 526 649 686 1130 1660 1810 3190
2021-02-23 15:30 4.34 1010 3710 (2019) 482 (2017) 1350 526 649 686 1130 1660 1810 3190
2021-02-23 14:30 4.30 983 3710 (2019) 482 (2017) 1350 526 649 686 1130 1660 1810 3190
2021-02-23 13:30 4.28 970 3710 (2019) 482 (2017) 1350 526 649 686 1130 1660 1810 3190
2021-02-23 12:30 4.28 970 3710 (2019) 482 (2017) 1350 526 649 686 1130 1660 1810 3190
2021-02-23 11:30 4.28 970 3710 (2019) 482 (2017) 1350 526 649 686 1130 1660 1810 3190
2021-02-23 10:30 4.28 970 3710 (2019) 482 (2017) 1350 526 649 686 1130 1660 1810 3190
2021-02-23 09:30 4.29 977 3710 (2019) 482 (2017) 1350 526 649 686 1130 1660 1810 3190
2021-02-23 08:30 4.29 977 3710 (2019) 482 (2017) 1350 526 649 686 1130 1660 1810 3190
2021-02-23 07:30 4.30 983 3710 (2019) 482 (2017) 1350 526 649 686 1130 1660 1810 3190
2021-02-23 06:30 4.31 990 3710 (2019) 482 (2017) 1350 526 649 686 1130 1660 1810 3190
2021-02-23 05:30 4.32 997 3710 (2019) 482 (2017) 1350 526 649 686 1130 1660 1810 3190
2021-02-23 04:30 4.33 1000 3710 (2019) 482 (2017) 1350 526 649 686 1130 1660 1810 3190
2021-02-23 03:30 4.35 1020 3710 (2019) 482 (2017) 1350 526 649 686 1130 1660 1810 3190
2021-02-23 02:30 4.36 1020 3710 (2019) 482 (2017) 1350 526 649 686 1130 1660 1810 3190
2021-02-23 01:30 4.36 1020 3710 (2019) 482 (2017) 1350 526 649 686 1130 1660 1810 3190
2021-02-23 00:30 4.35 1020 3710 (2019) 482 (2017) 1350 526 649 686 1130 1660 1810 3190
2021-02-22 23:30 4.32 997 3710 (2019) 459 (2017) 1450 510 734 806 1120 2100 2360 3350
2021-02-22 22:30 4.30 983 3710 (2019) 459 (2017) 1450 510 734 806 1120 2100 2360 3350
2021-02-22 21:30 4.30 983 3710 (2019) 459 (2017) 1450 510 734 806 1120 2100 2360 3350
2021-02-22 20:30 4.30 983 3710 (2019) 459 (2017) 1450 510 734 806 1120 2100 2360 3350
2021-02-22 19:30 4.31 990 3710 (2019) 459 (2017) 1450 510 734 806 1120 2100 2360 3350
2021-02-22 18:30 4.33 1000 3710 (2019) 459 (2017) 1450 510 734 806 1120 2100 2360 3350
2021-02-22 17:30 4.35 1020 3710 (2019) 459 (2017) 1450 510 734 806 1120 2100 2360 3350
2021-02-22 16:30 4.37 1030 3710 (2019) 459 (2017) 1450 510 734 806 1120 2100 2360 3350
2021-02-22 15:30 4.38 1040 3710 (2019) 459 (2017) 1450 510 734 806 1120 2100 2360 3350
2021-02-22 14:30 4.39 1040 3710 (2019) 459 (2017) 1450 510 734 806 1120 2100 2360 3350
2021-02-22 13:30 4.40 1050 3710 (2019) 459 (2017) 1450 510 734 806 1120 2100 2360 3350
2021-02-22 12:30 4.40 1050 3710 (2019) 459 (2017) 1450 510 734 806 1120 2100 2360 3350
2021-02-22 11:30 4.40 1050 3710 (2019) 459 (2017) 1450 510 734 806 1120 2100 2360 3350
2021-02-22 10:30 4.39 1040 3710 (2019) 459 (2017) 1450 510 734 806 1120 2100 2360 3350
2021-02-22 09:30 4.39 1040 3710 (2019) 459 (2017) 1450 510 734 806 1120 2100 2360 3350
2021-02-22 08:30 4.39 1040 3710 (2019) 459 (2017) 1450 510 734 806 1120 2100 2360 3350
2021-02-22 07:30 4.38 1040 3710 (2019) 459 (2017) 1450 510 734 806 1120 2100 2360 3350
2021-02-22 06:30 4.38 1040 3710 (2019) 459 (2017) 1450 510 734 806 1120 2100 2360 3350
2021-02-22 05:30 4.38 1040 3710 (2019) 459 (2017) 1450 510 734 806 1120 2100 2360 3350
2021-02-22 04:30 4.38 1040 3710 (2019) 459 (2017) 1450 510 734 806 1120 2100 2360 3350
2021-02-22 03:30 4.38 1040 3710 (2019) 459 (2017) 1450 510 734 806 1120 2100 2360 3350
2021-02-22 02:30 4.38 1040 3710 (2019) 459 (2017) 1450 510 734 806 1120 2100 2360 3350
2021-02-22 01:30 4.38 1040 3710 (2019) 459 (2017) 1450 510 734 806 1120 2100 2360 3350
2021-02-22 00:30 4.38 1040 3710 (2019) 459 (2017) 1450 510 734 806 1120 2100 2360 3350
2021-02-21 23:30 4.37 1030 2540 (2009) 480 (2017) 1340 536 706 747 1060 2070 2300 2530
2021-02-21 22:30 4.37 1030 2540 (2009) 480 (2017) 1340 536 706 747 1060 2070 2300 2530
2021-02-21 21:30 4.37 1030 2540 (2009) 480 (2017) 1340 536 706 747 1060 2070 2300 2530
2021-02-21 20:30 4.37 1030 2540 (2009) 480 (2017) 1340 536 706 747 1060 2070 2300 2530
2021-02-21 19:30 4.36 1020 2540 (2009) 480 (2017) 1340 536 706 747 1060 2070 2300 2530
2021-02-21 18:30 4.36 1020 2540 (2009) 480 (2017) 1340 536 706 747 1060 2070 2300 2530
2021-02-21 17:30 4.36 1020 2540 (2009) 480 (2017) 1340 536 706 747 1060 2070 2300 2530
2021-02-21 16:30 4.36 1020 2540 (2009) 480 (2017) 1340 536 706 747 1060 2070 2300 2530
2021-02-21 15:30 4.36 1020 2540 (2009) 480 (2017) 1340 536 706 747 1060 2070 2300 2530
2021-02-21 14:30 4.36 1020 2540 (2009) 480 (2017) 1340 536 706 747 1060 2070 2300 2530
2021-02-21 13:30 4.36 1020 2540 (2009) 480 (2017) 1340 536 706 747 1060 2070 2300 2530
2021-02-21 12:30 4.36 1020 2540 (2009) 480 (2017) 1340 536 706 747 1060 2070 2300 2530
2021-02-21 11:30 4.36 1020 2540 (2009) 480 (2017) 1340 536 706 747 1060 2070 2300 2530
2021-02-21 10:30 4.35 1020 2540 (2009) 480 (2017) 1340 536 706 747 1060 2070 2300 2530
2021-02-21 09:30 4.35 1020 2540 (2009) 480 (2017) 1340 536 706 747 1060 2070 2300 2530
2021-02-21 08:30 4.35 1020 2540 (2009) 480 (2017) 1340 536 706 747 1060 2070 2300 2530
2021-02-21 07:30 4.35 1020 2540 (2009) 480 (2017) 1340 536 706 747 1060 2070 2300 2530
2021-02-21 06:30 4.35 1020 2540 (2009) 480 (2017) 1340 536 706 747 1060 2070 2300 2530
2021-02-21 05:30 4.35 1020 2540 (2009) 480 (2017) 1340 536 706 747 1060 2070 2300 2530
2021-02-21 04:30 4.35 1020 2540 (2009) 480 (2017) 1340 536 706 747 1060 2070 2300 2530
2021-02-21 03:30 4.36 1020 2540 (2009) 480 (2017) 1340 536 706 747 1060 2070 2300 2530
2021-02-21 02:30 4.36 1020 2540 (2009) 480 (2017) 1340 536 706 747 1060 2070 2300 2530
2021-02-21 01:30 4.36 1020 2540 (2009) 480 (2017) 1340 536 706 747 1060 2070 2300 2530
2021-02-21 00:30 4.36 1020 2540 (2009) 480 (2017) 1340 536 706 747 1060 2070 2300 2530
2021-02-20 23:30 4.36 1020 4220 (2019) 455 (2017) 1450 470 534 606 875 1960 2730 4030
2021-02-20 22:30 4.36 1020 4220 (2019) 455 (2017) 1450 470 534 606 875 1960 2730 4030
2021-02-20 21:30 4.36 1020 4220 (2019) 455 (2017) 1450 470 534 606 875 1960 2730 4030
2021-02-20 20:30 4.35 1020 4220 (2019) 455 (2017) 1450 470 534 606 875 1960 2730 4030
2021-02-20 19:30 4.35 1020 4220 (2019) 455 (2017) 1450 470 534 606 875 1960 2730 4030
2021-02-20 18:30 4.35 1020 4220 (2019) 455 (2017) 1450 470 534 606 875 1960 2730 4030
2021-02-20 17:30 4.36 1020 4220 (2019) 455 (2017) 1450 470 534 606 875 1960 2730 4030
2021-02-20 16:30 4.36 1020 4220 (2019) 455 (2017) 1450 470 534 606 875 1960 2730 4030
2021-02-20 15:30 4.36 1020 4220 (2019) 455 (2017) 1450 470 534 606 875 1960 2730 4030
2021-02-20 14:30 4.35 1020 4220 (2019) 455 (2017) 1450 470 534 606 875 1960 2730 4030
2021-02-20 13:30 4.35 1020 4220 (2019) 455 (2017) 1450 470 534 606 875 1960 2730 4030
2021-02-20 12:30 4.35 1020 4220 (2019) 455 (2017) 1450 470 534 606 875 1960 2730 4030
2021-02-20 11:30 4.35 1020 4220 (2019) 455 (2017) 1450 470 534 606 875 1960 2730 4030
2021-02-20 10:30 4.35 1020 4220 (2019) 455 (2017) 1450 470 534 606 875 1960 2730 4030
2021-02-20 09:30 4.35 1020 4220 (2019) 455 (2017) 1450 470 534 606 875 1960 2730 4030
2021-02-20 08:30 4.35 1020 4220 (2019) 455 (2017) 1450 470 534 606 875 1960 2730 4030
2021-02-20 07:30 4.35 1020 4220 (2019) 455 (2017) 1450 470 534 606 875 1960 2730 4030
2021-02-20 06:30 4.35 1020 4220 (2019) 455 (2017) 1450 470 534 606 875 1960 2730 4030
2021-02-20 05:30 4.35 1020 4220 (2019) 455 (2017) 1450 470 534 606 875 1960 2730 4030
2021-02-20 04:30 4.35 1020 4220 (2019) 455 (2017) 1450 470 534 606 875 1960 2730 4030
2021-02-20 03:30 4.35 1020 4220 (2019) 455 (2017) 1450 470 534 606 875 1960 2730 4030
2021-02-20 02:30 4.35 1020 4220 (2019) 455 (2017) 1450 470 534 606 875 1960 2730 4030
2021-02-20 01:30 4.35 1020 4220 (2019) 455 (2017) 1450 470 534 606 875 1960 2730 4030
2021-02-20 00:30 4.34 1010 4220 (2019) 455 (2017) 1450 470 534 606 875 1960 2730 4030
2021-02-19 23:30 4.34 1010 3790 (2019) 465 (2017) 1520 476 527 593 933 2720 3400 3780
2021-02-19 22:30 4.34 1010 3790 (2019) 465 (2017) 1520 476 527 593 933 2720 3400 3780
2021-02-19 21:30 4.33 1000 3790 (2019) 465 (2017) 1520 476 527 593 933 2720 3400 3780
2021-02-19 20:30 4.32 997 3790 (2019) 465 (2017) 1520 476 527 593 933 2720 3400 3780
2021-02-19 19:30 4.32 997 3790 (2019) 465 (2017) 1520 476 527 593 933 2720 3400 3780
2021-02-19 18:30 4.31 990 3790 (2019) 465 (2017) 1520 476 527 593 933 2720 3400 3780
2021-02-19 17:30 4.29 977 3790 (2019) 465 (2017) 1520 476 527 593 933 2720 3400 3780
2021-02-19 16:30 4.28 970 3790 (2019) 465 (2017) 1520 476 527 593 933 2720 3400 3780
2021-02-19 15:30 4.27 963 3790 (2019) 465 (2017) 1520 476 527 593 933 2720 3400 3780
2021-02-19 14:30 4.25 950 3790 (2019) 465 (2017) 1520 476 527 593 933 2720 3400 3780
2021-02-19 13:30 4.24 943 3790 (2019) 465 (2017) 1520 476 527 593 933 2720 3400 3780
2021-02-19 12:30 4.24 943 3790 (2019) 465 (2017) 1520 476 527 593 933 2720 3400 3780
2021-02-19 11:30 4.24 943 3790 (2019) 465 (2017) 1520 476 527 593 933 2720 3400 3780
2021-02-19 10:30 4.24 943 3790 (2019) 465 (2017) 1520 476 527 593 933 2720 3400 3780
2021-02-19 09:30 4.23 937 3790 (2019) 465 (2017) 1520 476 527 593 933 2720 3400 3780
2021-02-19 08:30 4.23 937 3790 (2019) 465 (2017) 1520 476 527 593 933 2720 3400 3780
2021-02-19 07:30 4.23 937 3790 (2019) 465 (2017) 1520 476 527 593 933 2720 3400 3780
2021-02-19 06:30 4.22 930 3790 (2019) 465 (2017) 1520 476 527 593 933 2720 3400 3780
2021-02-19 05:30 4.22 930 3790 (2019) 465 (2017) 1520 476 527 593 933 2720 3400 3780
2021-02-19 04:30 4.22 930 3790 (2019) 465 (2017) 1520 476 527 593 933 2720 3400 3780
2021-02-19 03:30 4.21 923 3790 (2019) 465 (2017) 1520 476 527 593 933 2720 3400 3780
2021-02-19 02:30 4.20 917 3790 (2019) 465 (2017) 1520 476 527 593 933 2720 3400 3780
2021-02-19 01:30 4.19 910 3790 (2019) 465 (2017) 1520 476 527 593 933 2720 3400 3780
2021-02-19 00:30 4.18 904 3790 (2019) 465 (2017) 1520 476 527 593 933 2720 3400 3780
2021-02-18 23:30 4.16 891 3820 (2009) 467 (2017) 1560 475 500 529 1050 2960 3620 3820
2021-02-18 22:30 4.14 878 3820 (2009) 467 (2017) 1560 475 500 529 1050 2960 3620 3820
2021-02-18 21:30 4.12 865 3820 (2009) 467 (2017) 1560 475 500 529 1050 2960 3620 3820
2021-02-18 20:30 4.09 846 3820 (2009) 467 (2017) 1560 475 500 529 1050 2960 3620 3820
2021-02-18 19:30 4.04 814 3820 (2009) 467 (2017) 1560 475 500 529 1050 2960 3620 3820
2021-02-18 18:30 3.99 783 3820 (2009) 467 (2017) 1560 475 500 529 1050 2960 3620 3820
2021-02-18 17:30 3.93 748 3820 (2009) 467 (2017) 1560 475 500 529 1050 2960 3620 3820
2021-02-18 16:30 3.86 708 3820 (2009) 467 (2017) 1560 475 500 529 1050 2960 3620 3820
2021-02-18 15:30 3.82 686 3820 (2009) 467 (2017) 1560 475 500 529 1050 2960 3620 3820
2021-02-18 14:30 3.79 669 3820 (2009) 467 (2017) 1560 475 500 529 1050 2960 3620 3820
2021-02-18 13:30 3.79 669 3820 (2009) 467 (2017) 1560 475 500 529 1050 2960 3620 3820
2021-02-18 12:30 3.79 669 3820 (2009) 467 (2017) 1560 475 500 529 1050 2960 3620 3820
2021-02-18 11:30 3.79 669 3820 (2009) 467 (2017) 1560 475 500 529 1050 2960 3620 3820
2021-02-18 10:30 3.79 669 3820 (2009) 467 (2017) 1560 475 500 529 1050 2960 3620 3820
2021-02-18 09:30 3.79 669 3820 (2009) 467 (2017) 1560 475 500 529 1050 2960 3620 3820
2021-02-18 08:30 3.79 669 3820 (2009) 467 (2017) 1560 475 500 529 1050 2960 3620 3820
2021-02-18 07:30 3.80 675 3820 (2009) 467 (2017) 1560 475 500 529 1050 2960 3620 3820
2021-02-18 06:30 3.80 675 3820 (2009) 467 (2017) 1560 475 500 529 1050 2960 3620 3820
2021-02-18 05:30 3.80 675 3820 (2009) 467 (2017) 1560 475 500 529 1050 2960 3620 3820
2021-02-18 04:30 3.80 675 3820 (2009) 467 (2017) 1560 475 500 529 1050 2960 3620 3820
2021-02-18 03:30 3.80 675 3820 (2009) 467 (2017) 1560 475 500 529 1050 2960 3620 3820
2021-02-18 02:30 3.81 680 3820 (2009) 467 (2017) 1560 475 500 529 1050 2960 3620 3820
2021-02-18 01:30 3.81 680 3820 (2009) 467 (2017) 1560 475 500 529 1050 2960 3620 3820
2021-02-18 00:30 3.81 680 3820 (2009) 467 (2017) 1560 475 500 529 1050 2960 3620 3820
2021-02-17 23:30 3.81 680 3910 (2019) 476 (2018) 1540 479 486 506 929 3000 3630 3870
2021-02-17 22:30 3.81 680 3910 (2019) 476 (2018) 1540 479 486 506 929 3000 3630 3870
2021-02-17 21:30 3.82 686 3910 (2019) 476 (2018) 1540 479 486 506 929 3000 3630 3870
2021-02-17 20:30 3.82 686 3910 (2019) 476 (2018) 1540 479 486 506 929 3000 3630 3870
2021-02-17 19:30 3.82 686 3910 (2019) 476 (2018) 1540 479 486 506 929 3000 3630 3870
2021-02-17 18:30 3.83 692 3910 (2019) 476 (2018) 1540 479 486 506 929 3000 3630 3870
2021-02-17 17:30 3.83 692 3910 (2019) 476 (2018) 1540 479 486 506 929 3000 3630 3870
2021-02-17 16:30 3.84 697 3910 (2019) 476 (2018) 1540 479 486 506 929 3000 3630 3870
2021-02-17 15:30 3.84 697 3910 (2019) 476 (2018) 1540 479 486 506 929 3000 3630 3870
2021-02-17 14:30 3.84 697 3910 (2019) 476 (2018) 1540 479 486 506 929 3000 3630 3870
2021-02-17 13:30 3.85 703 3910 (2019) 476 (2018) 1540 479 486 506 929 3000 3630 3870
2021-02-17 12:30 3.85 703 3910 (2019) 476 (2018) 1540 479 486 506 929 3000 3630 3870
2021-02-17 11:30 3.86 708 3910 (2019) 476 (2018) 1540 479 486 506 929 3000 3630 3870
2021-02-17 10:30 3.87 714 3910 (2019) 476 (2018) 1540 479 486 506 929 3000 3630 3870
2021-02-17 09:30 3.87 714 3910 (2019) 476 (2018) 1540 479 486 506 929 3000 3630 3870
2021-02-17 08:30 3.88 720 3910 (2019) 476 (2018) 1540 479 486 506 929 3000 3630 3870
2021-02-17 07:30 3.89 725 3910 (2019) 476 (2018) 1540 479 486 506 929 3000 3630 3870
2021-02-17 06:30 3.89 725 3910 (2019) 476 (2018) 1540 479 486 506 929 3000 3630 3870
2021-02-17 05:30 3.90 731 3910 (2019) 476 (2018) 1540 479 486 506 929 3000 3630 3870
2021-02-17 04:30 3.91 737 3910 (2019) 476 (2018) 1540 479 486 506 929 3000 3630 3870
2021-02-17 03:30 3.93 748 3910 (2019) 476 (2018) 1540 479 486 506 929 3000 3630 3870
2021-02-17 02:30 3.95 760 3910 (2019) 476 (2018) 1540 479 486 506 929 3000 3630 3870
2021-02-17 01:30 3.97 772 3910 (2019) 476 (2018) 1540 479 486 506 929 3000 3630 3870
2021-02-17 00:30 4.00 789 3910 (2019) 476 (2018) 1540 479 486 506 929 3000 3630 3870
2021-02-16 23:30 4.04 814 3970 (2019) 456 (2018) 1540 468 501 520 846 3090 3740 3930
2021-02-16 22:30 4.08 839 3970 (2019) 456 (2018) 1540 468 501 520 846 3090 3740 3930
2021-02-16 21:30 4.13 871 3970 (2019) 456 (2018) 1540 468 501 520 846 3090 3740 3930
2021-02-16 20:30 4.18 904 3970 (2019) 456 (2018) 1540 468 501 520 846 3090 3740 3930
2021-02-16 19:30 4.23 937 3970 (2019) 456 (2018) 1540 468 501 520 846 3090 3740 3930
2021-02-16 18:30 4.27 963 3970 (2019) 456 (2018) 1540 468 501 520 846 3090 3740 3930
2021-02-16 17:30 4.28 970 3970 (2019) 456 (2018) 1540 468 501 520 846 3090 3740 3930
2021-02-16 16:30 4.29 977 3970 (2019) 456 (2018) 1540 468 501 520 846 3090 3740 3930
2021-02-16 15:30 4.29 977 3970 (2019) 456 (2018) 1540 468 501 520 846 3090 3740 3930
2021-02-16 14:30 4.29 977 3970 (2019) 456 (2018) 1540 468 501 520 846 3090 3740 3930
2021-02-16 13:30 4.29 977 3970 (2019) 456 (2018) 1540 468 501 520 846 3090 3740 3930
2021-02-16 12:30 4.30 983 3970 (2019) 456 (2018) 1540 468 501 520 846 3090 3740 3930
2021-02-16 11:30 4.30 983 3970 (2019) 456 (2018) 1540 468 501 520 846 3090 3740 3930
2021-02-16 10:30 4.29 977 3970 (2019) 456 (2018) 1540 468 501 520 846 3090 3740 3930
2021-02-16 09:30 4.30 983 3970 (2019) 456 (2018) 1540 468 501 520 846 3090 3740 3930
2021-02-16 08:30 4.31 990 3970 (2019) 456 (2018) 1540 468 501 520 846 3090 3740 3930
2021-02-16 07:30 4.29 977 3970 (2019) 456 (2018) 1540 468 501 520 846 3090 3740 3930
2021-02-16 06:30 4.29 977 3970 (2019) 456 (2018) 1540 468 501 520 846 3090 3740 3930
2021-02-16 05:30 4.29 977 3970 (2019) 456 (2018) 1540 468 501 520 846 3090 3740 3930
2021-02-16 04:30 4.29 977 3970 (2019) 456 (2018) 1540 468 501 520 846 3090 3740 3930
2021-02-16 03:30 4.29 977 3970 (2019) 456 (2018) 1540 468 501 520 846 3090 3740 3930
2021-02-16 02:30 4.30 983 3970 (2019) 456 (2018) 1540 468 501 520 846 3090 3740 3930
2021-02-16 01:30 4.30 983 3970 (2019) 456 (2018) 1540 468 501 520 846 3090 3740 3930
2021-02-16 00:30 4.31 990 3970 (2019) 456 (2018) 1540 468 501 520 846 3090 3740 3930
2021-02-15 23:30 4.30 983 3900 (2009) 442 (2018) 1530 454 496 521 798 3140 3740 3860
2021-02-15 22:30 4.31 990 3900 (2009) 442 (2018) 1530 454 496 521 798 3140 3740 3860
2021-02-15 21:30 4.31 990 3900 (2009) 442 (2018) 1530 454 496 521 798 3140 3740 3860
2021-02-15 20:30 4.31 990 3900 (2009) 442 (2018) 1530 454 496 521 798 3140 3740 3860
2021-02-15 19:30 4.31 990 3900 (2009) 442 (2018) 1530 454 496 521 798 3140 3740 3860
2021-02-15 18:30 4.31 990 3900 (2009) 442 (2018) 1530 454 496 521 798 3140 3740 3860
2021-02-15 17:30 4.32 997 3900 (2009) 442 (2018) 1530 454 496 521 798 3140 3740 3860
2021-02-15 16:30 4.32 997 3900 (2009) 442 (2018) 1530 454 496 521 798 3140 3740 3860
2021-02-15 15:30 4.32 997 3900 (2009) 442 (2018) 1530 454 496 521 798 3140 3740 3860
2021-02-15 14:30 4.31 990 3900 (2009) 442 (2018) 1530 454 496 521 798 3140 3740 3860
2021-02-15 13:30 4.31 990 3900 (2009) 442 (2018) 1530 454 496 521 798 3140 3740 3860
2021-02-15 12:30 4.31 990 3900 (2009) 442 (2018) 1530 454 496 521 798 3140 3740 3860
2021-02-15 11:30 4.31 990 3900 (2009) 442 (2018) 1530 454 496 521 798 3140 3740 3860
2021-02-15 10:30 4.30 983 3900 (2009) 442 (2018) 1530 454 496 521 798 3140 3740 3860
2021-02-15 09:30 4.29 977 3900 (2009) 442 (2018) 1530 454 496 521 798 3140 3740 3860
2021-02-15 08:30 4.29 977 3900 (2009) 442 (2018) 1530 454 496 521 798 3140 3740 3860
2021-02-15 07:30 4.29 977 3900 (2009) 442 (2018) 1530 454 496 521 798 3140 3740 3860
2021-02-15 06:30 4.29 977 3900 (2009) 442 (2018) 1530 454 496 521 798 3140 3740 3860
2021-02-15 05:30 4.30 983 3900 (2009) 442 (2018) 1530 454 496 521 798 3140 3740 3860
2021-02-15 04:30 4.30 983 3900 (2009) 442 (2018) 1530 454 496 521 798 3140 3740 3860
2021-02-15 03:30 4.31 990 3900 (2009) 442 (2018) 1530 454 496 521 798 3140 3740 3860
2021-02-15 02:30 4.31 990 3900 (2009) 442 (2018) 1530 454 496 521 798 3140 3740 3860
2021-02-15 01:30 4.32 997 3900 (2009) 442 (2018) 1530 454 496 521 798 3140 3740 3860
2021-02-15 00:30 4.32 997 3900 (2009) 442 (2018) 1530 454 496 521 798 3140 3740 3860
2021-02-14 23:30 4.32 997 3800 (2019) 440 (2018) 1430 457 504 509 805 2680 3170 3650
2021-02-14 22:30 4.32 997 3800 (2019) 440 (2018) 1430 457 504 509 805 2680 3170 3650
2021-02-14 21:30 4.32 997 3800 (2019) 440 (2018) 1430 457 504 509 805 2680 3170 3650
2021-02-14 20:30 4.32 997 3800 (2019) 440 (2018) 1430 457 504 509 805 2680 3170 3650
2021-02-14 19:30 4.32 997 3800 (2019) 440 (2018) 1430 457 504 509 805 2680 3170 3650
2021-02-14 18:30 4.33 1000 3800 (2019) 440 (2018) 1430 457 504 509 805 2680 3170 3650
2021-02-14 17:30 4.32 997 3800 (2019) 440 (2018) 1430 457 504 509 805 2680 3170 3650
2021-02-14 16:30 4.32 997 3800 (2019) 440 (2018) 1430 457 504 509 805 2680 3170 3650
2021-02-14 15:30 4.31 990 3800 (2019) 440 (2018) 1430 457 504 509 805 2680 3170 3650
2021-02-14 14:30 4.31 990 3800 (2019) 440 (2018) 1430 457 504 509 805 2680 3170 3650
2021-02-14 13:30 4.31 990 3800 (2019) 440 (2018) 1430 457 504 509 805 2680 3170 3650
2021-02-14 12:30 4.31 990 3800 (2019) 440 (2018) 1430 457 504 509 805 2680 3170 3650
2021-02-14 11:30 4.32 997 3800 (2019) 440 (2018) 1430 457 504 509 805 2680 3170 3650
2021-02-14 10:30 4.32 997 3800 (2019) 440 (2018) 1430 457 504 509 805 2680 3170 3650
2021-02-14 09:30 4.32 997 3800 (2019) 440 (2018) 1430 457 504 509 805 2680 3170 3650
2021-02-14 08:30 4.33 1000 3800 (2019) 440 (2018) 1430 457 504 509 805 2680 3170 3650
2021-02-14 07:30 4.33 1000 3800 (2019) 440 (2018) 1430 457 504 509 805 2680 3170 3650
2021-02-14 06:30 4.34 1010 3800 (2019) 440 (2018) 1430 457 504 509 805 2680 3170 3650
2021-02-14 05:30 4.34 1010 3800 (2019) 440 (2018) 1430 457 504 509 805 2680 3170 3650
2021-02-14 04:30 4.34 1010 3800 (2019) 440 (2018) 1430 457 504 509 805 2680 3170 3650
2021-02-14 03:30 4.34 1010 3800 (2019) 440 (2018) 1430 457 504 509 805 2680 3170 3650
2021-02-14 02:30 4.35 1020 3800 (2019) 440 (2018) 1430 457 504 509 805 2680 3170 3650
2021-02-14 01:30 4.35 1020 3800 (2019) 440 (2018) 1430 457 504 509 805 2680 3170 3650
2021-02-14 00:30 4.35 1020 3800 (2019) 440 (2018) 1430 457 504 509 805 2680 3170 3650
2021-02-13 23:30 4.36 1020 3800 (2019) 437 (2018) 1430 454 503 515 856 2240 2880 3740
2021-02-13 22:30 4.36 1020 3800 (2019) 437 (2018) 1430 454 503 515 856 2240 2880 3740
2021-02-13 21:30 4.36 1020 3800 (2019) 437 (2018) 1430 454 503 515 856 2240 2880 3740
2021-02-13 20:30 4.36 1020 3800 (2019) 437 (2018) 1430 454 503 515 856 2240 2880 3740
2021-02-13 19:30 4.36 1020 3800 (2019) 437 (2018) 1430 454 503 515 856 2240 2880 3740
2021-02-13 18:30 4.36 1020 3800 (2019) 437 (2018) 1430 454 503 515 856 2240 2880 3740
2021-02-13 17:30 4.37 1030 3800 (2019) 437 (2018) 1430 454 503 515 856 2240 2880 3740
2021-02-13 16:30 4.37 1030 3800 (2019) 437 (2018) 1430 454 503 515 856 2240 2880 3740
2021-02-13 15:30 4.37 1030 3800 (2019) 437 (2018) 1430 454 503 515 856 2240 2880 3740
2021-02-13 14:30 4.38 1040 3800 (2019) 437 (2018) 1430 454 503 515 856 2240 2880 3740
2021-02-13 13:30 4.38 1040 3800 (2019) 437 (2018) 1430 454 503 515 856 2240 2880 3740
2021-02-13 12:30 4.38 1040 3800 (2019) 437 (2018) 1430 454 503 515 856 2240 2880 3740
2021-02-13 11:30 4.38 1040 3800 (2019) 437 (2018) 1430 454 503 515 856 2240 2880 3740
2021-02-13 10:30 4.39 1040 3800 (2019) 437 (2018) 1430 454 503 515 856 2240 2880 3740
2021-02-13 09:30 4.39 1040 3800 (2019) 437 (2018) 1430 454 503 515 856 2240 2880 3740
2021-02-13 08:30 4.39 1040 3800 (2019) 437 (2018) 1430 454 503 515 856 2240 2880 3740
2021-02-13 07:30 4.40 1050 3800 (2019) 437 (2018) 1430 454 503 515 856 2240 2880 3740
2021-02-13 06:30 4.41 1060 3800 (2019) 437 (2018) 1430 454 503 515 856 2240 2880 3740
2021-02-13 05:30 4.41 1060 3800 (2019) 437 (2018) 1430 454 503 515 856 2240 2880 3740
2021-02-13 04:30 4.41 1060 3800 (2019) 437 (2018) 1430 454 503 515 856 2240 2880 3740
2021-02-13 03:30 4.42 1070 3800 (2019) 437 (2018) 1430 454 503 515 856 2240 2880 3740
2021-02-13 02:30 4.43 1070 3800 (2019) 437 (2018) 1430 454 503 515 856 2240 2880 3740
2021-02-13 01:30 4.43 1070 3800 (2019) 437 (2018) 1430 454 503 515 856 2240 2880 3740
2021-02-13 00:30 4.44 1080 3800 (2019) 437 (2018) 1430 454 503 515 856 2240 2880 3740
2021-02-12 23:30 4.45 1090 3850 (2020) 437 (2018) 1460 454 508 527 953 2380 2730 3640
2021-02-12 22:30 4.47 1100 3850 (2020) 437 (2018) 1460 454 508 527 953 2380 2730 3640
2021-02-12 21:30 4.48 1110 3850 (2020) 437 (2018) 1460 454 508 527 953 2380 2730 3640
2021-02-12 20:30 4.50 1120 3850 (2020) 437 (2018) 1460 454 508 527 953 2380 2730 3640
2021-02-12 19:30 4.53 1140 3850 (2020) 437 (2018) 1460 454 508 527 953 2380 2730 3640
2021-02-12 18:30 4.55 1160 3850 (2020) 437 (2018) 1460 454 508 527 953 2380 2730 3640
2021-02-12 17:30 4.59 1190 3850 (2020) 437 (2018) 1460 454 508 527 953 2380 2730 3640
2021-02-12 16:30 4.63 1210 3850 (2020) 437 (2018) 1460 454 508 527 953 2380 2730 3640
2021-02-12 15:30 4.66 1240 3850 (2020) 437 (2018) 1460 454 508 527 953 2380 2730 3640
2021-02-12 14:30 4.68 1250 3850 (2020) 437 (2018) 1460 454 508 527 953 2380 2730 3640
2021-02-12 13:30 4.69 1260 3850 (2020) 437 (2018) 1460 454 508 527 953 2380 2730 3640
2021-02-12 12:30 4.69 1260 3850 (2020) 437 (2018) 1460 454 508 527 953 2380 2730 3640
2021-02-12 11:30 4.69 1260 3850 (2020) 437 (2018) 1460 454 508 527 953 2380 2730 3640
2021-02-12 10:30 4.69 1260 3850 (2020) 437 (2018) 1460 454 508 527 953 2380 2730 3640
2021-02-12 09:30 4.69 1260 3850 (2020) 437 (2018) 1460 454 508 527 953 2380 2730 3640
2021-02-12 08:30 4.70 1270 3850 (2020) 437 (2018) 1460 454 508 527 953 2380 2730 3640
2021-02-12 07:30 4.70 1270 3850 (2020) 437 (2018) 1460 454 508 527 953 2380 2730 3640
2021-02-12 06:30 4.70 1270 3850 (2020) 437 (2018) 1460 454 508 527 953 2380 2730 3640
2021-02-12 05:30 4.70 1270 3850 (2020) 437 (2018) 1460 454 508 527 953 2380 2730 3640
2021-02-12 04:30 4.71 1270 3850 (2020) 437 (2018) 1460 454 508 527 953 2380 2730 3640
2021-02-12 03:30 4.70 1270 3850 (2020) 437 (2018) 1460 454 508 527 953 2380 2730 3640
2021-02-12 02:30 4.71 1270 3850 (2020) 437 (2018) 1460 454 508 527 953 2380 2730 3640
2021-02-12 01:30 4.71 1270 3850 (2020) 437 (2018) 1460 454 508 527 953 2380 2730 3640
2021-02-12 00:30 4.71 1270 3850 (2020) 437 (2018) 1460 454 508 527 953 2380 2730 3640
2021-02-11 23:30 4.71 1270 7090 (2009) 443 (2018) 1880 460 508 529 987 3020 3480 6110
2021-02-11 22:30 4.71 1270 7090 (2009) 443 (2018) 1880 460 508 529 987 3020 3480 6110
2021-02-11 21:30 4.72 1280 7090 (2009) 443 (2018) 1880 460 508 529 987 3020 3480 6110
2021-02-11 20:30 4.72 1280 7090 (2009) 443 (2018) 1880 460 508 529 987 3020 3480 6110
2021-02-11 19:30 4.72 1280 7090 (2009) 443 (2018) 1880 460 508 529 987 3020 3480 6110
2021-02-11 18:30 4.72 1280 7090 (2009) 443 (2018) 1880 460 508 529 987 3020 3480 6110
2021-02-11 17:30 4.72 1280 7090 (2009) 443 (2018) 1880 460 508 529 987 3020 3480 6110
2021-02-11 16:30 4.73 1290 7090 (2009) 443 (2018) 1880 460 508 529 987 3020 3480 6110
2021-02-11 15:30 4.72 1280 7090 (2009) 443 (2018) 1880 460 508 529 987 3020 3480 6110
2021-02-11 14:30 4.73 1290 7090 (2009) 443 (2018) 1880 460 508 529 987 3020 3480 6110
2021-02-11 13:30 4.73 1290 7090 (2009) 443 (2018) 1880 460 508 529 987 3020 3480 6110
2021-02-11 12:30 4.73 1290 7090 (2009) 443 (2018) 1880 460 508 529 987 3020 3480 6110
2021-02-11 11:30 4.73 1290 7090 (2009) 443 (2018) 1880 460 508 529 987 3020 3480 6110
2021-02-11 10:30 4.73 1290 7090 (2009) 443 (2018) 1880 460 508 529 987 3020 3480 6110
2021-02-11 09:30 4.73 1290 7090 (2009) 443 (2018) 1880 460 508 529 987 3020 3480 6110
2021-02-11 08:30 4.74 1300 7090 (2009) 443 (2018) 1880 460 508 529 987 3020 3480 6110
2021-02-11 07:30 4.74 1300 7090 (2009) 443 (2018) 1880 460 508 529 987 3020 3480 6110
2021-02-11 06:30 4.74 1300 7090 (2009) 443 (2018) 1880 460 508 529 987 3020 3480 6110
2021-02-11 05:30 4.74 1300 7090 (2009) 443 (2018) 1880 460 508 529 987 3020 3480 6110
2021-02-11 04:30 4.75 1300 7090 (2009) 443 (2018) 1880 460 508 529 987 3020 3480 6110
2021-02-11 03:30 4.75 1300 7090 (2009) 443 (2018) 1880 460 508 529 987 3020 3480 6110
2021-02-11 02:30 4.75 1300 7090 (2009) 443 (2018) 1880 460 508 529 987 3020 3480 6110
2021-02-11 01:30 4.76 1310 7090 (2009) 443 (2018) 1880 460 508 529 987 3020 3480 6110
2021-02-11 00:30 4.76 1310 7090 (2009) 443 (2018) 1880 460 508 529 987 3020 3480 6110
2021-02-10 23:30 4.77 1320 3160 (2020) 441 (2018) 1480 445 488 548 1030 2730 2860 3110
2021-02-10 22:30 4.77 1320 3160 (2020) 441 (2018) 1480 445 488 548 1030 2730 2860 3110
2021-02-10 21:30 4.77 1320 3160 (2020) 441 (2018) 1480 445 488 548 1030 2730 2860 3110
2021-02-10 20:30 4.77 1320 3160 (2020) 441 (2018) 1480 445 488 548 1030 2730 2860 3110
2021-02-10 19:30 4.78 1330 3160 (2020) 441 (2018) 1480 445 488 548 1030 2730 2860 3110
2021-02-10 18:30 4.78 1330 3160 (2020) 441 (2018) 1480 445 488 548 1030 2730 2860 3110
2021-02-10 17:30 4.78 1330 3160 (2020) 441 (2018) 1480 445 488 548 1030 2730 2860 3110
2021-02-10 16:30 4.78 1330 3160 (2020) 441 (2018) 1480 445 488 548 1030 2730 2860 3110
2021-02-10 15:30 4.78 1330 3160 (2020) 441 (2018) 1480 445 488 548 1030 2730 2860 3110
2021-02-10 14:30 4.78 1330 3160 (2020) 441 (2018) 1480 445 488 548 1030 2730 2860 3110
2021-02-10 13:30 4.78 1330 3160 (2020) 441 (2018) 1480 445 488 548 1030 2730 2860 3110
2021-02-10 12:30 4.77 1320 3160 (2020) 441 (2018) 1480 445 488 548 1030 2730 2860 3110
2021-02-10 11:30 4.77 1320 3160 (2020) 441 (2018) 1480 445 488 548 1030 2730 2860 3110
2021-02-10 10:30 4.77 1320 3160 (2020) 441 (2018) 1480 445 488 548 1030 2730 2860 3110
2021-02-10 09:30 4.77 1320 3160 (2020) 441 (2018) 1480 445 488 548 1030 2730 2860 3110
2021-02-10 08:30 4.77 1320 3160 (2020) 441 (2018) 1480 445 488 548 1030 2730 2860 3110
2021-02-10 07:30 4.77 1320 3160 (2020) 441 (2018) 1480 445 488 548 1030 2730 2860 3110
2021-02-10 06:30 4.77 1320 3160 (2020) 441 (2018) 1480 445 488 548 1030 2730 2860 3110
2021-02-10 05:30 4.78 1330 3160 (2020) 441 (2018) 1480 445 488 548 1030 2730 2860 3110
2021-02-10 04:30 4.78 1330 3160 (2020) 441 (2018) 1480 445 488 548 1030 2730 2860 3110
2021-02-10 03:30 4.78 1330 3160 (2020) 441 (2018) 1480 445 488 548 1030 2730 2860 3110
2021-02-10 02:30 4.79 1330 3160 (2020) 441 (2018) 1480 445 488 548 1030 2730 2860 3110
2021-02-10 01:30 4.79 1330 3160 (2020) 441 (2018) 1480 445 488 548 1030 2730 2860 3110
2021-02-10 00:30 4.79 1330 3160 (2020) 441 (2018) 1480 445 488 548 1030 2730 2860 3110
2021-02-09 23:30 4.79 1330 2870 (2020) 443 (2018) 1280 445 544 607 1100 1700 2130 2820
2021-02-09 22:30 4.79 1330 2870 (2020) 443 (2018) 1280 445 544 607 1100 1700 2130 2820
2021-02-09 21:30 4.80 1340 2870 (2020) 443 (2018) 1280 445 544 607 1100 1700 2130 2820
2021-02-09 20:30 4.80 1340 2870 (2020) 443 (2018) 1280 445 544 607 1100 1700 2130 2820
2021-02-09 19:30 4.80 1340 2870 (2020) 443 (2018) 1280 445 544 607 1100 1700 2130 2820
2021-02-09 18:30 4.81 1350 2870 (2020) 443 (2018) 1280 445 544 607 1100 1700 2130 2820
2021-02-09 17:30 4.81 1350 2870 (2020) 443 (2018) 1280 445 544 607 1100 1700 2130 2820
2021-02-09 16:30 4.81 1350 2870 (2020) 443 (2018) 1280 445 544 607 1100 1700 2130 2820
2021-02-09 15:30 4.82 1360 2870 (2020) 443 (2018) 1280 445 544 607 1100 1700 2130 2820
2021-02-09 14:30 4.82 1360 2870 (2020) 443 (2018) 1280 445 544 607 1100 1700 2130 2820
2021-02-09 13:30 4.83 1360 2870 (2020) 443 (2018) 1280 445 544 607 1100 1700 2130 2820
2021-02-09 12:30 4.83 1360 2870 (2020) 443 (2018) 1280 445 544 607 1100 1700 2130 2820
2021-02-09 11:30 4.84 1370 2870 (2020) 443 (2018) 1280 445 544 607 1100 1700 2130 2820
2021-02-09 10:30 4.84 1370 2870 (2020) 443 (2018) 1280 445 544 607 1100 1700 2130 2820
2021-02-09 09:30 4.85 1380 2870 (2020) 443 (2018) 1280 445 544 607 1100 1700 2130 2820
2021-02-09 08:30 4.84 1370 2870 (2020) 443 (2018) 1280 445 544 607 1100 1700 2130 2820
2021-02-09 07:30 4.86 1390 2870 (2020) 443 (2018) 1280 445 544 607 1100 1700 2130 2820
2021-02-09 06:30 4.86 1390 2870 (2020) 443 (2018) 1280 445 544 607 1100 1700 2130 2820
2021-02-09 05:30 4.86 1390 2870 (2020) 443 (2018) 1280 445 544 607 1100 1700 2130 2820
2021-02-09 04:30 4.87 1390 2870 (2020) 443 (2018) 1280 445 544 607 1100 1700 2130 2820
2021-02-09 03:30 4.88 1400 2870 (2020) 443 (2018) 1280 445 544 607 1100 1700 2130 2820
2021-02-09 02:30 4.88 1400 2870 (2020) 443 (2018) 1280 445 544 607 1100 1700 2130 2820
2021-02-09 01:30 4.89 1410 2870 (2020) 443 (2018) 1280 445 544 607 1100 1700 2130 2820
2021-02-09 00:30 4.90 1420 2870 (2020) 443 (2018) 1280 445 544 607 1100 1700 2130 2820
2021-02-08 23:30 4.91 1420 2960 (2020) 444 (2018) 1340 467 566 600 1320 2140 2370 2790
2021-02-08 22:30 4.92 1430 2960 (2020) 444 (2018) 1340 467 566 600 1320 2140 2370 2790
2021-02-08 21:30 4.93 1440 2960 (2020) 444 (2018) 1340 467 566 600 1320 2140 2370 2790
2021-02-08 20:30 4.95 1460 2960 (2020) 444 (2018) 1340 467 566 600 1320 2140 2370 2790
2021-02-08 19:30 4.97 1470 2960 (2020) 444 (2018) 1340 467 566 600 1320 2140 2370 2790
2021-02-08 18:30 5.01 1500 2960 (2020) 444 (2018) 1340 467 566 600 1320 2140 2370 2790
2021-02-08 17:30 5.04 1530 2960 (2020) 444 (2018) 1340 467 566 600 1320 2140 2370 2790
2021-02-08 16:30 5.09 1570 2960 (2020) 444 (2018) 1340 467 566 600 1320 2140 2370 2790
2021-02-08 15:30 5.14 1610 2960 (2020) 444 (2018) 1340 467 566 600 1320 2140 2370 2790
2021-02-08 14:30 5.19 1650 2960 (2020) 444 (2018) 1340 467 566 600 1320 2140 2370 2790
2021-02-08 13:30 5.22 1670 2960 (2020) 444 (2018) 1340 467 566 600 1320 2140 2370 2790
2021-02-08 12:30 5.24 1690 2960 (2020) 444 (2018) 1340 467 566 600 1320 2140 2370 2790
2021-02-08 11:30 5.24 1690 2960 (2020) 444 (2018) 1340 467 566 600 1320 2140 2370 2790
2021-02-08 10:30 5.24 1690 2960 (2020) 444 (2018) 1340 467 566 600 1320 2140 2370 2790
2021-02-08 09:30 5.24 1690 2960 (2020) 444 (2018) 1340 467 566 600 1320 2140 2370 2790
2021-02-08 08:30 5.24 1690 2960 (2020) 444 (2018) 1340 467 566 600 1320 2140 2370 2790
2021-02-08 07:30 5.25 1700 2960 (2020) 444 (2018) 1340 467 566 600 1320 2140 2370 2790
2021-02-08 06:30 5.25 1700 2960 (2020) 444 (2018) 1340 467 566 600 1320 2140 2370 2790
2021-02-08 05:30 5.25 1700 2960 (2020) 444 (2018) 1340 467 566 600 1320 2140 2370 2790
2021-02-08 04:30 5.25 1700 2960 (2020) 444 (2018) 1340 467 566 600 1320 2140 2370 2790
2021-02-08 03:30 5.25 1700 2960 (2020) 444 (2018) 1340 467 566 600 1320 2140 2370 2790
2021-02-08 02:30 5.26 1700 2960 (2020) 444 (2018) 1340 467 566 600 1320 2140 2370 2790
2021-02-08 01:30 5.26 1700 2960 (2020) 444 (2018) 1340 467 566 600 1320 2140 2370 2790
2021-02-08 00:30 5.26 1700 2960 (2020) 444 (2018) 1340 467 566 600 1320 2140 2370 2790
2021-02-07 23:30 5.26 1700 2970 (2019) 447 (2018) 1370 477 577 611 1080 2010 2360 2920
2021-02-07 22:30 5.26 1700 2970 (2019) 447 (2018) 1370 477 577 611 1080 2010 2360 2920
2021-02-07 21:30 5.26 1700 2970 (2019) 447 (2018) 1370 477 577 611 1080 2010 2360 2920
2021-02-07 20:30 5.27 1710 2970 (2019) 447 (2018) 1370 477 577 611 1080 2010 2360 2920
2021-02-07 19:30 5.27 1710 2970 (2019) 447 (2018) 1370 477 577 611 1080 2010 2360 2920
2021-02-07 18:30 5.27 1710 2970 (2019) 447 (2018) 1370 477 577 611 1080 2010 2360 2920
2021-02-07 17:30 5.28 1720 2970 (2019) 447 (2018) 1370 477 577 611 1080 2010 2360 2920
2021-02-07 16:30 5.28 1720 2970 (2019) 447 (2018) 1370 477 577 611 1080 2010 2360 2920
2021-02-07 15:30 5.28 1720 2970 (2019) 447 (2018) 1370 477 577 611 1080 2010 2360 2920
2021-02-07 14:30 5.28 1720 2970 (2019) 447 (2018) 1370 477 577 611 1080 2010 2360 2920
2021-02-07 13:30 5.29 1730 2970 (2019) 447 (2018) 1370 477 577 611 1080 2010 2360 2920
2021-02-07 12:30 5.29 1730 2970 (2019) 447 (2018) 1370 477 577 611 1080 2010 2360 2920
2021-02-07 10:30 5.30 1740 2970 (2019) 447 (2018) 1370 477 577 611 1080 2010 2360 2920
2021-02-07 09:30 5.30 1740 2970 (2019) 447 (2018) 1370 477 577 611 1080 2010 2360 2920
2021-02-07 08:30 5.30 1740 2970 (2019) 447 (2018) 1370 477 577 611 1080 2010 2360 2920
2021-02-07 07:30 5.31 1740 2970 (2019) 447 (2018) 1370 477 577 611 1080 2010 2360 2920
2021-02-07 06:30 5.31 1740 2970 (2019) 447 (2018) 1370 477 577 611 1080 2010 2360 2920
2021-02-07 05:30 5.32 1750 2970 (2019) 447 (2018) 1370 477 577 611 1080 2010 2360 2920
2021-02-07 04:30 5.32 1750 2970 (2019) 447 (2018) 1370 477 577 611 1080 2010 2360 2920
2021-02-07 03:30 5.33 1760 2970 (2019) 447 (2018) 1370 477 577 611 1080 2010 2360 2920
2021-02-07 02:30 5.33 1760 2970 (2019) 447 (2018) 1370 477 577 611 1080 2010 2360 2920
2021-02-07 01:30 5.34 1770 2970 (2019) 447 (2018) 1370 477 577 611 1080 2010 2360 2920
2021-02-07 00:30 5.34 1770 2970 (2019) 447 (2018) 1370 477 577 611 1080 2010 2360 2920
2021-02-06 23:30 5.35 1780 3050 (2020) 450 (2018) 1230 461 517 548 936 1920 2130 2820
2021-02-06 22:30 5.35 1780 3050 (2020) 450 (2018) 1230 461 517 548 936 1920 2130 2820
2021-02-06 21:30 5.36 1790 3050 (2020) 450 (2018) 1230 461 517 548 936 1920 2130 2820
2021-02-06 20:30 5.36 1790 3050 (2020) 450 (2018) 1230 461 517 548 936 1920 2130 2820
2021-02-06 19:30 5.36 1790 3050 (2020) 450 (2018) 1230 461 517 548 936 1920 2130 2820
2021-02-06 18:30 5.36 1790 3050 (2020) 450 (2018) 1230 461 517 548 936 1920 2130 2820
2021-02-06 17:30 5.37 1800 3050 (2020) 450 (2018) 1230 461 517 548 936 1920 2130 2820
2021-02-06 16:30 5.37 1800 3050 (2020) 450 (2018) 1230 461 517 548 936 1920 2130 2820
2021-02-06 15:30 5.37 1800 3050 (2020) 450 (2018) 1230 461 517 548 936 1920 2130 2820
2021-02-06 14:30 5.37 1800 3050 (2020) 450 (2018) 1230 461 517 548 936 1920 2130 2820
2021-02-06 13:30 5.38 1800 3050 (2020) 450 (2018) 1230 461 517 548 936 1920 2130 2820
2021-02-06 12:30 5.38 1800 3050 (2020) 450 (2018) 1230 461 517 548 936 1920 2130 2820
2021-02-06 11:30 5.39 1810 3050 (2020) 450 (2018) 1230 461 517 548 936 1920 2130 2820
2021-02-06 10:30 5.39 1810 3050 (2020) 450 (2018) 1230 461 517 548 936 1920 2130 2820
2021-02-06 09:30 5.40 1820 3050 (2020) 450 (2018) 1230 461 517 548 936 1920 2130 2820
2021-02-06 08:30 5.41 1830 3050 (2020) 450 (2018) 1230 461 517 548 936 1920 2130 2820
2021-02-06 07:30 5.43 1850 3050 (2020) 450 (2018) 1230 461 517 548 936 1920 2130 2820
2021-02-06 06:30 5.44 1850 3050 (2020) 450 (2018) 1230 461 517 548 936 1920 2130 2820
2021-02-06 05:30 5.46 1870 3050 (2020) 450 (2018) 1230 461 517 548 936 1920 2130 2820
2021-02-06 04:30 5.48 1890 3050 (2020) 450 (2018) 1230 461 517 548 936 1920 2130 2820
2021-02-06 03:30 5.51 1910 3050 (2020) 450 (2018) 1230 461 517 548 936 1920 2130 2820
2021-02-06 02:30 5.54 1940 3050 (2020) 450 (2018) 1230 461 517 548 936 1920 2130 2820
2021-02-06 01:30 5.58 1980 3050 (2020) 450 (2018) 1230 461 517 548 936 1920 2130 2820
2021-02-06 00:30 5.63 2020 3050 (2020) 450 (2018) 1230 461 517 548 936 1920 2130 2820
2021-02-05 23:30 5.70 2080 3170 (2020) 455 (2018) 1210 466 518 537 744 2040 2280 2920
2021-02-05 22:30 5.78 2150 3170 (2020) 455 (2018) 1210 466 518 537 744 2040 2280 2920
2021-02-05 21:30 5.88 2240 3170 (2020) 455 (2018) 1210 466 518 537 744 2040 2280 2920
2021-02-05 20:30 5.96 2320 3170 (2020) 455 (2018) 1210 466 518 537 744 2040 2280 2920
2021-02-05 19:30 6.02 2370 3170 (2020) 455 (2018) 1210 466 518 537 744 2040 2280 2920
2021-02-05 18:30 6.04 2390 3170 (2020) 455 (2018) 1210 466 518 537 744 2040 2280 2920
2021-02-05 17:30 6.06 2410 3170 (2020) 455 (2018) 1210 466 518 537 744 2040 2280 2920
2021-02-05 16:30 6.07 2420 3170 (2020) 455 (2018) 1210 466 518 537 744 2040 2280 2920
2021-02-05 15:30 6.07 2420 3170 (2020) 455 (2018) 1210 466 518 537 744 2040 2280 2920
2021-02-05 14:30 6.08 2430 3170 (2020) 455 (2018) 1210 466 518 537 744 2040 2280 2920
2021-02-05 13:30 6.08 2430 3170 (2020) 455 (2018) 1210 466 518 537 744 2040 2280 2920
2021-02-05 12:30 6.08 2430 3170 (2020) 455 (2018) 1210 466 518 537 744 2040 2280 2920
2021-02-05 11:30 6.09 2440 3170 (2020) 455 (2018) 1210 466 518 537 744 2040 2280 2920
2021-02-05 10:30 6.09 2440 3170 (2020) 455 (2018) 1210 466 518 537 744 2040 2280 2920
2021-02-05 09:30 6.10 2450 3170 (2020) 455 (2018) 1210 466 518 537 744 2040 2280 2920
2021-02-05 08:30 6.11 2460 3170 (2020) 455 (2018) 1210 466 518 537 744 2040 2280 2920
2021-02-05 07:30 6.11 2460 3170 (2020) 455 (2018) 1210 466 518 537 744 2040 2280 2920
2021-02-05 06:30 6.12 2470 3170 (2020) 455 (2018) 1210 466 518 537 744 2040 2280 2920
2021-02-05 05:30 6.13 2480 3170 (2020) 455 (2018) 1210 466 518 537 744 2040 2280 2920
2021-02-05 04:30 6.14 2490 3170 (2020) 455 (2018) 1210 466 518 537 744 2040 2280 2920
2021-02-05 03:30 6.15 2500 3170 (2020) 455 (2018) 1210 466 518 537 744 2040 2280 2920
2021-02-05 02:30 6.17 2520 3170 (2020) 455 (2018) 1210 466 518 537 744 2040 2280 2920
2021-02-05 01:30 6.18 2520 3170 (2020) 455 (2018) 1210 466 518 537 744 2040 2280 2920
2021-02-05 00:30 6.20 2540 3170 (2020) 455 (2018) 1210 466 518 537 744 2040 2280 2920
2021-02-04 23:30 6.22 2560 3620 (2020) 459 (2018) 1270 474 518 544 918 1850 2240 3290
2021-02-04 22:30 6.25 2590 3620 (2020) 459 (2018) 1270 474 518 544 918 1850 2240 3290
2021-02-04 21:30 6.29 2630 3620 (2020) 459 (2018) 1270 474 518 544 918 1850 2240 3290
2021-02-04 20:30 6.33 2670 3620 (2020) 459 (2018) 1270 474 518 544 918 1850 2240 3290
2021-02-04 19:30 6.39 2730 3620 (2020) 459 (2018) 1270 474 518 544 918 1850 2240 3290
2021-02-04 18:30 6.46 2800 3620 (2020) 459 (2018) 1270 474 518 544 918 1850 2240 3290
2021-02-04 17:30 6.57 2900 3620 (2020) 459 (2018) 1270 474 518 544 918 1850 2240 3290
2021-02-04 16:30 6.68 3010 3620 (2020) 459 (2018) 1270 474 518 544 918 1850 2240 3290
2021-02-04 15:30 6.80 3120 3620 (2020) 459 (2018) 1270 474 518 544 918 1850 2240 3290
2021-02-04 14:30 6.89 3200 3620 (2020) 459 (2018) 1270 474 518 544 918 1850 2240 3290
2021-02-04 13:30 6.96 3270 3620 (2020) 459 (2018) 1270 474 518 544 918 1850 2240 3290
2021-02-04 12:30 6.98 3220 3620 (2020) 459 (2018) 1270 474 518 544 918 1850 2240 3290
2021-02-04 11:30 6.98 3220 3620 (2020) 459 (2018) 1270 474 518 544 918 1850 2240 3290
2021-02-04 10:30 6.98 3220 3620 (2020) 459 (2018) 1270 474 518 544 918 1850 2240 3290
2021-02-04 09:30 6.99 3230 3620 (2020) 459 (2018) 1270 474 518 544 918 1850 2240 3290
2021-02-04 08:30 6.99 3230 3620 (2020) 459 (2018) 1270 474 518 544 918 1850 2240 3290
2021-02-04 07:30 6.98 3220 3620 (2020) 459 (2018) 1270 474 518 544 918 1850 2240 3290
2021-02-04 06:30 6.98 3220 3620 (2020) 459 (2018) 1270 474 518 544 918 1850 2240 3290
2021-02-04 05:30 6.98 3220 3620 (2020) 459 (2018) 1270 474 518 544 918 1850 2240 3290
2021-02-04 04:30 6.99 3230 3620 (2020) 459 (2018) 1270 474 518 544 918 1850 2240 3290
2021-02-04 03:30 6.99 3230 3620 (2020) 459 (2018) 1270 474 518 544 918 1850 2240 3290
2021-02-04 02:30 7.00 3240 3620 (2020) 459 (2018) 1270 474 518 544 918 1850 2240 3290
2021-02-04 01:30 7.01 3240 3620 (2020) 459 (2018) 1270 474 518 544 918 1850 2240 3290
2021-02-04 00:30 7.01 3240 3620 (2020) 459 (2018) 1270 474 518 544 918 1850 2240 3290
2021-02-03 23:30 7.02 3250 3530 (2020) 456 (2018) 1290 463 501 538 820 1780 2360 3380
2021-02-03 22:30 7.03 3260 3530 (2020) 456 (2018) 1290 463 501 538 820 1780 2360 3380
2021-02-03 21:30 7.05 3280 3530 (2020) 456 (2018) 1290 463 501 538 820 1780 2360 3380
2021-02-03 20:30 7.06 3290 3530 (2020) 456 (2018) 1290 463 501 538 820 1780 2360 3380
2021-02-03 19:30 7.08 3310 3530 (2020) 456 (2018) 1290 463 501 538 820 1780 2360 3380
2021-02-03 18:30 7.11 3340 3530 (2020) 456 (2018) 1290 463 501 538 820 1780 2360 3380
2021-02-03 17:30 7.14 3360 3530 (2020) 456 (2018) 1290 463 501 538 820 1780 2360 3380
2021-02-03 16:30 7.17 3390 3530 (2020) 456 (2018) 1290 463 501 538 820 1780 2360 3380
2021-02-03 15:30 7.21 3420 3530 (2020) 456 (2018) 1290 463 501 538 820 1780 2360 3380
2021-02-03 14:30 7.23 3440 3530 (2020) 456 (2018) 1290 463 501 538 820 1780 2360 3380
2021-02-03 13:30 7.25 3460 3530 (2020) 456 (2018) 1290 463 501 538 820 1780 2360 3380
2021-02-03 12:30 7.25 3460 3530 (2020) 456 (2018) 1290 463 501 538 820 1780 2360 3380
2021-02-03 11:30 7.26 3470 3530 (2020) 456 (2018) 1290 463 501 538 820 1780 2360 3380
2021-02-03 10:30 7.27 3470 3530 (2020) 456 (2018) 1290 463 501 538 820 1780 2360 3380
2021-02-03 09:30 7.26 3470 3530 (2020) 456 (2018) 1290 463 501 538 820 1780 2360 3380
2021-02-03 08:30 7.26 3470 3530 (2020) 456 (2018) 1290 463 501 538 820 1780 2360 3380
2021-02-03 07:30 7.27 3470 3530 (2020) 456 (2018) 1290 463 501 538 820 1780 2360 3380
2021-02-03 06:30 7.27 3470 3530 (2020) 456 (2018) 1290 463 501 538 820 1780 2360 3380
2021-02-03 05:30 7.27 3470 3530 (2020) 456 (2018) 1290 463 501 538 820 1780 2360 3380
2021-02-03 04:30 7.27 3470 3530 (2020) 456 (2018) 1290 463 501 538 820 1780 2360 3380
2021-02-03 03:30 7.27 3470 3530 (2020) 456 (2018) 1290 463 501 538 820 1780 2360 3380
2021-02-03 02:30 7.27 3470 3530 (2020) 456 (2018) 1290 463 501 538 820 1780 2360 3380
2021-02-03 01:30 7.27 3470 3530 (2020) 456 (2018) 1290 463 501 538 820 1780 2360 3380
2021-02-03 00:30 7.26 3470 3530 (2020) 456 (2018) 1290 463 501 538 820 1780 2360 3380
2021-02-02 23:30 7.25 3460 3620 (2020) 432 (2011) 1360 446 524 571 910 1800 2440 3510
2021-02-02 22:30 7.24 3450 3620 (2020) 432 (2011) 1360 446 524 571 910 1800 2440 3510
2021-02-02 21:30 7.23 3440 3620 (2020) 432 (2011) 1360 446 524 571 910 1800 2440 3510
2021-02-02 20:30 7.20 3410 3620 (2020) 432 (2011) 1360 446 524 571 910 1800 2440 3510
2021-02-02 19:30 7.17 3390 3620 (2020) 432 (2011) 1360 446 524 571 910 1800 2440 3510
2021-02-02 18:30 7.13 3360 3620 (2020) 432 (2011) 1360 446 524 571 910 1800 2440 3510
2021-02-02 17:30 7.08 3310 3620 (2020) 432 (2011) 1360 446 524 571 910 1800 2440 3510
2021-02-02 16:30 7.03 3260 3620 (2020) 432 (2011) 1360 446 524 571 910 1800 2440 3510
2021-02-02 15:30 6.98 3220 3620 (2020) 432 (2011) 1360 446 524 571 910 1800 2440 3510
2021-02-02 14:30 6.94 3180 3620 (2020) 432 (2011) 1360 446 524 571 910 1800 2440 3510
2021-02-02 13:30 6.90 3140 3620 (2020) 432 (2011) 1360 446 524 571 910 1800 2440 3510
2021-02-02 12:30 6.89 3130 3620 (2020) 432 (2011) 1360 446 524 571 910 1800 2440 3510
2021-02-02 11:30 6.89 3130 3620 (2020) 432 (2011) 1360 446 524 571 910 1800 2440 3510
2021-02-02 10:30 6.89 3130 3620 (2020) 432 (2011) 1360 446 524 571 910 1800 2440 3510
2021-02-02 09:30 6.90 3140 3620 (2020) 432 (2011) 1360 446 524 571 910 1800 2440 3510
2021-02-02 08:30 6.90 3140 3620 (2020) 432 (2011) 1360 446 524 571 910 1800 2440 3510
2021-02-02 07:30 6.90 3140 3620 (2020) 432 (2011) 1360 446 524 571 910 1800 2440 3510
2021-02-02 06:30 6.90 3140 3620 (2020) 432 (2011) 1360 446 524 571 910 1800 2440 3510
2021-02-02 05:30 6.90 3140 3620 (2020) 432 (2011) 1360 446 524 571 910 1800 2440 3510
2021-02-02 04:30 6.91 3150 3620 (2020) 432 (2011) 1360 446 524 571 910 1800 2440 3510
2021-02-02 03:30 6.91 3150 3620 (2020) 432 (2011) 1360 446 524 571 910 1800 2440 3510
2021-02-02 02:30 6.91 3150 3620 (2020) 432 (2011) 1360 446 524 571 910 1800 2440 3510
2021-02-02 01:30 6.92 3160 3620 (2020) 432 (2011) 1360 446 524 571 910 1800 2440 3510
2021-02-02 00:30 6.92 3160 3620 (2020) 432 (2011) 1360 446 524 571 910 1800 2440 3510
2021-02-01 23:30 6.92 3160 3700 (2020) 396 (2011) 1410 423 524 568 1180 1640 2330 3590
2021-02-01 22:30 6.92 3160 3700 (2020) 396 (2011) 1410 423 524 568 1180 1640 2330 3590
2021-02-01 21:30 6.93 3170 3700 (2020) 396 (2011) 1410 423 524 568 1180 1640 2330 3590
2021-02-01 20:30 6.93 3170 3700 (2020) 396 (2011) 1410 423 524 568 1180 1640 2330 3590
2021-02-01 19:30 6.93 3170 3700 (2020) 396 (2011) 1410 423 524 568 1180 1640 2330 3590
2021-02-01 18:30 6.93 3170 3700 (2020) 396 (2011) 1410 423 524 568 1180 1640 2330 3590
2021-02-01 17:30 6.93 3170 3700 (2020) 396 (2011) 1410 423 524 568 1180 1640 2330 3590
2021-02-01 16:30 6.94 3180 3700 (2020) 396 (2011) 1410 423 524 568 1180 1640 2330 3590
2021-02-01 15:30 6.93 3170 3700 (2020) 396 (2011) 1410 423 524 568 1180 1640 2330 3590
2021-02-01 14:30 6.94 3180 3700 (2020) 396 (2011) 1410 423 524 568 1180 1640 2330 3590
2021-02-01 13:30 6.94 3180 3700 (2020) 396 (2011) 1410 423 524 568 1180 1640 2330 3590
2021-02-01 12:30 6.94 3180 3700 (2020) 396 (2011) 1410 423 524 568 1180 1640 2330 3590
2021-02-01 11:30 6.93 3170 3700 (2020) 396 (2011) 1410 423 524 568 1180 1640 2330 3590
2021-02-01 10:30 6.92 3160 3700 (2020) 396 (2011) 1410 423 524 568 1180 1640 2330 3590
2021-02-01 09:30 6.91 3150 3700 (2020) 396 (2011) 1410 423 524 568 1180 1640 2330 3590
2021-02-01 08:30 6.91 3150 3700 (2020) 396 (2011) 1410 423 524 568 1180 1640 2330 3590
2021-02-01 07:30 6.90 3140 3700 (2020) 396 (2011) 1410 423 524 568 1180 1640 2330 3590
2021-02-01 06:30 6.88 3120 3700 (2020) 396 (2011) 1410 423 524 568 1180 1640 2330 3590
2021-02-01 05:30 6.86 3110 3700 (2020) 396 (2011) 1410 423 524 568 1180 1640 2330 3590
2021-02-01 04:30 6.83 3080 3700 (2020) 396 (2011) 1410 423 524 568 1180 1640 2330 3590
2021-02-01 03:30 6.78 3030 3700 (2020) 396 (2011) 1410 423 524 568 1180 1640 2330 3590
2021-02-01 02:30 6.71 2970 3700 (2020) 396 (2011) 1410 423 524 568 1180 1640 2330 3590
2021-02-01 01:30 6.65 2910 3700 (2020) 396 (2011) 1410 423 524 568 1180 1640 2330 3590
2021-02-01 00:30 6.55 2820 3700 (2020) 396 (2011) 1410 423 524 568 1180 1640 2330 3590
2021-01-31 23:30 6.45 2720 3690 (2020) 365 (2011) 1420 403 527 560 1010 1930 2600 3610
2021-01-31 22:30 6.33 2600 3690 (2020) 365 (2011) 1420 403 527 560 1010 1930 2600 3610
2021-01-31 21:30 6.23 2510 3690 (2020) 365 (2011) 1420 403 527 560 1010 1930 2600 3610
2021-01-31 20:30 6.17 2450 3690 (2020) 365 (2011) 1420 403 527 560 1010 1930 2600 3610
2021-01-31 19:30 6.16 2440 3690 (2020) 365 (2011) 1420 403 527 560 1010 1930 2600 3610
2021-01-31 18:30 6.18 2460 3690 (2020) 365 (2011) 1420 403 527 560 1010 1930 2600 3610
2021-01-31 17:30 6.20 2480 3690 (2020) 365 (2011) 1420 403 527 560 1010 1930 2600 3610
2021-01-31 16:30 6.22 2500 3690 (2020) 365 (2011) 1420 403 527 560 1010 1930 2600 3610
2021-01-31 15:30 6.24 2520 3690 (2020) 365 (2011) 1420 403 527 560 1010 1930 2600 3610
2021-01-31 14:30 6.26 2540 3690 (2020) 365 (2011) 1420 403 527 560 1010 1930 2600 3610
2021-01-31 13:30 6.29 2570 3690 (2020) 365 (2011) 1420 403 527 560 1010 1930 2600 3610
2021-01-31 12:30 6.31 2590 3690 (2020) 365 (2011) 1420 403 527 560 1010 1930 2600 3610
2021-01-31 11:30 6.33 2600 3690 (2020) 365 (2011) 1420 403 527 560 1010 1930 2600 3610
2021-01-31 10:30 6.35 2620 3690 (2020) 365 (2011) 1420 403 527 560 1010 1930 2600 3610
2021-01-31 09:30 6.35 2620 3690 (2020) 365 (2011) 1420 403 527 560 1010 1930 2600 3610
2021-01-31 08:30 6.35 2620 3690 (2020) 365 (2011) 1420 403 527 560 1010 1930 2600 3610
2021-01-31 07:30 6.34 2610 3690 (2020) 365 (2011) 1420 403 527 560 1010 1930 2600 3610
2021-01-31 06:30 6.31 2590 3690 (2020) 365 (2011) 1420 403 527 560 1010 1930 2600 3610
2021-01-31 05:30 6.27 2550 3690 (2020) 365 (2011) 1420 403 527 560 1010 1930 2600 3610
2021-01-31 04:30 6.21 2490 3690 (2020) 365 (2011) 1420 403 527 560 1010 1930 2600 3610
2021-01-31 03:30 6.15 2430 3690 (2020) 365 (2011) 1420 403 527 560 1010 1930 2600 3610
2021-01-31 02:30 6.10 2390 3690 (2020) 365 (2011) 1420 403 527 560 1010 1930 2600 3610
2021-01-31 01:30 6.04 2330 3690 (2020) 365 (2011) 1420 403 527 560 1010 1930 2600 3610
2021-01-31 00:30 5.98 2280 3690 (2020) 365 (2011) 1420 403 527 560 1010 1930 2600 3610
2021-01-30 23:30 5.93 2230 3740 (2020) 367 (2011) 1380 408 559 597 916 1930 2660 3660
2021-01-30 22:30 5.89 2200 3740 (2020) 367 (2011) 1380 408 559 597 916 1930 2660 3660
2021-01-30 21:30 5.85 2160 3740 (2020) 367 (2011) 1380 408 559 597 916 1930 2660 3660
2021-01-30 20:30 5.82 2130 3740 (2020) 367 (2011) 1380 408 559 597 916 1930 2660 3660
2021-01-30 19:30 5.79 2110 3740 (2020) 367 (2011) 1380 408 559 597 916 1930 2660 3660
2021-01-30 18:30 5.77 2090 3740 (2020) 367 (2011) 1380 408 559 597 916 1930 2660 3660
2021-01-30 17:30 5.74 2060 3740 (2020) 367 (2011) 1380 408 559 597 916 1930 2660 3660
2021-01-30 16:30 5.72 2050 3740 (2020) 367 (2011) 1380 408 559 597 916 1930 2660 3660
2021-01-30 15:30 5.71 2040 3740 (2020) 367 (2011) 1380 408 559 597 916 1930 2660 3660
2021-01-30 14:30 5.70 2030 3740 (2020) 367 (2011) 1380 408 559 597 916 1930 2660 3660
2021-01-30 13:30 5.70 2030 3740 (2020) 367 (2011) 1380 408 559 597 916 1930 2660 3660
2021-01-30 12:30 5.70 2030 3740 (2020) 367 (2011) 1380 408 559 597 916 1930 2660 3660
2021-01-30 11:30 5.71 2040 3740 (2020) 367 (2011) 1380 408 559 597 916 1930 2660 3660
2021-01-30 10:30 5.71 2040 3740 (2020) 367 (2011) 1380 408 559 597 916 1930 2660 3660
2021-01-30 09:30 5.72 2050 3740 (2020) 367 (2011) 1380 408 559 597 916 1930 2660 3660
2021-01-30 08:30 5.73 2050 3740 (2020) 367 (2011) 1380 408 559 597 916 1930 2660 3660
2021-01-30 07:30 5.75 2070 3740 (2020) 367 (2011) 1380 408 559 597 916 1930 2660 3660
2021-01-30 06:30 5.77 2090 3740 (2020) 367 (2011) 1380 408 559 597 916 1930 2660 3660
2021-01-30 05:30 5.79 2110 3740 (2020) 367 (2011) 1380 408 559 597 916 1930 2660 3660
2021-01-30 04:30 5.83 2140 3740 (2020) 367 (2011) 1380 408 559 597 916 1930 2660 3660
2021-01-30 03:30 5.87 2180 3740 (2020) 367 (2011) 1380 408 559 597 916 1930 2660 3660
2021-01-30 02:30 5.92 2220 3740 (2020) 367 (2011) 1380 408 559 597 916 1930 2660 3660
2021-01-30 01:30 5.99 2290 3740 (2020) 367 (2011) 1380 408 559 597 916 1930 2660 3660
2021-01-30 00:30 6.08 2370 3740 (2020) 367 (2011) 1380 408 559 597 916 1930 2660 3660
2021-01-29 23:30 6.19 2470 3750 (2020) 367 (2011) 1570 408 566 609 1010 2890 3290 3690
2021-01-29 22:30 6.30 2580 3750 (2020) 367 (2011) 1570 408 566 609 1010 2890 3290 3690
2021-01-29 21:30 6.40 2670 3750 (2020) 367 (2011) 1570 408 566 609 1010 2890 3290 3690
2021-01-29 20:30 6.49 2760 3750 (2020) 367 (2011) 1570 408 566 609 1010 2890 3290 3690
2021-01-29 19:30 6.57 2840 3750 (2020) 367 (2011) 1570 408 566 609 1010 2890 3290 3690
2021-01-29 18:30 6.64 2900 3750 (2020) 367 (2011) 1570 408 566 609 1010 2890 3290 3690
2021-01-29 17:30 6.68 2940 3750 (2020) 367 (2011) 1570 408 566 609 1010 2890 3290 3690
2021-01-29 16:30 6.70 2960 3750 (2020) 367 (2011) 1570 408 566 609 1010 2890 3290 3690
2021-01-29 15:30 6.71 2970 3750 (2020) 367 (2011) 1570 408 566 609 1010 2890 3290 3690
2021-01-29 14:30 6.71 2970 3750 (2020) 367 (2011) 1570 408 566 609 1010 2890 3290 3690
2021-01-29 13:30 6.71 2970 3750 (2020) 367 (2011) 1570 408 566 609 1010 2890 3290 3690
2021-01-29 12:30 6.72 2980 3750 (2020) 367 (2011) 1570 408 566 609 1010 2890 3290 3690
2021-01-29 11:30 6.72 2980 3750 (2020) 367 (2011) 1570 408 566 609 1010 2890 3290 3690
2021-01-29 10:30 6.73 2990 3750 (2020) 367 (2011) 1570 408 566 609 1010 2890 3290 3690
2021-01-29 09:30 6.73 2990 3750 (2020) 367 (2011) 1570 408 566 609 1010 2890 3290 3690
2021-01-29 08:30 6.73 2990 3750 (2020) 367 (2011) 1570 408 566 609 1010 2890 3290 3690
2021-01-29 07:30 6.73 2990 3750 (2020) 367 (2011) 1570 408 566 609 1010 2890 3290 3690
2021-01-29 06:30 6.73 2990 3750 (2020) 367 (2011) 1570 408 566 609 1010 2890 3290 3690
2021-01-29 05:30 6.73 2990 3750 (2020) 367 (2011) 1570 408 566 609 1010 2890 3290 3690
2021-01-29 04:30 6.74 3000 3750 (2020) 367 (2011) 1570 408 566 609 1010 2890 3290 3690
2021-01-29 03:30 6.74 3000 3750 (2020) 367 (2011) 1570 408 566 609 1010 2890 3290 3690
2021-01-29 02:30 6.74 3000 3750 (2020) 367 (2011) 1570 408 566 609 1010 2890 3290 3690
2021-01-29 01:30 6.74 3000 3750 (2020) 367 (2011) 1570 408 566 609 1010 2890 3290 3690
2021-01-29 00:30 6.74 3000 3750 (2020) 367 (2011) 1570 408 566 609 1010 2890 3290 3690
2021-01-28 23:30 6.75 3000 3770 (2020) 371 (2011) 1680 406 567 623 1170 3290 3650 3750
2021-01-28 22:30 6.75 3000 3770 (2020) 371 (2011) 1680 406 567 623 1170 3290 3650 3750
2021-01-28 21:30 6.75 3000 3770 (2020) 371 (2011) 1680 406 567 623 1170 3290 3650 3750
2021-01-28 20:30 6.75 3000 3770 (2020) 371 (2011) 1680 406 567 623 1170 3290 3650 3750
2021-01-28 19:30 6.75 3000 3770 (2020) 371 (2011) 1680 406 567 623 1170 3290 3650 3750
2021-01-28 18:30 6.75 3000 3770 (2020) 371 (2011) 1680 406 567 623 1170 3290 3650 3750
2021-01-28 17:30 6.75 3000 3770 (2020) 371 (2011) 1680 406 567 623 1170 3290 3650 3750
2021-01-28 16:30 6.75 3000 3770 (2020) 371 (2011) 1680 406 567 623 1170 3290 3650 3750
2021-01-28 15:30 6.75 3000 3770 (2020) 371 (2011) 1680 406 567 623 1170 3290 3650 3750
2021-01-28 14:30 6.75 3000 3770 (2020) 371 (2011) 1680 406 567 623 1170 3290 3650 3750
2021-01-28 13:30 6.75 3000 3770 (2020) 371 (2011) 1680 406 567 623 1170 3290 3650 3750
2021-01-28 12:30 6.74 3000 3770 (2020) 371 (2011) 1680 406 567 623 1170 3290 3650 3750
2021-01-28 11:30 6.75 3000 3770 (2020) 371 (2011) 1680 406 567 623 1170 3290 3650 3750
2021-01-28 10:30 6.75 3000 3770 (2020) 371 (2011) 1680 406 567 623 1170 3290 3650 3750
2021-01-28 09:30 6.74 3000 3770 (2020) 371 (2011) 1680 406 567 623 1170 3290 3650 3750
2021-01-28 08:30 6.73 2990 3770 (2020) 371 (2011) 1680 406 567 623 1170 3290 3650 3750
2021-01-28 07:30 6.72 2980 3770 (2020) 371 (2011) 1680 406 567 623 1170 3290 3650 3750
2021-01-28 06:30 6.71 2970 3770 (2020) 371 (2011) 1680 406 567 623 1170 3290 3650 3750
2021-01-28 05:30 6.69 2950 3770 (2020) 371 (2011) 1680 406 567 623 1170 3290 3650 3750
2021-01-28 04:30 6.67 2930 3770 (2020) 371 (2011) 1680 406 567 623 1170 3290 3650 3750
2021-01-28 03:30 6.64 2900 3770 (2020) 371 (2011) 1680 406 567 623 1170 3290 3650 3750
2021-01-28 02:30 6.60 2870 3770 (2020) 371 (2011) 1680 406 567 623 1170 3290 3650 3750
2021-01-28 01:30 6.55 2820 3770 (2020) 371 (2011) 1680 406 567 623 1170 3290 3650 3750
2021-01-28 00:30 6.48 2750 3770 (2020) 371 (2011) 1680 406 567 623 1170 3290 3650 3750
2021-01-27 23:30 6.41 2680 3820 (2019) 404 (2011) 1720 435 578 628 1120 3330 3700 3800
2021-01-27 22:30 6.34 2610 3820 (2019) 404 (2011) 1720 435 578 628 1120 3330 3700 3800
2021-01-27 21:30 6.28 2560 3820 (2019) 404 (2011) 1720 435 578 628 1120 3330 3700 3800
2021-01-27 20:30 6.24 2520 3820 (2019) 404 (2011) 1720 435 578 628 1120 3330 3700 3800
2021-01-27 19:30 6.21 2490 3820 (2019) 404 (2011) 1720 435 578 628 1120 3330 3700 3800
2021-01-27 18:30 6.17 2450 3820 (2019) 404 (2011) 1720 435 578 628 1120 3330 3700 3800
2021-01-27 17:30 6.12 2410 3820 (2019) 404 (2011) 1720 435 578 628 1120 3330 3700 3800
2021-01-27 16:30 6.06 2350 3820 (2019) 404 (2011) 1720 435 578 628 1120 3330 3700 3800
2021-01-27 15:30 5.99 2290 3820 (2019) 404 (2011) 1720 435 578 628 1120 3330 3700 3800
2021-01-27 14:30 5.92 2220 3820 (2019) 404 (2011) 1720 435 578 628 1120 3330 3700 3800
2021-01-27 13:30 5.86 2170 3820 (2019) 404 (2011) 1720 435 578 628 1120 3330 3700 3800
2021-01-27 12:30 5.83 2140 3820 (2019) 404 (2011) 1720 435 578 628 1120 3330 3700 3800
2021-01-27 11:30 5.82 2130 3820 (2019) 404 (2011) 1720 435 578 628 1120 3330 3700 3800
2021-01-27 10:30 5.83 2140 3820 (2019) 404 (2011) 1720 435 578 628 1120 3330 3700 3800
2021-01-27 09:30 5.82 2130 3820 (2019) 404 (2011) 1720 435 578 628 1120 3330 3700 3800
2021-01-27 08:30 5.82 2130 3820 (2019) 404 (2011) 1720 435 578 628 1120 3330 3700 3800
2021-01-27 07:30 5.82 2130 3820 (2019) 404 (2011) 1720 435 578 628 1120 3330 3700 3800
2021-01-27 06:30 5.83 2140 3820 (2019) 404 (2011) 1720 435 578 628 1120 3330 3700 3800
2021-01-27 05:30 5.84 2150 3820 (2019) 404 (2011) 1720 435 578 628 1120 3330 3700 3800
2021-01-27 04:30 5.84 2150 3820 (2019) 404 (2011) 1720 435 578 628 1120 3330 3700 3800
2021-01-27 03:30 5.84 2150 3820 (2019) 404 (2011) 1720 435 578 628 1120 3330 3700 3800
2021-01-27 02:30 5.85 2160 3820 (2019) 404 (2011) 1720 435 578 628 1120 3330 3700 3800
2021-01-27 01:30 5.85 2160 3820 (2019) 404 (2011) 1720 435 578 628 1120 3330 3700 3800
2021-01-27 00:30 5.85 2160 3820 (2019) 404 (2011) 1720 435 578 628 1120 3330 3700 3800
2021-01-26 23:30 5.85 2160 3940 (2019) 447 (2011) 1770 455 519 568 1300 3370 3750 3890
2021-01-26 22:30 5.84 2150 3940 (2019) 447 (2011) 1770 455 519 568 1300 3370 3750 3890
2021-01-26 21:30 5.83 2140 3940 (2019) 447 (2011) 1770 455 519 568 1300 3370 3750 3890
2021-01-26 20:30 5.80 2120 3940 (2019) 447 (2011) 1770 455 519 568 1300 3370 3750 3890
2021-01-26 19:30 5.77 2090 3940 (2019) 447 (2011) 1770 455 519 568 1300 3370 3750 3890
2021-01-26 18:30 5.73 2050 3940 (2019) 447 (2011) 1770 455 519 568 1300 3370 3750 3890
2021-01-26 17:30 5.65 1980 3940 (2019) 447 (2011) 1770 455 519 568 1300 3370 3750 3890
2021-01-26 16:30 5.57 1920 3940 (2019) 447 (2011) 1770 455 519 568 1300 3370 3750 3890
2021-01-26 15:30 5.47 1830 3940 (2019) 447 (2011) 1770 455 519 568 1300 3370 3750 3890
2021-01-26 14:30 5.38 1760 3940 (2019) 447 (2011) 1770 455 519 568 1300 3370 3750 3890
2021-01-26 13:30 5.34 1720 3940 (2019) 447 (2011) 1770 455 519 568 1300 3370 3750 3890
2021-01-26 12:30 5.36 1740 3940 (2019) 447 (2011) 1770 455 519 568 1300 3370 3750 3890
2021-01-26 11:30 5.40 1770 3940 (2019) 447 (2011) 1770 455 519 568 1300 3370 3750 3890
2021-01-26 10:30 5.45 1810 3940 (2019) 447 (2011) 1770 455 519 568 1300 3370 3750 3890
2021-01-26 09:30 5.50 1860 3940 (2019) 447 (2011) 1770 455 519 568 1300 3370 3750 3890
2021-01-26 08:30 5.55 1900 3940 (2019) 447 (2011) 1770 455 519 568 1300 3370 3750 3890
2021-01-26 07:30 5.61 1950 3940 (2019) 447 (2011) 1770 455 519 568 1300 3370 3750 3890
2021-01-26 06:30 5.67 2000 3940 (2019) 447 (2011) 1770 455 519 568 1300 3370 3750 3890
2021-01-26 05:30 5.74 2060 3940 (2019) 447 (2011) 1770 455 519 568 1300 3370 3750 3890
2021-01-26 04:30 5.82 2130 3940 (2019) 447 (2011) 1770 455 519 568 1300 3370 3750 3890
2021-01-26 03:30 5.90 2210 3940 (2019) 447 (2011) 1770 455 519 568 1300 3370 3750 3890
2021-01-26 02:30 5.98 2280 3940 (2019) 447 (2011) 1770 455 519 568 1300 3370 3750 3890
2021-01-26 01:30 6.08 2370 3940 (2019) 447 (2011) 1770 455 519 568 1300 3370 3750 3890
2021-01-26 00:30 6.19 2470 3940 (2019) 447 (2011) 1770 455 519 568 1300 3370 3750 3890
2021-01-25 23:30 6.32 2600 3870 (2019) 453 (2011) 1730 457 470 510 1170 3280 3700 3860
2021-01-25 22:30 6.47 2740 3870 (2019) 453 (2011) 1730 457 470 510 1170 3280 3700 3860
2021-01-25 21:30 6.62 2890 3870 (2019) 453 (2011) 1730 457 470 510 1170 3280 3700 3860
2021-01-25 20:30 6.78 3030 3870 (2019) 453 (2011) 1730 457 470 510 1170 3280 3700 3860
2021-01-25 19:30 6.87 3110 3870 (2019) 453 (2011) 1730 457 470 510 1170 3280 3700 3860
2021-01-25 18:30 6.87 3110 3870 (2019) 453 (2011) 1730 457 470 510 1170 3280 3700 3860
2021-01-25 17:30 6.75 3000 3870 (2019) 453 (2011) 1730 457 470 510 1170 3280 3700 3860
2021-01-25 16:30 6.52 2790 3870 (2019) 453 (2011) 1730 457 470 510 1170 3280 3700 3860
2021-01-25 15:30 6.21 2490 3870 (2019) 453 (2011) 1730 457 470 510 1170 3280 3700 3860
2021-01-25 14:30 5.91 2210 3870 (2019) 453 (2011) 1730 457 470 510 1170 3280 3700 3860
2021-01-25 13:30 5.62 1960 3870 (2019) 453 (2011) 1730 457 470 510 1170 3280 3700 3860
2021-01-25 12:30 5.27 1670 3870 (2019) 453 (2011) 1730 457 470 510 1170 3280 3700 3860
2021-01-25 11:30 4.83 1330 3870 (2019) 453 (2011) 1730 457 470 510 1170 3280 3700 3860
2021-01-25 10:30 4.50 1100 3870 (2019) 453 (2011) 1730 457 470 510 1170 3280 3700 3860
2021-01-25 09:30 4.34 999 3870 (2019) 453 (2011) 1730 457 470 510 1170 3280 3700 3860
2021-01-25 08:30 4.21 916 3870 (2019) 453 (2011) 1730 457 470 510 1170 3280 3700 3860
2021-01-25 07:30 4.10 849 3870 (2019) 453 (2011) 1730 457 470 510 1170 3280 3700 3860
2021-01-25 06:30 4.01 795 3870 (2019) 453 (2011) 1730 457 470 510 1170 3280 3700 3860
2021-01-25 05:30 3.95 760 3870 (2019) 453 (2011) 1730 457 470 510 1170 3280 3700 3860
2021-01-25 04:30 3.90 731 3870 (2019) 453 (2011) 1730 457 470 510 1170 3280 3700 3860
2021-01-25 03:30 3.85 703 3870 (2019) 453 (2011) 1730 457 470 510 1170 3280 3700 3860
2021-01-25 02:30 3.83 692 3870 (2019) 453 (2011) 1730 457 470 510 1170 3280 3700 3860
2021-01-25 01:30 3.81 680 3870 (2019) 453 (2011) 1730 457 470 510 1170 3280 3700 3860
2021-01-25 00:30 3.80 675 3870 (2019) 453 (2011) 1730 457 470 510 1170 3280 3700 3860
2021-01-24 23:30 3.80 675 3900 (2020) 451 (2018) 1720 452 465 510 1120 3300 3570 3810
2021-01-24 22:30 3.81 680 3900 (2020) 451 (2018) 1720 452 465 510 1120 3300 3570 3810
2021-01-24 21:30 3.80 675 3900 (2020) 451 (2018) 1720 452 465 510 1120 3300 3570 3810
2021-01-24 20:30 3.81 680 3900 (2020) 451 (2018) 1720 452 465 510 1120 3300 3570 3810
2021-01-24 19:30 3.81 680 3900 (2020) 451 (2018) 1720 452 465 510 1120 3300 3570 3810
2021-01-24 18:30 3.81 680 3900 (2020) 451 (2018) 1720 452 465 510 1120 3300 3570 3810
2021-01-24 17:30 3.81 680 3900 (2020) 451 (2018) 1720 452 465 510 1120 3300 3570 3810
2021-01-24 16:30 3.81 680 3900 (2020) 451 (2018) 1720 452 465 510 1120 3300 3570 3810
2021-01-24 15:30 3.81 680 3900 (2020) 451 (2018) 1720 452 465 510 1120 3300 3570 3810
2021-01-24 14:30 3.81 680 3900 (2020) 451 (2018) 1720 452 465 510 1120 3300 3570 3810
2021-01-24 13:30 3.82 686 3900 (2020) 451 (2018) 1720 452 465 510 1120 3300 3570 3810
2021-01-24 12:30 3.82 686 3900 (2020) 451 (2018) 1720 452 465 510 1120 3300 3570 3810
2021-01-24 11:30 3.81 680 3900 (2020) 451 (2018) 1720 452 465 510 1120 3300 3570 3810
2021-01-24 10:30 3.82 686 3900 (2020) 451 (2018) 1720 452 465 510 1120 3300 3570 3810
2021-01-24 09:30 3.81 680 3900 (2020) 451 (2018) 1720 452 465 510 1120 3300 3570 3810
2021-01-24 08:30 3.81 680 3900 (2020) 451 (2018) 1720 452 465 510 1120 3300 3570 3810
2021-01-24 07:30 3.81 680 3900 (2020) 451 (2018) 1720 452 465 510 1120 3300 3570 3810
2021-01-24 06:30 3.81 680 3900 (2020) 451 (2018) 1720 452 465 510 1120 3300 3570 3810
2021-01-24 05:30 3.80 675 3900 (2020) 451 (2018) 1720 452 465 510 1120 3300 3570 3810
2021-01-24 04:30 3.80 675 3900 (2020) 451 (2018) 1720 452 465 510 1120 3300 3570 3810
2021-01-24 03:30 3.80 675 3900 (2020) 451 (2018) 1720 452 465 510 1120 3300 3570 3810
2021-01-24 02:30 3.80 675 3900 (2020) 451 (2018) 1720 452 465 510 1120 3300 3570 3810
2021-01-24 01:30 3.80 675 3900 (2020) 451 (2018) 1720 452 465 510 1120 3300 3570 3810
2021-01-24 00:30 3.80 675 3900 (2020) 451 (2018) 1720 452 465 510 1120 3300 3570 3810
2021-01-23 23:30 3.80 675 3990 (2019) 431 (2018) 1790 438 468 535 1090 3460 3720 3950
2021-01-23 22:30 3.80 675 3990 (2019) 431 (2018) 1790 438 468 535 1090 3460 3720 3950
2021-01-23 21:30 3.80 675 3990 (2019) 431 (2018) 1790 438 468 535 1090 3460 3720 3950
2021-01-23 20:30 3.80 675 3990 (2019) 431 (2018) 1790 438 468 535 1090 3460 3720 3950
2021-01-23 19:30 3.80 675 3990 (2019) 431 (2018) 1790 438 468 535 1090 3460 3720 3950
2021-01-23 18:30 3.80 675 3990 (2019) 431 (2018) 1790 438 468 535 1090 3460 3720 3950
2021-01-23 17:30 3.80 675 3990 (2019) 431 (2018) 1790 438 468 535 1090 3460 3720 3950
2021-01-23 16:30 3.80 675 3990 (2019) 431 (2018) 1790 438 468 535 1090 3460 3720 3950
2021-01-23 15:30 3.80 675 3990 (2019) 431 (2018) 1790 438 468 535 1090 3460 3720 3950
2021-01-23 14:30 3.81 680 3990 (2019) 431 (2018) 1790 438 468 535 1090 3460 3720 3950
2021-01-23 13:30 3.81 680 3990 (2019) 431 (2018) 1790 438 468 535 1090 3460 3720 3950
2021-01-23 12:30 3.81 680 3990 (2019) 431 (2018) 1790 438 468 535 1090 3460 3720 3950
2021-01-23 11:30 3.81 680 3990 (2019) 431 (2018) 1790 438 468 535 1090 3460 3720 3950
2021-01-23 10:30 3.81 680 3990 (2019) 431 (2018) 1790 438 468 535 1090 3460 3720 3950
2021-01-23 09:30 3.81 680 3990 (2019) 431 (2018) 1790 438 468 535 1090 3460 3720 3950
2021-01-23 08:30 3.81 680 3990 (2019) 431 (2018) 1790 438 468 535 1090 3460 3720 3950
2021-01-23 07:30 3.81 680 3990 (2019) 431 (2018) 1790 438 468 535 1090 3460 3720 3950
2021-01-23 06:30 3.81 680 3990 (2019) 431 (2018) 1790 438 468 535 1090 3460 3720 3950
2021-01-23 05:30 3.81 680 3990 (2019) 431 (2018) 1790 438 468 535 1090 3460 3720 3950
2021-01-23 04:30 3.81 680 3990 (2019) 431 (2018) 1790 438 468 535 1090 3460 3720 3950
2021-01-23 03:30 3.81 680 3990 (2019) 431 (2018) 1790 438 468 535 1090 3460 3720 3950
2021-01-23 02:30 3.81 680 3990 (2019) 431 (2018) 1790 438 468 535 1090 3460 3720 3950
2021-01-23 01:30 3.82 686 3990 (2019) 431 (2018) 1790 438 468 535 1090 3460 3720 3950
2021-01-23 00:30 3.82 686 3990 (2019) 431 (2018) 1790 438 468 535 1090 3460 3720 3950
2021-01-22 23:30 3.82 686 3850 (2020) 433 (2018) 1660 439 472 528 1280 2840 3350 3800
2021-01-22 22:30 3.82 686 3850 (2020) 433 (2018) 1660 439 472 528 1280 2840 3350 3800
2021-01-22 21:30 3.82 686 3850 (2020) 433 (2018) 1660 439 472 528 1280 2840 3350 3800
2021-01-22 20:30 3.82 686 3850 (2020) 433 (2018) 1660 439 472 528 1280 2840 3350 3800
2021-01-22 19:30 3.83 692 3850 (2020) 433 (2018) 1660 439 472 528 1280 2840 3350 3800
2021-01-22 18:30 3.83 692 3850 (2020) 433 (2018) 1660 439 472 528 1280 2840 3350 3800
2021-01-22 17:30 3.83 692 3850 (2020) 433 (2018) 1660 439 472 528 1280 2840 3350 3800
2021-01-22 16:30 3.83 692 3850 (2020) 433 (2018) 1660 439 472 528 1280 2840 3350 3800
2021-01-22 15:30 3.84 697 3850 (2020) 433 (2018) 1660 439 472 528 1280 2840 3350 3800
2021-01-22 14:30 3.84 697 3850 (2020) 433 (2018) 1660 439 472 528 1280 2840 3350 3800
2021-01-22 13:30 3.84 697 3850 (2020) 433 (2018) 1660 439 472 528 1280 2840 3350 3800
2021-01-22 12:30 3.84 697 3850 (2020) 433 (2018) 1660 439 472 528 1280 2840 3350 3800
2021-01-22 11:30 3.85 703 3850 (2020) 433 (2018) 1660 439 472 528 1280 2840 3350 3800
2021-01-22 10:30 3.85 703 3850 (2020) 433 (2018) 1660 439 472 528 1280 2840 3350 3800
2021-01-22 09:30 3.85 703 3850 (2020) 433 (2018) 1660 439 472 528 1280 2840 3350 3800
2021-01-22 08:30 3.85 703 3850 (2020) 433 (2018) 1660 439 472 528 1280 2840 3350 3800
2021-01-22 07:30 3.85 703 3850 (2020) 433 (2018) 1660 439 472 528 1280 2840 3350 3800
2021-01-22 06:30 3.86 708 3850 (2020) 433 (2018) 1660 439 472 528 1280 2840 3350 3800
2021-01-22 05:30 3.86 708 3850 (2020) 433 (2018) 1660 439 472 528 1280 2840 3350 3800
2021-01-22 04:30 3.87 714 3850 (2020) 433 (2018) 1660 439 472 528 1280 2840 3350 3800
2021-01-22 03:30 3.88 720 3850 (2020) 433 (2018) 1660 439 472 528 1280 2840 3350 3800
2021-01-22 02:30 3.88 720 3850 (2020) 433 (2018) 1660 439 472 528 1280 2840 3350 3800
2021-01-22 01:30 3.89 725 3850 (2020) 433 (2018) 1660 439 472 528 1280 2840 3350 3800
2021-01-22 00:30 3.90 731 3850 (2020) 433 (2018) 1660 439 472 528 1280 2840 3350 3800
2021-01-21 23:30 3.91 737 3880 (2020) 407 (2018) 1710 420 470 527 1270 2930 3410 3840
2021-01-21 22:30 3.92 743 3880 (2020) 407 (2018) 1710 420 470 527 1270 2930 3410 3840
2021-01-21 21:30 3.94 754 3880 (2020) 407 (2018) 1710 420 470 527 1270 2930 3410 3840
2021-01-21 20:30 3.96 766 3880 (2020) 407 (2018) 1710 420 470 527 1270 2930 3410 3840
2021-01-21 19:30 3.99 783 3880 (2020) 407 (2018) 1710 420 470 527 1270 2930 3410 3840
2021-01-21 18:30 4.02 801 3880 (2020) 407 (2018) 1710 420 470 527 1270 2930 3410 3840
2021-01-21 17:30 4.06 825 3880 (2020) 407 (2018) 1710 420 470 527 1270 2930 3410 3840
2021-01-21 16:30 4.10 849 3880 (2020) 407 (2018) 1710 420 470 527 1270 2930 3410 3840
2021-01-21 15:30 4.15 879 3880 (2020) 407 (2018) 1710 420 470 527 1270 2930 3410 3840
2021-01-21 14:30 4.19 904 3880 (2020) 407 (2018) 1710 420 470 527 1270 2930 3410 3840
2021-01-21 13:30 4.21 916 3880 (2020) 407 (2018) 1710 420 470 527 1270 2930 3410 3840
2021-01-21 12:30 4.22 922 3880 (2020) 407 (2018) 1710 420 470 527 1270 2930 3410 3840
2021-01-21 11:30 4.22 922 3880 (2020) 407 (2018) 1710 420 470 527 1270 2930 3410 3840
2021-01-21 10:30 4.22 922 3880 (2020) 407 (2018) 1710 420 470 527 1270 2930 3410 3840
2021-01-21 09:30 4.22 922 3880 (2020) 407 (2018) 1710 420 470 527 1270 2930 3410 3840
2021-01-21 08:30 4.22 922 3880 (2020) 407 (2018) 1710 420 470 527 1270 2930 3410 3840
2021-01-21 07:30 4.22 922 3880 (2020) 407 (2018) 1710 420 470 527 1270 2930 3410 3840
2021-01-21 06:30 4.22 922 3880 (2020) 407 (2018) 1710 420 470 527 1270 2930 3410 3840
2021-01-21 05:30 4.22 922 3880 (2020) 407 (2018) 1710 420 470 527 1270 2930 3410 3840
2021-01-21 04:30 4.22 922 3880 (2020) 407 (2018) 1710 420 470 527 1270 2930 3410 3840
2021-01-21 03:30 4.22 922 3880 (2020) 407 (2018) 1710 420 470 527 1270 2930 3410 3840
2021-01-21 02:30 4.22 922 3880 (2020) 407 (2018) 1710 420 470 527 1270 2930 3410 3840
2021-01-21 01:30 4.22 922 3880 (2020) 407 (2018) 1710 420 470 527 1270 2930 3410 3840
2021-01-21 00:30 4.22 922 3880 (2020) 407 (2018) 1710 420 470 527 1270 2930 3410 3840
2021-01-20 23:30 4.23 929 3910 (2020) 407 (2018) 1770 421 476 543 1310 3060 3460 3870
2021-01-20 22:30 4.22 922 3910 (2020) 407 (2018) 1770 421 476 543 1310 3060 3460 3870
2021-01-20 21:30 4.23 929 3910 (2020) 407 (2018) 1770 421 476 543 1310 3060 3460 3870
2021-01-20 20:30 4.23 929 3910 (2020) 407 (2018) 1770 421 476 543 1310 3060 3460 3870
2021-01-20 19:30 4.23 929 3910 (2020) 407 (2018) 1770 421 476 543 1310 3060 3460 3870
2021-01-20 18:30 4.22 922 3910 (2020) 407 (2018) 1770 421 476 543 1310 3060 3460 3870
2021-01-20 17:30 4.22 922 3910 (2020) 407 (2018) 1770 421 476 543 1310 3060 3460 3870
2021-01-20 16:30 4.22 922 3910 (2020) 407 (2018) 1770 421 476 543 1310 3060 3460 3870
2021-01-20 15:30 4.23 929 3910 (2020) 407 (2018) 1770 421 476 543 1310 3060 3460 3870
2021-01-20 14:30 4.23 929 3910 (2020) 407 (2018) 1770 421 476 543 1310 3060 3460 3870
2021-01-20 13:30 4.22 922 3910 (2020) 407 (2018) 1770 421 476 543 1310 3060 3460 3870
2021-01-20 12:30 4.22 922 3910 (2020) 407 (2018) 1770 421 476 543 1310 3060 3460 3870
2021-01-20 11:30 4.22 922 3910 (2020) 407 (2018) 1770 421 476 543 1310 3060 3460 3870
2021-01-20 10:30 4.22 922 3910 (2020) 407 (2018) 1770 421 476 543 1310 3060 3460 3870
2021-01-20 09:30 4.21 916 3910 (2020) 407 (2018) 1770 421 476 543 1310 3060 3460 3870
2021-01-20 08:30 4.21 916 3910 (2020) 407 (2018) 1770 421 476 543 1310 3060 3460 3870
2021-01-20 07:30 4.20 910 3910 (2020) 407 (2018) 1770 421 476 543 1310 3060 3460 3870
2021-01-20 06:30 4.20 910 3910 (2020) 407 (2018) 1770 421 476 543 1310 3060 3460 3870
2021-01-20 05:30 4.20 910 3910 (2020) 407 (2018) 1770 421 476 543 1310 3060 3460 3870
2021-01-20 04:30 4.20 910 3910 (2020) 407 (2018) 1770 421 476 543 1310 3060 3460 3870
2021-01-20 03:30 4.20 910 3910 (2020) 407 (2018) 1770 421 476 543 1310 3060 3460 3870
2021-01-20 02:30 4.19 904 3910 (2020) 407 (2018) 1770 421 476 543 1310 3060 3460 3870
2021-01-20 01:30 4.19 904 3910 (2020) 407 (2018) 1770 421 476 543 1310 3060 3460 3870
2021-01-20 00:30 4.18 898 3910 (2020) 407 (2018) 1770 421 476 543 1310 3060 3460 3870
2021-01-19 23:30 4.17 891 3920 (2020) 408 (2018) 1710 418 476 556 1300 3080 3470 3850
2021-01-19 22:30 4.16 885 3920 (2020) 408 (2018) 1710 418 476 556 1300 3080 3470 3850
2021-01-19 21:30 4.15 879 3920 (2020) 408 (2018) 1710 418 476 556 1300 3080 3470 3850
2021-01-19 20:30 4.14 873 3920 (2020) 408 (2018) 1710 418 476 556 1300 3080 3470 3850
2021-01-19 19:30 4.12 861 3920 (2020) 408 (2018) 1710 418 476 556 1300 3080 3470 3850
2021-01-19 18:30 4.09 843 3920 (2020) 408 (2018) 1710 418 476 556 1300 3080 3470 3850
2021-01-19 17:30 4.06 825 3920 (2020) 408 (2018) 1710 418 476 556 1300 3080 3470 3850
2021-01-19 16:30 4.02 801 3920 (2020) 408 (2018) 1710 418 476 556 1300 3080 3470 3850
2021-01-19 15:30 3.98 777 3920 (2020) 408 (2018) 1710 418 476 556 1300 3080 3470 3850
2021-01-19 14:30 3.94 754 3920 (2020) 408 (2018) 1710 418 476 556 1300 3080 3470 3850
2021-01-19 13:30 3.92 743 3920 (2020) 408 (2018) 1710 418 476 556 1300 3080 3470 3850
2021-01-19 12:30 3.92 743 3920 (2020) 408 (2018) 1710 418 476 556 1300 3080 3470 3850
2021-01-19 11:30 3.92 743 3920 (2020) 408 (2018) 1710 418 476 556 1300 3080 3470 3850
2021-01-19 10:30 3.92 743 3920 (2020) 408 (2018) 1710 418 476 556 1300 3080 3470 3850
2021-01-19 09:30 3.92 743 3920 (2020) 408 (2018) 1710 418 476 556 1300 3080 3470 3850
2021-01-19 08:30 3.92 743 3920 (2020) 408 (2018) 1710 418 476 556 1300 3080 3470 3850
2021-01-19 07:30 3.92 743 3920 (2020) 408 (2018) 1710 418 476 556 1300 3080 3470 3850
2021-01-19 06:30 3.92 743 3920 (2020) 408 (2018) 1710 418 476 556 1300 3080 3470 3850
2021-01-19 05:30 3.92 743 3920 (2020) 408 (2018) 1710 418 476 556 1300 3080 3470 3850
2021-01-19 04:30 3.92 743 3920 (2020) 408 (2018) 1710 418 476 556 1300 3080 3470 3850
2021-01-19 03:30 3.92 743 3920 (2020) 408 (2018) 1710 418 476 556 1300 3080 3470 3850
2021-01-19 02:30 3.93 748 3920 (2020) 408 (2018) 1710 418 476 556 1300 3080 3470 3850
2021-01-19 01:30 3.92 743 3920 (2020) 408 (2018) 1710 418 476 556 1300 3080 3470 3850
2021-01-19 00:30 3.92 743 3920 (2020) 408 (2018) 1710 418 476 556 1300 3080 3470 3850
2021-01-18 23:30 3.93 748 3730 (2020) 381 (2011) 1630 390 473 568 1060 3100 3480 3720
2021-01-18 22:30 3.93 748 3730 (2020) 381 (2011) 1630 390 473 568 1060 3100 3480 3720
2021-01-18 21:30 3.93 748 3730 (2020) 381 (2011) 1630 390 473 568 1060 3100 3480 3720
2021-01-18 20:30 3.93 748 3730 (2020) 381 (2011) 1630 390 473 568 1060 3100 3480 3720
2021-01-18 19:30 3.93 748 3730 (2020) 381 (2011) 1630 390 473 568 1060 3100 3480 3720
2021-01-18 18:30 3.93 748 3730 (2020) 381 (2011) 1630 390 473 568 1060 3100 3480 3720
2021-01-18 17:30 3.93 748 3730 (2020) 381 (2011) 1630 390 473 568 1060 3100 3480 3720
2021-01-18 16:30 3.94 754 3730 (2020) 381 (2011) 1630 390 473 568 1060 3100 3480 3720
2021-01-18 15:30 3.94 754 3730 (2020) 381 (2011) 1630 390 473 568 1060 3100 3480 3720
2021-01-18 14:30 3.94 754 3730 (2020) 381 (2011) 1630 390 473 568 1060 3100 3480 3720
2021-01-18 13:30 3.94 754 3730 (2020) 381 (2011) 1630 390 473 568 1060 3100 3480 3720
2021-01-18 12:30 3.94 754 3730 (2020) 381 (2011) 1630 390 473 568 1060 3100 3480 3720
2021-01-18 11:30 3.94 754 3730 (2020) 381 (2011) 1630 390 473 568 1060 3100 3480 3720
2021-01-18 10:30 3.94 754 3730 (2020) 381 (2011) 1630 390 473 568 1060 3100 3480 3720
2021-01-18 09:30 3.94 754 3730 (2020) 381 (2011) 1630 390 473 568 1060 3100 3480 3720
2021-01-18 08:30 3.94 754 3730 (2020) 381 (2011) 1630 390 473 568 1060 3100 3480 3720
2021-01-18 07:30 3.94 754 3730 (2020) 381 (2011) 1630 390 473 568 1060 3100 3480 3720
2021-01-18 06:30 3.94 754 3730 (2020) 381 (2011) 1630 390 473 568 1060 3100 3480 3720
2021-01-18 05:30 3.94 754 3730 (2020) 381 (2011) 1630 390 473 568 1060 3100 3480 3720
2021-01-18 04:30 3.94 754 3730 (2020) 381 (2011) 1630 390 473 568 1060 3100 3480 3720
2021-01-18 03:30 3.94 754 3730 (2020) 381 (2011) 1630 390 473 568 1060 3100 3480 3720
2021-01-18 02:30 3.94 754 3730 (2020) 381 (2011) 1630 390 473 568 1060 3100 3480 3720
2021-01-18 01:30 3.95 760 3730 (2020) 381 (2011) 1630 390 473 568 1060 3100 3480 3720
2021-01-18 00:30 3.95 760 3730 (2020) 381 (2011) 1630 390 473 568 1060 3100 3480 3720
2021-01-17 23:30 3.95 760 3750 (2016) 365 (2011) 1630 382 482 578 901 3030 3320 3720
2021-01-17 22:30 3.95 760 3750 (2016) 365 (2011) 1630 382 482 578 901 3030 3320 3720
2021-01-17 21:30 3.95 760 3750 (2016) 365 (2011) 1630 382 482 578 901 3030 3320 3720
2021-01-17 20:30 3.95 760 3750 (2016) 365 (2011) 1630 382 482 578 901 3030 3320 3720
2021-01-17 19:30 3.95 760 3750 (2016) 365 (2011) 1630 382 482 578 901 3030 3320 3720
2021-01-17 18:30 3.96 766 3750 (2016) 365 (2011) 1630 382 482 578 901 3030 3320 3720
2021-01-17 17:30 3.96 766 3750 (2016) 365 (2011) 1630 382 482 578 901 3030 3320 3720
2021-01-17 16:30 3.96 766 3750 (2016) 365 (2011) 1630 382 482 578 901 3030 3320 3720
2021-01-17 15:30 3.96 766 3750 (2016) 365 (2011) 1630 382 482 578 901 3030 3320 3720
2021-01-17 14:30 3.96 766 3750 (2016) 365 (2011) 1630 382 482 578 901 3030 3320 3720
2021-01-17 13:30 3.97 772 3750 (2016) 365 (2011) 1630 382 482 578 901 3030 3320 3720
2021-01-17 12:30 3.97 772 3750 (2016) 365 (2011) 1630 382 482 578 901 3030 3320 3720
2021-01-17 11:30 3.97 772 3750 (2016) 365 (2011) 1630 382 482 578 901 3030 3320 3720
2021-01-17 10:30 3.97 772 3750 (2016) 365 (2011) 1630 382 482 578 901 3030 3320 3720
2021-01-17 09:30 3.97 772 3750 (2016) 365 (2011) 1630 382 482 578 901 3030 3320 3720
2021-01-17 08:30 3.97 772 3750 (2016) 365 (2011) 1630 382 482 578 901 3030 3320 3720
2021-01-17 07:30 3.96 766 3750 (2016) 365 (2011) 1630 382 482 578 901 3030 3320 3720
2021-01-17 06:30 3.96 766 3750 (2016) 365 (2011) 1630 382 482 578 901 3030 3320 3720
2021-01-17 05:30 3.97 772 3750 (2016) 365 (2011) 1630 382 482 578 901 3030 3320 3720
2021-01-17 04:30 3.97 772 3750 (2016) 365 (2011) 1630 382 482 578 901 3030 3320 3720
2021-01-17 03:30 3.97 772 3750 (2016) 365 (2011) 1630 382 482 578 901 3030 3320 3720
2021-01-17 02:30 3.97 772 3750 (2016) 365 (2011) 1630 382 482 578 901 3030 3320 3720
2021-01-17 01:30 3.97 772 3750 (2016) 365 (2011) 1630 382 482 578 901 3030 3320 3720
2021-01-16 22:30 3.98 777 3790 (2016) 368 (2011) 1560 408 545 595 898 2730 3140 3670
2021-01-16 21:30 3.98 777 3790 (2016) 368 (2011) 1560 408 545 595 898 2730 3140 3670
2021-01-16 20:30 3.98 777 3790 (2016) 368 (2011) 1560 408 545 595 898 2730 3140 3670
2021-01-16 19:30 3.98 777 3790 (2016) 368 (2011) 1560 408 545 595 898 2730 3140 3670
2021-01-16 18:30 3.99 783 3790 (2016) 368 (2011) 1560 408 545 595 898 2730 3140 3670
2021-01-16 17:30 3.99 783 3790 (2016) 368 (2011) 1560 408 545 595 898 2730 3140 3670
2021-01-16 16:30 3.99 783 3790 (2016) 368 (2011) 1560 408 545 595 898 2730 3140 3670
2021-01-16 15:30 3.99 783 3790 (2016) 368 (2011) 1560 408 545 595 898 2730 3140 3670
2021-01-16 14:30 4.00 789 3790 (2016) 368 (2011) 1560 408 545 595 898 2730 3140 3670
2021-01-16 13:30 4.00 789 3790 (2016) 368 (2011) 1560 408 545 595 898 2730 3140 3670
2021-01-16 12:30 4.00 789 3790 (2016) 368 (2011) 1560 408 545 595 898 2730 3140 3670
2021-01-16 11:30 4.01 795 3790 (2016) 368 (2011) 1560 408 545 595 898 2730 3140 3670
2021-01-16 10:30 4.01 795 3790 (2016) 368 (2011) 1560 408 545 595 898 2730 3140 3670
2021-01-16 09:30 4.01 795 3790 (2016) 368 (2011) 1560 408 545 595 898 2730 3140 3670
2021-01-16 08:30 4.01 795 3790 (2016) 368 (2011) 1560 408 545 595 898 2730 3140 3670
2021-01-16 07:30 4.02 801 3790 (2016) 368 (2011) 1560 408 545 595 898 2730 3140 3670
2021-01-16 06:30 4.03 807 3790 (2016) 368 (2011) 1560 408 545 595 898 2730 3140 3670
2021-01-16 05:30 4.03 807 3790 (2016) 368 (2011) 1560 408 545 595 898 2730 3140 3670
2021-01-16 04:30 4.04 813 3790 (2016) 368 (2011) 1560 408 545 595 898 2730 3140 3670
2021-01-16 03:30 4.05 819 3790 (2016) 368 (2011) 1560 408 545 595 898 2730 3140 3670
2021-01-16 02:30 4.06 825 3790 (2016) 368 (2011) 1560 408 545 595 898 2730 3140 3670
2021-01-16 01:30 4.07 831 3790 (2016) 368 (2011) 1560 408 545 595 898 2730 3140 3670
2021-01-16 00:30 4.09 843 3790 (2016) 368 (2011) 1560 408 545 595 898 2730 3140 3670
2021-01-15 23:30 4.10 849 3830 (2016) 379 (2011) 1430 420 572 621 882 2470 2700 3510
2021-01-15 22:30 4.11 855 3830 (2016) 379 (2011) 1430 420 572 621 882 2470 2700 3510
2021-01-15 21:30 4.12 861 3830 (2016) 379 (2011) 1430 420 572 621 882 2470 2700 3510
2021-01-15 20:30 4.12 861 3830 (2016) 379 (2011) 1430 420 572 621 882 2470 2700 3510
2021-01-15 19:30 4.12 861 3830 (2016) 379 (2011) 1430 420 572 621 882 2470 2700 3510
2021-01-15 18:30 4.12 861 3830 (2016) 379 (2011) 1430 420 572 621 882 2470 2700 3510
2021-01-15 17:30 4.12 861 3830 (2016) 379 (2011) 1430 420 572 621 882 2470 2700 3510
2021-01-15 16:30 4.13 867 3830 (2016) 379 (2011) 1430 420 572 621 882 2470 2700 3510
2021-01-15 15:30 4.13 867 3830 (2016) 379 (2011) 1430 420 572 621 882 2470 2700 3510
2021-01-15 14:30 4.13 867 3830 (2016) 379 (2011) 1430 420 572 621 882 2470 2700 3510
2021-01-15 13:30 4.13 867 3830 (2016) 379 (2011) 1430 420 572 621 882 2470 2700 3510
2021-01-15 12:30 4.13 867 3830 (2016) 379 (2011) 1430 420 572 621 882 2470 2700 3510
2021-01-15 11:30 4.13 867 3830 (2016) 379 (2011) 1430 420 572 621 882 2470 2700 3510
2021-01-15 10:30 4.14 873 3830 (2016) 379 (2011) 1430 420 572 621 882 2470 2700 3510
2021-01-15 09:30 4.13 867 3830 (2016) 379 (2011) 1430 420 572 621 882 2470 2700 3510
2021-01-15 08:30 4.13 867 3830 (2016) 379 (2011) 1430 420 572 621 882 2470 2700 3510
2021-01-15 07:30 4.13 867 3830 (2016) 379 (2011) 1430 420 572 621 882 2470 2700 3510
2021-01-15 06:30 4.13 867 3830 (2016) 379 (2011) 1430 420 572 621 882 2470 2700 3510
2021-01-15 05:30 4.13 867 3830 (2016) 379 (2011) 1430 420 572 621 882 2470 2700 3510
2021-01-15 04:30 4.13 867 3830 (2016) 379 (2011) 1430 420 572 621 882 2470 2700 3510
2021-01-15 03:30 4.14 873 3830 (2016) 379 (2011) 1430 420 572 621 882 2470 2700 3510
2021-01-15 02:30 4.14 873 3830 (2016) 379 (2011) 1430 420 572 621 882 2470 2700 3510
2021-01-15 01:30 4.14 873 3830 (2016) 379 (2011) 1430 420 572 621 882 2470 2700 3510
2021-01-15 00:30 4.14 873 3830 (2016) 379 (2011) 1430 420 572 621 882 2470 2700 3510
2021-01-14 23:30 4.14 873 3860 (2016) 418 (2011) 1410 446 529 590 892 2120 2500 3550
2021-01-14 22:30 4.15 879 3860 (2016) 418 (2011) 1410 446 529 590 892 2120 2500 3550
2021-01-14 21:30 4.15 879 3860 (2016) 418 (2011) 1410 446 529 590 892 2120 2500 3550
2021-01-14 20:30 4.15 879 3860 (2016) 418 (2011) 1410 446 529 590 892 2120 2500 3550
2021-01-14 19:30 4.15 879 3860 (2016) 418 (2011) 1410 446 529 590 892 2120 2500 3550
2021-01-14 18:30 4.15 879 3860 (2016) 418 (2011) 1410 446 529 590 892 2120 2500 3550
2021-01-14 17:30 4.15 879 3860 (2016) 418 (2011) 1410 446 529 590 892 2120 2500 3550
2021-01-14 16:30 4.16 885 3860 (2016) 418 (2011) 1410 446 529 590 892 2120 2500 3550
2021-01-14 15:30 4.16 885 3860 (2016) 418 (2011) 1410 446 529 590 892 2120 2500 3550
2021-01-14 14:30 4.16 885 3860 (2016) 418 (2011) 1410 446 529 590 892 2120 2500 3550
2021-01-14 13:30 4.17 891 3860 (2016) 418 (2011) 1410 446 529 590 892 2120 2500 3550
2021-01-14 12:30 4.17 891 3860 (2016) 418 (2011) 1410 446 529 590 892 2120 2500 3550
2021-01-14 11:30 4.17 891 3860 (2016) 418 (2011) 1410 446 529 590 892 2120 2500 3550
2021-01-14 10:30 4.17 891 3860 (2016) 418 (2011) 1410 446 529 590 892 2120 2500 3550
2021-01-14 09:30 4.17 891 3860 (2016) 418 (2011) 1410 446 529 590 892 2120 2500 3550
2021-01-14 08:30 4.17 891 3860 (2016) 418 (2011) 1410 446 529 590 892 2120 2500 3550
2021-01-14 07:30 4.17 891 3860 (2016) 418 (2011) 1410 446 529 590 892 2120 2500 3550
2021-01-14 06:30 4.17 891 3860 (2016) 418 (2011) 1410 446 529 590 892 2120 2500 3550
2021-01-14 05:30 4.18 898 3860 (2016) 418 (2011) 1410 446 529 590 892 2120 2500 3550
2021-01-14 04:30 4.18 898 3860 (2016) 418 (2011) 1410 446 529 590 892 2120 2500 3550
2021-01-14 03:30 4.18 898 3860 (2016) 418 (2011) 1410 446 529 590 892 2120 2500 3550
2021-01-14 02:30 4.19 904 3860 (2016) 418 (2011) 1410 446 529 590 892 2120 2500 3550
2021-01-14 01:30 4.19 904 3860 (2016) 418 (2011) 1410 446 529 590 892 2120 2500 3550
2021-01-14 00:30 4.20 910 3860 (2016) 418 (2011) 1410 446 529 590 892 2120 2500 3550
2021-01-13 23:30 4.20 910 5130 (2013) 434 (2011) 1580 440 480 566 906 1860 2680 4740
2021-01-13 22:30 4.21 916 5130 (2013) 434 (2011) 1580 440 480 566 906 1860 2680 4740
2021-01-13 21:30 4.22 922 5130 (2013) 434 (2011) 1580 440 480 566 906 1860 2680 4740
2021-01-13 20:30 4.23 929 5130 (2013) 434 (2011) 1580 440 480 566 906 1860 2680 4740
2021-01-13 19:30 4.24 935 5130 (2013) 434 (2011) 1580 440 480 566 906 1860 2680 4740
2021-01-13 18:30 4.26 948 5130 (2013) 434 (2011) 1580 440 480 566 906 1860 2680 4740
2021-01-13 17:30 4.28 960 5130 (2013) 434 (2011) 1580 440 480 566 906 1860 2680 4740
2021-01-13 16:30 4.29 967 5130 (2013) 434 (2011) 1580 440 480 566 906 1860 2680 4740
2021-01-13 15:30 4.31 979 5130 (2013) 434 (2011) 1580 440 480 566 906 1860 2680 4740
2021-01-13 14:30 4.33 992 5130 (2013) 434 (2011) 1580 440 480 566 906 1860 2680 4740
2021-01-13 13:30 4.33 992 5130 (2013) 434 (2011) 1580 440 480 566 906 1860 2680 4740
2021-01-13 12:30 4.33 992 5130 (2013) 434 (2011) 1580 440 480 566 906 1860 2680 4740
2021-01-13 11:30 4.33 992 5130 (2013) 434 (2011) 1580 440 480 566 906 1860 2680 4740
2021-01-13 10:30 4.33 992 5130 (2013) 434 (2011) 1580 440 480 566 906 1860 2680 4740
2021-01-13 09:30 4.33 992 5130 (2013) 434 (2011) 1580 440 480 566 906 1860 2680 4740
2021-01-13 08:30 4.33 992 5130 (2013) 434 (2011) 1580 440 480 566 906 1860 2680 4740
2021-01-13 07:30 4.33 992 5130 (2013) 434 (2011) 1580 440 480 566 906 1860 2680 4740
2021-01-13 06:30 4.33 992 5130 (2013) 434 (2011) 1580 440 480 566 906 1860 2680 4740
2021-01-13 05:30 4.34 999 5130 (2013) 434 (2011) 1580 440 480 566 906 1860 2680 4740
2021-01-13 04:30 4.34 999 5130 (2013) 434 (2011) 1580 440 480 566 906 1860 2680 4740
2021-01-13 03:30 4.34 999 5130 (2013) 434 (2011) 1580 440 480 566 906 1860 2680 4740
2021-01-13 02:30 4.34 999 5130 (2013) 434 (2011) 1580 440 480 566 906 1860 2680 4740
2021-01-13 01:30 4.34 999 5130 (2013) 434 (2011) 1580 440 480 566 906 1860 2680 4740
2021-01-13 00:30 4.35 1010 5130 (2013) 434 (2011) 1580 440 480 566 906 1860 2680 4740
2021-01-12 23:30 4.35 1010 3860 (2016) 399 (2018) 1330 411 476 532 848 1700 2350 3680
2021-01-12 22:30 4.35 1010 3860 (2016) 399 (2018) 1330 411 476 532 848 1700 2350 3680
2021-01-12 21:30 4.35 1010 3860 (2016) 399 (2018) 1330 411 476 532 848 1700 2350 3680
2021-01-12 20:30 4.35 1010 3860 (2016) 399 (2018) 1330 411 476 532 848 1700 2350 3680
2021-01-12 19:30 4.35 1010 3860 (2016) 399 (2018) 1330 411 476 532 848 1700 2350 3680
2021-01-12 18:30 4.36 1010 3860 (2016) 399 (2018) 1330 411 476 532 848 1700 2350 3680
2021-01-12 17:30 4.36 1010 3860 (2016) 399 (2018) 1330 411 476 532 848 1700 2350 3680
2021-01-12 16:30 4.37 1020 3860 (2016) 399 (2018) 1330 411 476 532 848 1700 2350 3680
2021-01-12 15:30 4.37 1020 3860 (2016) 399 (2018) 1330 411 476 532 848 1700 2350 3680
2021-01-12 14:30 4.37 1020 3860 (2016) 399 (2018) 1330 411 476 532 848 1700 2350 3680
2021-01-12 13:30 4.37 1020 3860 (2016) 399 (2018) 1330 411 476 532 848 1700 2350 3680
2021-01-12 12:30 4.37 1020 3860 (2016) 399 (2018) 1330 411 476 532 848 1700 2350 3680
2021-01-12 11:30 4.38 1020 3860 (2016) 399 (2018) 1330 411 476 532 848 1700 2350 3680
2021-01-12 10:30 4.38 1020 3860 (2016) 399 (2018) 1330 411 476 532 848 1700 2350 3680
2021-01-12 09:30 4.37 1020 3860 (2016) 399 (2018) 1330 411 476 532 848 1700 2350 3680
2021-01-12 08:30 4.38 1020 3860 (2016) 399 (2018) 1330 411 476 532 848 1700 2350 3680
2021-01-12 07:30 4.38 1020 3860 (2016) 399 (2018) 1330 411 476 532 848 1700 2350 3680
2021-01-12 06:30 4.39 1030 3860 (2016) 399 (2018) 1330 411 476 532 848 1700 2350 3680
2021-01-12 05:30 4.39 1030 3860 (2016) 399 (2018) 1330 411 476 532 848 1700 2350 3680
2021-01-12 04:30 4.39 1030 3860 (2016) 399 (2018) 1330 411 476 532 848 1700 2350 3680
2021-01-12 03:30 4.40 1040 3860 (2016) 399 (2018) 1330 411 476 532 848 1700 2350 3680
2021-01-12 02:30 4.40 1040 3860 (2016) 399 (2018) 1330 411 476 532 848 1700 2350 3680
2021-01-12 01:30 4.41 1040 3860 (2016) 399 (2018) 1330 411 476 532 848 1700 2350 3680
2021-01-12 00:30 4.42 1050 3860 (2016) 399 (2018) 1330 411 476 532 848 1700 2350 3680
2021-01-11 23:30 4.43 1060 11200 (2020) 389 (2018) 2130 406 490 539 988 2180 2940 9010
2021-01-11 22:30 4.44 1060 11200 (2020) 389 (2018) 2130 406 490 539 988 2180 2940 9010
2021-01-11 21:30 4.45 1070 11200 (2020) 389 (2018) 2130 406 490 539 988 2180 2940 9010
2021-01-11 20:30 4.47 1080 11200 (2020) 389 (2018) 2130 406 490 539 988 2180 2940 9010
2021-01-11 19:30 4.49 1100 11200 (2020) 389 (2018) 2130 406 490 539 988 2180 2940 9010
2021-01-11 18:30 4.51 1110 11200 (2020) 389 (2018) 2130 406 490 539 988 2180 2940 9010
2021-01-11 17:30 4.54 1130 11200 (2020) 389 (2018) 2130 406 490 539 988 2180 2940 9010
2021-01-11 16:30 4.57 1150 11200 (2020) 389 (2018) 2130 406 490 539 988 2180 2940 9010
2021-01-11 15:30 4.61 1180 11200 (2020) 389 (2018) 2130 406 490 539 988 2180 2940 9010
2021-01-11 14:30 4.64 1200 11200 (2020) 389 (2018) 2130 406 490 539 988 2180 2940 9010
2021-01-11 13:30 4.66 1210 11200 (2020) 389 (2018) 2130 406 490 539 988 2180 2940 9010
2021-01-11 12:30 4.67 1220 11200 (2020) 389 (2018) 2130 406 490 539 988 2180 2940 9010
2021-01-11 11:30 4.67 1220 11200 (2020) 389 (2018) 2130 406 490 539 988 2180 2940 9010
2021-01-11 10:30 4.68 1230 11200 (2020) 389 (2018) 2130 406 490 539 988 2180 2940 9010
2021-01-11 09:30 4.68 1230 11200 (2020) 389 (2018) 2130 406 490 539 988 2180 2940 9010
2021-01-11 08:30 4.68 1230 11200 (2020) 389 (2018) 2130 406 490 539 988 2180 2940 9010
2021-01-11 07:30 4.68 1230 11200 (2020) 389 (2018) 2130 406 490 539 988 2180 2940 9010
2021-01-11 06:30 4.68 1230 11200 (2020) 389 (2018) 2130 406 490 539 988 2180 2940 9010
2021-01-11 05:30 4.69 1230 11200 (2020) 389 (2018) 2130 406 490 539 988 2180 2940 9010
2021-01-11 04:30 4.69 1230 11200 (2020) 389 (2018) 2130 406 490 539 988 2180 2940 9010
2021-01-11 03:30 4.69 1230 11200 (2020) 389 (2018) 2130 406 490 539 988 2180 2940 9010
2021-01-11 02:30 4.69 1230 11200 (2020) 389 (2018) 2130 406 490 539 988 2180 2940 9010
2021-01-11 01:30 4.69 1230 11200 (2020) 389 (2018) 2130 406 490 539 988 2180 2940 9010
2021-01-11 00:30 4.69 1230 11200 (2020) 389 (2018) 2130 406 490 539 988 2180 2940 9010
2021-01-10 23:30 4.70 1240 3940 (2016) 387 (2018) 1400 413 517 579 993 2050 2250 3510
2021-01-10 22:30 4.70 1240 3940 (2016) 387 (2018) 1400 413 517 579 993 2050 2250 3510
2021-01-10 21:30 4.70 1240 3940 (2016) 387 (2018) 1400 413 517 579 993 2050 2250 3510
2021-01-10 20:30 4.70 1240 3940 (2016) 387 (2018) 1400 413 517 579 993 2050 2250 3510
2021-01-10 19:30 4.70 1240 3940 (2016) 387 (2018) 1400 413 517 579 993 2050 2250 3510
2021-01-10 18:30 4.71 1250 3940 (2016) 387 (2018) 1400 413 517 579 993 2050 2250 3510
2021-01-10 17:30 4.71 1250 3940 (2016) 387 (2018) 1400 413 517 579 993 2050 2250 3510
2021-01-10 16:30 4.71 1250 3940 (2016) 387 (2018) 1400 413 517 579 993 2050 2250 3510
2021-01-10 15:30 4.71 1250 3940 (2016) 387 (2018) 1400 413 517 579 993 2050 2250 3510
2021-01-10 14:30 4.71 1250 3940 (2016) 387 (2018) 1400 413 517 579 993 2050 2250 3510
2021-01-10 13:30 4.72 1250 3940 (2016) 387 (2018) 1400 413 517 579 993 2050 2250 3510
2021-01-10 12:30 4.72 1250 3940 (2016) 387 (2018) 1400 413 517 579 993 2050 2250 3510
2021-01-10 11:30 4.72 1250 3940 (2016) 387 (2018) 1400 413 517 579 993 2050 2250 3510
2021-01-10 10:30 4.72 1250 3940 (2016) 387 (2018) 1400 413 517 579 993 2050 2250 3510
2021-01-10 09:30 4.72 1250 3940 (2016) 387 (2018) 1400 413 517 579 993 2050 2250 3510
2021-01-10 08:30 4.73 1260 3940 (2016) 387 (2018) 1400 413 517 579 993 2050 2250 3510
2021-01-10 07:30 4.73 1260 3940 (2016) 387 (2018) 1400 413 517 579 993 2050 2250 3510
2021-01-10 06:30 4.73 1260 3940 (2016) 387 (2018) 1400 413 517 579 993 2050 2250 3510
2021-01-10 05:30 4.74 1270 3940 (2016) 387 (2018) 1400 413 517 579 993 2050 2250 3510
2021-01-10 04:30 4.74 1270 3940 (2016) 387 (2018) 1400 413 517 579 993 2050 2250 3510
2021-01-10 03:30 4.74 1270 3940 (2016) 387 (2018) 1400 413 517 579 993 2050 2250 3510
2021-01-10 02:30 4.74 1270 3940 (2016) 387 (2018) 1400 413 517 579 993 2050 2250 3510
2021-01-10 01:30 4.75 1270 3940 (2016) 387 (2018) 1400 413 517 579 993 2050 2250 3510
2021-01-10 00:30 4.75 1270 3940 (2016) 387 (2018) 1400 413 517 579 993 2050 2250 3510
2021-01-09 23:30 4.76 1280 3980 (2016) 408 (2018) 1400 426 516 585 934 2350 2570 3560
2021-01-09 22:30 4.76 1280 3980 (2016) 408 (2018) 1400 426 516 585 934 2350 2570 3560
2021-01-09 20:30 4.77 1290 3980 (2016) 408 (2018) 1400 426 516 585 934 2350 2570 3560
2021-01-09 19:30 4.77 1290 3980 (2016) 408 (2018) 1400 426 516 585 934 2350 2570 3560
2021-01-09 18:30 4.78 1300 3980 (2016) 408 (2018) 1400 426 516 585 934 2350 2570 3560
2021-01-09 17:30 4.78 1300 3980 (2016) 408 (2018) 1400 426 516 585 934 2350 2570 3560
2021-01-09 16:30 4.78 1300 3980 (2016) 408 (2018) 1400 426 516 585 934 2350 2570 3560
2021-01-09 15:30 4.79 1300 3980 (2016) 408 (2018) 1400 426 516 585 934 2350 2570 3560
2021-01-09 14:30 4.79 1300 3980 (2016) 408 (2018) 1400 426 516 585 934 2350 2570 3560
2021-01-09 13:30 4.80 1310 3980 (2016) 408 (2018) 1400 426 516 585 934 2350 2570 3560
2021-01-09 12:30 4.81 1320 3980 (2016) 408 (2018) 1400 426 516 585 934 2350 2570 3560
2021-01-09 11:30 4.81 1320 3980 (2016) 408 (2018) 1400 426 516 585 934 2350 2570 3560
2021-01-09 10:30 4.82 1320 3980 (2016) 408 (2018) 1400 426 516 585 934 2350 2570 3560
2021-01-09 09:30 4.82 1320 3980 (2016) 408 (2018) 1400 426 516 585 934 2350 2570 3560
2021-01-09 08:30 4.83 1330 3980 (2016) 408 (2018) 1400 426 516 585 934 2350 2570 3560
2021-01-09 07:30 4.84 1340 3980 (2016) 408 (2018) 1400 426 516 585 934 2350 2570 3560
2021-01-09 06:30 4.85 1340 3980 (2016) 408 (2018) 1400 426 516 585 934 2350 2570 3560
2021-01-09 05:30 4.86 1350 3980 (2016) 408 (2018) 1400 426 516 585 934 2350 2570 3560
2021-01-09 04:30 4.87 1360 3980 (2016) 408 (2018) 1400 426 516 585 934 2350 2570 3560
2021-01-09 03:30 4.88 1370 3980 (2016) 408 (2018) 1400 426 516 585 934 2350 2570 3560
2021-01-09 02:30 4.90 1380 3980 (2016) 408 (2018) 1400 426 516 585 934 2350 2570 3560
2021-01-09 01:30 4.92 1400 3980 (2016) 408 (2018) 1400 426 516 585 934 2350 2570 3560
2021-01-09 00:30 4.94 1410 3980 (2016) 408 (2018) 1400 426 516 585 934 2350 2570 3560
2021-01-08 23:30 4.96 1420 3880 (2016) 420 (2018) 1430 436 520 600 948 2500 2680 3530
2021-01-08 22:30 4.99 1450 3880 (2016) 420 (2018) 1430 436 520 600 948 2500 2680 3530
2021-01-08 21:30 5.03 1480 3880 (2016) 420 (2018) 1430 436 520 600 948 2500 2680 3530
2021-01-08 20:30 5.07 1500 3880 (2016) 420 (2018) 1430 436 520 600 948 2500 2680 3530
2021-01-08 19:30 5.13 1550 3880 (2016) 420 (2018) 1430 436 520 600 948 2500 2680 3530
2021-01-08 18:30 5.20 1600 3880 (2016) 420 (2018) 1430 436 520 600 948 2500 2680 3530
2021-01-08 17:30 5.28 1660 3880 (2016) 420 (2018) 1430 436 520 600 948 2500 2680 3530
2021-01-08 16:30 5.39 1740 3880 (2016) 420 (2018) 1430 436 520 600 948 2500 2680 3530
2021-01-08 15:30 5.50 1820 3880 (2016) 420 (2018) 1430 436 520 600 948 2500 2680 3530
2021-01-08 14:30 5.61 1910 3880 (2016) 420 (2018) 1430 436 520 600 948 2500 2680 3530
2021-01-08 13:30 5.70 1980 3880 (2016) 420 (2018) 1430 436 520 600 948 2500 2680 3530
2021-01-08 12:30 5.74 2010 3880 (2016) 420 (2018) 1430 436 520 600 948 2500 2680 3530
2021-01-08 11:30 5.75 2020 3880 (2016) 420 (2018) 1430 436 520 600 948 2500 2680 3530
2021-01-08 10:30 5.76 2030 3880 (2016) 420 (2018) 1430 436 520 600 948 2500 2680 3530
2021-01-08 09:30 5.76 2030 3880 (2016) 420 (2018) 1430 436 520 600 948 2500 2680 3530
2021-01-08 08:30 5.76 2030 3880 (2016) 420 (2018) 1430 436 520 600 948 2500 2680 3530
2021-01-08 07:30 5.77 2040 3880 (2016) 420 (2018) 1430 436 520 600 948 2500 2680 3530
2021-01-08 06:30 5.78 2050 3880 (2016) 420 (2018) 1430 436 520 600 948 2500 2680 3530
2021-01-08 05:30 5.78 2050 3880 (2016) 420 (2018) 1430 436 520 600 948 2500 2680 3530
2021-01-08 04:30 5.78 2050 3880 (2016) 420 (2018) 1430 436 520 600 948 2500 2680 3530
2021-01-08 03:30 5.79 2050 3880 (2016) 420 (2018) 1430 436 520 600 948 2500 2680 3530
2021-01-08 02:30 5.79 2050 3880 (2016) 420 (2018) 1430 436 520 600 948 2500 2680 3530
2021-01-08 01:30 5.80 2060 3880 (2016) 420 (2018) 1430 436 520 600 948 2500 2680 3530
2021-01-08 00:30 5.81 2070 3880 (2016) 420 (2018) 1430 436 520 600 948 2500 2680 3530
2021-01-07 23:30 5.81 2070 3830 (2016) 409 (2018) 1450 438 534 607 1020 2300 2490 3510
2021-01-07 22:30 5.82 2080 3830 (2016) 409 (2018) 1450 438 534 607 1020 2300 2490 3510
2021-01-07 21:30 5.84 2100 3830 (2016) 409 (2018) 1450 438 534 607 1020 2300 2490 3510
2021-01-07 20:30 5.85 2100 3830 (2016) 409 (2018) 1450 438 534 607 1020 2300 2490 3510
2021-01-07 19:30 5.87 2120 3830 (2016) 409 (2018) 1450 438 534 607 1020 2300 2490 3510
2021-01-07 18:30 5.89 2140 3830 (2016) 409 (2018) 1450 438 534 607 1020 2300 2490 3510
2021-01-07 17:30 5.92 2160 3830 (2016) 409 (2018) 1450 438 534 607 1020 2300 2490 3510
2021-01-07 16:30 5.95 2190 3830 (2016) 409 (2018) 1450 438 534 607 1020 2300 2490 3510
2021-01-07 15:30 6.00 2230 3830 (2016) 409 (2018) 1450 438 534 607 1020 2300 2490 3510
2021-01-07 14:30 6.04 2260 3830 (2016) 409 (2018) 1450 438 534 607 1020 2300 2490 3510
2021-01-07 13:30 6.06 2280 3830 (2016) 409 (2018) 1450 438 534 607 1020 2300 2490 3510
2021-01-07 12:30 6.08 2290 3830 (2016) 409 (2018) 1450 438 534 607 1020 2300 2490 3510
2021-01-07 11:30 6.08 2290 3830 (2016) 409 (2018) 1450 438 534 607 1020 2300 2490 3510
2021-01-07 10:30 6.07 2290 3830 (2016) 409 (2018) 1450 438 534 607 1020 2300 2490 3510
2021-01-07 09:30 6.08 2290 3830 (2016) 409 (2018) 1450 438 534 607 1020 2300 2490 3510
2021-01-07 08:30 6.07 2290 3830 (2016) 409 (2018) 1450 438 534 607 1020 2300 2490 3510
2021-01-07 07:30 6.07 2290 3830 (2016) 409 (2018) 1450 438 534 607 1020 2300 2490 3510
2021-01-07 06:30 6.06 2280 3830 (2016) 409 (2018) 1450 438 534 607 1020 2300 2490 3510
2021-01-07 05:30 6.07 2290 3830 (2016) 409 (2018) 1450 438 534 607 1020 2300 2490 3510
2021-01-07 04:30 6.06 2280 3830 (2016) 409 (2018) 1450 438 534 607 1020 2300 2490 3510
2021-01-07 03:30 6.06 2280 3830 (2016) 409 (2018) 1450 438 534 607 1020 2300 2490 3510
2021-01-07 02:30 6.06 2280 3830 (2016) 409 (2018) 1450 438 534 607 1020 2300 2490 3510
2021-01-07 01:30 6.06 2280 3830 (2016) 409 (2018) 1450 438 534 607 1020 2300 2490 3510
2021-01-07 00:30 6.06 2280 3830 (2016) 409 (2018) 1450 438 534 607 1020 2300 2490 3510
2021-01-06 23:30 6.06 2280 3850 (2016) 412 (2018) 1500 453 649 728 1190 2390 2420 3420
2021-01-06 22:30 6.07 2290 3850 (2016) 412 (2018) 1500 453 649 728 1190 2390 2420 3420
2021-01-06 21:30 6.07 2290 3850 (2016) 412 (2018) 1500 453 649 728 1190 2390 2420 3420
2021-01-06 20:30 6.07 2290 3850 (2016) 412 (2018) 1500 453 649 728 1190 2390 2420 3420
2021-01-06 19:30 6.07 2290 3850 (2016) 412 (2018) 1500 453 649 728 1190 2390 2420 3420
2021-01-06 18:30 6.07 2290 3850 (2016) 412 (2018) 1500 453 649 728 1190 2390 2420 3420
2021-01-06 17:30 6.07 2290 3850 (2016) 412 (2018) 1500 453 649 728 1190 2390 2420 3420
2021-01-06 16:30 6.08 2290 3850 (2016) 412 (2018) 1500 453 649 728 1190 2390 2420 3420
2021-01-06 15:30 6.08 2290 3850 (2016) 412 (2018) 1500 453 649 728 1190 2390 2420 3420
2021-01-06 14:30 6.08 2290 3850 (2016) 412 (2018) 1500 453 649 728 1190 2390 2420 3420
2021-01-06 13:30 6.08 2290 3850 (2016) 412 (2018) 1500 453 649 728 1190 2390 2420 3420
2021-01-06 12:30 6.08 2290 3850 (2016) 412 (2018) 1500 453 649 728 1190 2390 2420 3420
2021-01-06 11:30 6.08 2290 3850 (2016) 412 (2018) 1500 453 649 728 1190 2390 2420 3420
2021-01-06 10:30 6.08 2290 3850 (2016) 412 (2018) 1500 453 649 728 1190 2390 2420 3420
2021-01-06 09:30 6.08 2290 3850 (2016) 412 (2018) 1500 453 649 728 1190 2390 2420 3420
2021-01-06 08:30 6.08 2290 3850 (2016) 412 (2018) 1500 453 649 728 1190 2390 2420 3420
2021-01-06 07:30 6.09 2300 3850 (2016) 412 (2018) 1500 453 649 728 1190 2390 2420 3420
2021-01-06 06:30 6.09 2300 3850 (2016) 412 (2018) 1500 453 649 728 1190 2390 2420 3420
2021-01-06 05:30 6.09 2300 3850 (2016) 412 (2018) 1500 453 649 728 1190 2390 2420 3420
2021-01-06 04:30 6.09 2300 3850 (2016) 412 (2018) 1500 453 649 728 1190 2390 2420 3420
2021-01-06 03:30 6.09 2300 3850 (2016) 412 (2018) 1500 453 649 728 1190 2390 2420 3420
2021-01-06 02:30 6.09 2300 3850 (2016) 412 (2018) 1500 453 649 728 1190 2390 2420 3420
2021-01-06 01:30 6.09 2300 3850 (2016) 412 (2018) 1500 453 649 728 1190 2390 2420 3420
2021-01-06 00:30 6.09 2300 3850 (2016) 412 (2018) 1500 453 649 728 1190 2390 2420 3420
2021-01-05 23:30 6.10 2310 3890 (2016) 466 (2018) 1620 489 660 742 1350 2500 2750 3650
2021-01-05 22:30 6.09 2300 3890 (2016) 466 (2018) 1620 489 660 742 1350 2500 2750 3650
2021-01-05 21:30 6.10 2310 3890 (2016) 466 (2018) 1620 489 660 742 1350 2500 2750 3650
2021-01-05 20:30 6.10 2310 3890 (2016) 466 (2018) 1620 489 660 742 1350 2500 2750 3650
2021-01-05 19:30 6.09 2300 3890 (2016) 466 (2018) 1620 489 660 742 1350 2500 2750 3650
2021-01-05 18:30 6.10 2310 3890 (2016) 466 (2018) 1620 489 660 742 1350 2500 2750 3650
2021-01-05 17:30 6.09 2300 3890 (2016) 466 (2018) 1620 489 660 742 1350 2500 2750 3650
2021-01-05 16:30 6.09 2300 3890 (2016) 466 (2018) 1620 489 660 742 1350 2500 2750 3650
2021-01-05 15:30 6.09 2300 3890 (2016) 466 (2018) 1620 489 660 742 1350 2500 2750 3650
2021-01-05 14:30 6.08 2290 3890 (2016) 466 (2018) 1620 489 660 742 1350 2500 2750 3650
2021-01-05 13:30 6.08 2290 3890 (2016) 466 (2018) 1620 489 660 742 1350 2500 2750 3650
2021-01-05 12:30 6.07 2290 3890 (2016) 466 (2018) 1620 489 660 742 1350 2500 2750 3650
2021-01-05 11:30 6.06 2280 3890 (2016) 466 (2018) 1620 489 660 742 1350 2500 2750 3650
2021-01-05 10:30 6.05 2270 3890 (2016) 466 (2018) 1620 489 660 742 1350 2500 2750 3650
2021-01-05 09:30 6.04 2260 3890 (2016) 466 (2018) 1620 489 660 742 1350 2500 2750 3650
2021-01-05 08:30 6.03 2250 3890 (2016) 466 (2018) 1620 489 660 742 1350 2500 2750 3650
2021-01-05 07:30 6.01 2240 3890 (2016) 466 (2018) 1620 489 660 742 1350 2500 2750 3650
2021-01-05 06:30 5.99 2220 3890 (2016) 466 (2018) 1620 489 660 742 1350 2500 2750 3650
2021-01-05 05:30 5.97 2200 3890 (2016) 466 (2018) 1620 489 660 742 1350 2500 2750 3650
2021-01-05 04:30 5.93 2170 3890 (2016) 466 (2018) 1620 489 660 742 1350 2500 2750 3650
2021-01-05 03:30 5.89 2140 3890 (2016) 466 (2018) 1620 489 660 742 1350 2500 2750 3650
2021-01-05 02:30 5.83 2090 3890 (2016) 466 (2018) 1620 489 660 742 1350 2500 2750 3650
2021-01-05 01:30 5.75 2020 3890 (2016) 466 (2018) 1620 489 660 742 1350 2500 2750 3650
2021-01-05 00:30 5.66 1950 3890 (2016) 466 (2018) 1620 489 660 742 1350 2500 2750 3650
2021-01-04 23:30 5.55 1860 3940 (2016) 474 (2018) 1740 491 573 614 1410 2820 3080 3750
2021-01-04 22:30 5.45 1790 3940 (2016) 474 (2018) 1740 491 573 614 1410 2820 3080 3750
2021-01-04 21:30 5.36 1720 3940 (2016) 474 (2018) 1740 491 573 614 1410 2820 3080 3750
2021-01-04 20:30 5.29 1670 3940 (2016) 474 (2018) 1740 491 573 614 1410 2820 3080 3750
2021-01-04 19:30 5.22 1610 3940 (2016) 474 (2018) 1740 491 573 614 1410 2820 3080 3750
2021-01-04 18:30 5.13 1550 3940 (2016) 474 (2018) 1740 491 573 614 1410 2820 3080 3750
2021-01-04 17:30 5.02 1470 3940 (2016) 474 (2018) 1740 491 573 614 1410 2820 3080 3750
2021-01-04 16:30 4.89 1370 3940 (2016) 474 (2018) 1740 491 573 614 1410 2820 3080 3750
2021-01-04 15:30 4.74 1270 3940 (2016) 474 (2018) 1740 491 573 614 1410 2820 3080 3750
2021-01-04 14:30 4.61 1180 3940 (2016) 474 (2018) 1740 491 573 614 1410 2820 3080 3750
2021-01-04 13:30 4.54 1130 3940 (2016) 474 (2018) 1740 491 573 614 1410 2820 3080 3750
2021-01-04 12:30 4.52 1120 3940 (2016) 474 (2018) 1740 491 573 614 1410 2820 3080 3750
2021-01-04 11:30 4.53 1120 3940 (2016) 474 (2018) 1740 491 573 614 1410 2820 3080 3750
2021-01-04 10:30 4.53 1120 3940 (2016) 474 (2018) 1740 491 573 614 1410 2820 3080 3750
2021-01-04 09:30 4.54 1130 3940 (2016) 474 (2018) 1740 491 573 614 1410 2820 3080 3750
2021-01-04 08:30 4.54 1130 3940 (2016) 474 (2018) 1740 491 573 614 1410 2820 3080 3750
2021-01-04 07:30 4.55 1140 3940 (2016) 474 (2018) 1740 491 573 614 1410 2820 3080 3750
2021-01-04 06:30 4.55 1140 3940 (2016) 474 (2018) 1740 491 573 614 1410 2820 3080 3750
2021-01-04 05:30 4.56 1140 3940 (2016) 474 (2018) 1740 491 573 614 1410 2820 3080 3750
2021-01-04 04:30 4.56 1140 3940 (2016) 474 (2018) 1740 491 573 614 1410 2820 3080 3750
2021-01-04 03:30 4.57 1150 3940 (2016) 474 (2018) 1740 491 573 614 1410 2820 3080 3750
2021-01-04 02:30 4.58 1160 3940 (2016) 474 (2018) 1740 491 573 614 1410 2820 3080 3750
2021-01-04 01:30 4.58 1160 3940 (2016) 474 (2018) 1740 491 573 614 1410 2820 3080 3750
2021-01-04 00:30 4.59 1160 3940 (2016) 474 (2018) 1740 491 573 614 1410 2820 3080 3750
2021-01-03 23:30 4.60 1170 3700 (2016) 436 (2011) 1790 447 488 508 1710 2950 3150 3560
2021-01-03 22:30 4.60 1170 3700 (2016) 436 (2011) 1790 447 488 508 1710 2950 3150 3560
2021-01-03 21:30 4.61 1180 3700 (2016) 436 (2011) 1790 447 488 508 1710 2950 3150 3560
2021-01-03 20:30 4.62 1180 3700 (2016) 436 (2011) 1790 447 488 508 1710 2950 3150 3560
2021-01-03 19:30 4.63 1190 3700 (2016) 436 (2011) 1790 447 488 508 1710 2950 3150 3560
2021-01-03 18:30 4.64 1200 3700 (2016) 436 (2011) 1790 447 488 508 1710 2950 3150 3560
2021-01-03 17:30 4.64 1200 3700 (2016) 436 (2011) 1790 447 488 508 1710 2950 3150 3560
2021-01-03 16:30 4.64 1200 3700 (2016) 436 (2011) 1790 447 488 508 1710 2950 3150 3560
2021-01-03 15:30 4.65 1200 3700 (2016) 436 (2011) 1790 447 488 508 1710 2950 3150 3560
2021-01-03 14:30 4.65 1200 3700 (2016) 436 (2011) 1790 447 488 508 1710 2950 3150 3560
2021-01-03 13:30 4.66 1210 3700 (2016) 436 (2011) 1790 447 488 508 1710 2950 3150 3560
2021-01-03 12:30 4.67 1220 3700 (2016) 436 (2011) 1790 447 488 508 1710 2950 3150 3560
2021-01-03 11:30 4.68 1230 3700 (2016) 436 (2011) 1790 447 488 508 1710 2950 3150 3560
2021-01-03 10:30 4.68 1230 3700 (2016) 436 (2011) 1790 447 488 508 1710 2950 3150 3560
2021-01-03 09:30 4.69 1230 3700 (2016) 436 (2011) 1790 447 488 508 1710 2950 3150 3560
2021-01-03 08:30 4.70 1240 3700 (2016) 436 (2011) 1790 447 488 508 1710 2950 3150 3560
2021-01-03 07:30 4.71 1250 3700 (2016) 436 (2011) 1790 447 488 508 1710 2950 3150 3560
2021-01-03 06:30 4.72 1250 3700 (2016) 436 (2011) 1790 447 488 508 1710 2950 3150 3560
2021-01-03 05:30 4.73 1260 3700 (2016) 436 (2011) 1790 447 488 508 1710 2950 3150 3560
2021-01-03 04:30 4.74 1270 3700 (2016) 436 (2011) 1790 447 488 508 1710 2950 3150 3560
2021-01-03 03:30 4.74 1270 3700 (2016) 436 (2011) 1790 447 488 508 1710 2950 3150 3560
2021-01-03 02:30 4.76 1280 3700 (2016) 436 (2011) 1790 447 488 508 1710 2950 3150 3560
2021-01-03 01:30 4.77 1290 3700 (2016) 436 (2011) 1790 447 488 508 1710 2950 3150 3560
2021-01-03 00:30 4.78 1300 3700 (2016) 436 (2011) 1790 447 488 508 1710 2950 3150 3560
2021-01-02 23:30 4.79 1300 3460 (2016) 421 (2011) 1660 423 450 480 1580 2750 3050 3380
2021-01-02 22:30 4.80 1310 3460 (2016) 421 (2011) 1660 423 450 480 1580 2750 3050 3380
2021-01-02 21:30 4.81 1320 3460 (2016) 421 (2011) 1660 423 450 480 1580 2750 3050 3380
2021-01-02 20:30 4.82 1320 3460 (2016) 421 (2011) 1660 423 450 480 1580 2750 3050 3380
2021-01-02 19:30 4.83 1330 3460 (2016) 421 (2011) 1660 423 450 480 1580 2750 3050 3380
2021-01-02 18:30 4.84 1340 3460 (2016) 421 (2011) 1660 423 450 480 1580 2750 3050 3380
2021-01-02 17:30 4.86 1350 3460 (2016) 421 (2011) 1660 423 450 480 1580 2750 3050 3380
2021-01-02 16:30 4.87 1360 3460 (2016) 421 (2011) 1660 423 450 480 1580 2750 3050 3380
2021-01-02 15:30 4.88 1370 3460 (2016) 421 (2011) 1660 423 450 480 1580 2750 3050 3380
2021-01-02 14:30 4.90 1380 3460 (2016) 421 (2011) 1660 423 450 480 1580 2750 3050 3380
2021-01-02 13:30 4.91 1390 3460 (2016) 421 (2011) 1660 423 450 480 1580 2750 3050 3380
2021-01-02 12:30 4.93 1400 3460 (2016) 421 (2011) 1660 423 450 480 1580 2750 3050 3380
2021-01-02 11:30 4.94 1410 3460 (2016) 421 (2011) 1660 423 450 480 1580 2750 3050 3380
2021-01-02 10:30 4.96 1420 3460 (2016) 421 (2011) 1660 423 450 480 1580 2750 3050 3380
2021-01-02 09:30 4.97 1430 3460 (2016) 421 (2011) 1660 423 450 480 1580 2750 3050 3380
2021-01-02 08:30 4.99 1450 3460 (2016) 421 (2011) 1660 423 450 480 1580 2750 3050 3380
2021-01-02 07:30 5.01 1460 3460 (2016) 421 (2011) 1660 423 450 480 1580 2750 3050 3380
2021-01-02 06:30 5.02 1470 3460 (2016) 421 (2011) 1660 423 450 480 1580 2750 3050 3380
2021-01-02 05:30 5.04 1480 3460 (2016) 421 (2011) 1660 423 450 480 1580 2750 3050 3380
2021-01-02 04:30 5.05 1490 3460 (2016) 421 (2011) 1660 423 450 480 1580 2750 3050 3380
2021-01-02 03:30 5.06 1500 3460 (2016) 421 (2011) 1660 423 450 480 1580 2750 3050 3380
2021-01-02 02:30 5.07 1500 3460 (2016) 421 (2011) 1660 423 450 480 1580 2750 3050 3380
2021-01-02 01:30 5.07 1500 3460 (2016) 421 (2011) 1660 423 450 480 1580 2750 3050 3380
2021-01-02 00:30 5.08 1510 3460 (2016) 421 (2011) 1660 423 450 480 1580 2750 3050 3380
2021-01-01 23:30 5.08 1510 3270 (2010) 422 (2018) 1700 423 442 471 1580 3020 3250 3270
2021-01-01 22:30 5.08 1510 3270 (2010) 422 (2018) 1700 423 442 471 1580 3020 3250 3270
2021-01-01 21:30 5.08 1510 3270 (2010) 422 (2018) 1700 423 442 471 1580 3020 3250 3270
2021-01-01 20:30 5.09 1520 3270 (2010) 422 (2018) 1700 423 442 471 1580 3020 3250 3270
2021-01-01 19:30 5.09 1520 3270 (2010) 422 (2018) 1700 423 442 471 1580 3020 3250 3270
2021-01-01 18:30 5.10 1530 3270 (2010) 422 (2018) 1700 423 442 471 1580 3020 3250 3270
2021-01-01 17:30 5.09 1520 3270 (2010) 422 (2018) 1700 423 442 471 1580 3020 3250 3270
2021-01-01 16:30 5.09 1520 3270 (2010) 422 (2018) 1700 423 442 471 1580 3020 3250 3270
2021-01-01 15:30 5.08 1510 3270 (2010) 422 (2018) 1700 423 442 471 1580 3020 3250 3270
2021-01-01 14:30 5.05 1490 3270 (2010) 422 (2018) 1700 423 442 471 1580 3020 3250 3270
2021-01-01 13:30 4.98 1440 3270 (2010) 422 (2018) 1700 423 442 471 1580 3020 3250 3270
2021-01-01 12:30 4.87 1360 3270 (2010) 422 (2018) 1700 423 442 471 1580 3020 3250 3270
2021-01-01 11:30 4.75 1270 3270 (2010) 422 (2018) 1700 423 442 471 1580 3020 3250 3270
2021-01-01 10:30 4.68 1230 3270 (2010) 422 (2018) 1700 423 442 471 1580 3020 3250 3270
2021-01-01 09:30 4.62 1180 3270 (2010) 422 (2018) 1700 423 442 471 1580 3020 3250 3270
2021-01-01 08:30 4.53 1120 3270 (2010) 422 (2018) 1700 423 442 471 1580 3020 3250 3270
2021-01-01 07:30 4.41 1040 3270 (2010) 422 (2018) 1700 423 442 471 1580 3020 3250 3270
2021-01-01 06:30 4.31 979 3270 (2010) 422 (2018) 1700 423 442 471 1580 3020 3250 3270
2021-01-01 05:30 4.25 941 3270 (2010) 422 (2018) 1700 423 442 471 1580 3020 3250 3270
2021-01-01 04:30 4.21 916 3270 (2010) 422 (2018) 1700 423 442 471 1580 3020 3250 3270
2021-01-01 03:30 4.17 891 3270 (2010) 422 (2018) 1700 423 442 471 1580 3020 3250 3270
2021-01-01 02:30 4.17 891 3270 (2010) 422 (2018) 1700 423 442 471 1580 3020 3250 3270
2021-01-01 01:30 4.17 891 3270 (2010) 422 (2018) 1700 423 442 471 1580 3020 3250 3270
2021-01-01 00:30 4.18 898 3270 (2010) 422 (2018) 1700 423 442 471 1580 3020 3250 3270
2020-12-31 23:30 4.18 898 3370 (2010) 426 (2011) 1710 427 443 469 1500 3160 3320 3360
2020-12-31 22:30 4.17 891 3370 (2010) 426 (2011) 1710 427 443 469 1500 3160 3320 3360
2020-12-31 21:30 4.16 885 3370 (2010) 426 (2011) 1710 427 443 469 1500 3160 3320 3360
2020-12-31 20:30 4.13 867 3370 (2010) 426 (2011) 1710 427 443 469 1500 3160 3320 3360
2020-12-31 19:30 4.11 855 3370 (2010) 426 (2011) 1710 427 443 469 1500 3160 3320 3360
2020-12-31 18:30 4.07 831 3370 (2010) 426 (2011) 1710 427 443 469 1500 3160 3320 3360
2020-12-31 17:30 4.03 807 3370 (2010) 426 (2011) 1710 427 443 469 1500 3160 3320 3360
2020-12-31 16:30 3.99 783 3370 (2010) 426 (2011) 1710 427 443 469 1500 3160 3320 3360
2020-12-31 15:30 3.96 766 3370 (2010) 426 (2011) 1710 427 443 469 1500 3160 3320 3360
2020-12-31 14:30 3.94 754 3370 (2010) 426 (2011) 1710 427 443 469 1500 3160 3320 3360
2020-12-31 13:30 3.93 748 3370 (2010) 426 (2011) 1710 427 443 469 1500 3160 3320 3360
2020-12-31 12:30 3.94 754 3370 (2010) 426 (2011) 1710 427 443 469 1500 3160 3320 3360
2020-12-31 11:30 3.94 754 3370 (2010) 426 (2011) 1710 427 443 469 1500 3160 3320 3360
2020-12-31 10:30 3.94 754 3370 (2010) 426 (2011) 1710 427 443 469 1500 3160 3320 3360
2020-12-31 09:30 3.94 754 3370 (2010) 426 (2011) 1710 427 443 469 1500 3160 3320 3360
2020-12-31 08:30 3.94 754 3370 (2010) 426 (2011) 1710 427 443 469 1500 3160 3320 3360
2020-12-31 07:30 3.94 754 3370 (2010) 426 (2011) 1710 427 443 469 1500 3160 3320 3360
2020-12-31 06:30 3.94 754 3370 (2010) 426 (2011) 1710 427 443 469 1500 3160 3320 3360
2020-12-31 05:30 3.93 748 3370 (2010) 426 (2011) 1710 427 443 469 1500 3160 3320 3360
2020-12-31 04:30 3.93 748 3370 (2010) 426 (2011) 1710 427 443 469 1500 3160 3320 3360
2020-12-31 03:30 3.93 748 3370 (2010) 426 (2011) 1710 427 443 469 1500 3160 3320 3360
2020-12-31 02:30 3.92 743 3370 (2010) 426 (2011) 1710 427 443 469 1500 3160 3320 3360
2020-12-31 01:30 3.92 743 3370 (2010) 426 (2011) 1710 427 443 469 1500 3160 3320 3360
2020-12-31 00:30 3.92 743 3370 (2010) 426 (2011) 1710 427 443 469 1500 3160 3320 3360
2020-12-30 23:30 3.91 737 3530 (2009) 415 (2011) 1710 416 436 464 1220 3260 3410 3510
2020-12-30 22:30 3.90 731 3530 (2009) 415 (2011) 1710 416 436 464 1220 3260 3410 3510
2020-12-30 21:30 3.89 725 3530 (2009) 415 (2011) 1710 416 436 464 1220 3260 3410 3510
2020-12-30 20:30 3.89 725 3530 (2009) 415 (2011) 1710 416 436 464 1220 3260 3410 3510
2020-12-30 19:30 3.88 720 3530 (2009) 415 (2011) 1710 416 436 464 1220 3260 3410 3510
2020-12-30 18:30 3.87 714 3530 (2009) 415 (2011) 1710 416 436 464 1220 3260 3410 3510
2020-12-30 17:30 3.85 703 3530 (2009) 415 (2011) 1710 416 436 464 1220 3260 3410 3510
2020-12-30 16:30 3.85 703 3530 (2009) 415 (2011) 1710 416 436 464 1220 3260 3410 3510
2020-12-30 15:30 3.85 703 3530 (2009) 415 (2011) 1710 416 436 464 1220 3260 3410 3510
2020-12-30 14:30 3.85 703 3530 (2009) 415 (2011) 1710 416 436 464 1220 3260 3410 3510
2020-12-30 13:30 3.85 703 3530 (2009) 415 (2011) 1710 416 436 464 1220 3260 3410 3510
2020-12-30 12:30 3.85 703 3530 (2009) 415 (2011) 1710 416 436 464 1220 3260 3410 3510
2020-12-30 11:30 3.85 703 3530 (2009) 415 (2011) 1710 416 436 464 1220 3260 3410 3510
2020-12-30 10:30 3.84 697 3530 (2009) 415 (2011) 1710 416 436 464 1220 3260 3410 3510
2020-12-30 09:30 3.83 692 3530 (2009) 415 (2011) 1710 416 436 464 1220 3260 3410 3510
2020-12-30 08:30 3.83 692 3530 (2009) 415 (2011) 1710 416 436 464 1220 3260 3410 3510
2020-12-30 07:30 3.81 680 3530 (2009) 415 (2011) 1710 416 436 464 1220 3260 3410 3510
2020-12-30 06:30 3.80 675 3530 (2009) 415 (2011) 1710 416 436 464 1220 3260 3410 3510
2020-12-30 05:30 3.79 669 3530 (2009) 415 (2011) 1710 416 436 464 1220 3260 3410 3510
2020-12-30 04:30 3.79 669 3530 (2009) 415 (2011) 1710 416 436 464 1220 3260 3410 3510
2020-12-30 03:30 3.78 664 3530 (2009) 415 (2011) 1710 416 436 464 1220 3260 3410 3510
2020-12-30 02:30 3.78 664 3530 (2009) 415 (2011) 1710 416 436 464 1220 3260 3410 3510
2020-12-30 01:30 3.79 669 3530 (2009) 415 (2011) 1710 416 436 464 1220 3260 3410 3510
2020-12-30 00:30 3.78 664 3530 (2009) 415 (2011) 1710 416 436 464 1220 3260 3410 3510
2020-12-29 23:30 3.79 669 4550 (2016) 401 (2011) 1760 406 477 521 1070 3270 3490 4240
2020-12-29 22:30 3.78 664 4550 (2016) 401 (2011) 1760 406 477 521 1070 3270 3490 4240
2020-12-29 21:30 3.79 669 4550 (2016) 401 (2011) 1760 406 477 521 1070 3270 3490 4240
2020-12-29 20:30 3.79 669 4550 (2016) 401 (2011) 1760 406 477 521 1070 3270 3490 4240
2020-12-29 19:30 3.79 669 4550 (2016) 401 (2011) 1760 406 477 521 1070 3270 3490 4240
2020-12-29 18:30 3.79 669 4550 (2016) 401 (2011) 1760 406 477 521 1070 3270 3490 4240
2020-12-29 17:30 3.79 669 4550 (2016) 401 (2011) 1760 406 477 521 1070 3270 3490 4240
2020-12-29 16:30 3.79 669 4550 (2016) 401 (2011) 1760 406 477 521 1070 3270 3490 4240
2020-12-29 15:30 3.79 669 4550 (2016) 401 (2011) 1760 406 477 521 1070 3270 3490 4240
2020-12-29 14:30 3.79 669 4550 (2016) 401 (2011) 1760 406 477 521 1070 3270 3490 4240
2020-12-29 13:30 3.79 669 4550 (2016) 401 (2011) 1760 406 477 521 1070 3270 3490 4240
2020-12-29 12:30 3.79 669 4550 (2016) 401 (2011) 1760 406 477 521 1070 3270 3490 4240
2020-12-29 11:30 3.79 669 4550 (2016) 401 (2011) 1760 406 477 521 1070 3270 3490 4240
2020-12-29 10:30 3.79 669 4550 (2016) 401 (2011) 1760 406 477 521 1070 3270 3490 4240
2020-12-29 09:30 3.80 675 4550 (2016) 401 (2011) 1760 406 477 521 1070 3270 3490 4240
2020-12-29 08:30 3.79 669 4550 (2016) 401 (2011) 1760 406 477 521 1070 3270 3490 4240
2020-12-29 07:30 3.80 675 4550 (2016) 401 (2011) 1760 406 477 521 1070 3270 3490 4240
2020-12-29 06:30 3.80 675 4550 (2016) 401 (2011) 1760 406 477 521 1070 3270 3490 4240
2020-12-29 05:30 3.80 675 4550 (2016) 401 (2011) 1760 406 477 521 1070 3270 3490 4240
2020-12-29 04:30 3.81 680 4550 (2016) 401 (2011) 1760 406 477 521 1070 3270 3490 4240
2020-12-29 03:30 3.81 680 4550 (2016) 401 (2011) 1760 406 477 521 1070 3270 3490 4240
2020-12-29 02:30 3.81 680 4550 (2016) 401 (2011) 1760 406 477 521 1070 3270 3490 4240
2020-12-29 01:30 3.81 680 4550 (2016) 401 (2011) 1760 406 477 521 1070 3270 3490 4240
2020-12-29 00:30 3.82 686 4550 (2016) 401 (2011) 1760 406 477 521 1070 3270 3490 4240
2020-12-28 23:30 3.82 686 10300 (2016) 395 (2011) 2070 403 459 500 952 3050 3450 8250
2020-12-28 22:30 3.83 692 10300 (2016) 395 (2011) 2070 403 459 500 952 3050 3450 8250
2020-12-28 21:30 3.84 697 10300 (2016) 395 (2011) 2070 403 459 500 952 3050 3450 8250
2020-12-28 20:30 3.85 703 10300 (2016) 395 (2011) 2070 403 459 500 952 3050 3450 8250
2020-12-28 19:30 3.86 708 10300 (2016) 395 (2011) 2070 403 459 500 952 3050 3450 8250
2020-12-28 18:30 3.87 714 10300 (2016) 395 (2011) 2070 403 459 500 952 3050 3450 8250
2020-12-28 17:30 3.88 720 10300 (2016) 395 (2011) 2070 403 459 500 952 3050 3450 8250
2020-12-28 16:30 3.89 725 10300 (2016) 395 (2011) 2070 403 459 500 952 3050 3450 8250
2020-12-28 15:30 3.91 737 10300 (2016) 395 (2011) 2070 403 459 500 952 3050 3450 8250
2020-12-28 14:30 3.91 737 10300 (2016) 395 (2011) 2070 403 459 500 952 3050 3450 8250
2020-12-28 13:30 3.92 743 10300 (2016) 395 (2011) 2070 403 459 500 952 3050 3450 8250
2020-12-28 12:30 3.92 743 10300 (2016) 395 (2011) 2070 403 459 500 952 3050 3450 8250
2020-12-28 11:30 3.92 743 10300 (2016) 395 (2011) 2070 403 459 500 952 3050 3450 8250
2020-12-28 10:30 3.92 743 10300 (2016) 395 (2011) 2070 403 459 500 952 3050 3450 8250
2020-12-28 09:30 3.92 743 10300 (2016) 395 (2011) 2070 403 459 500 952 3050 3450 8250
2020-12-28 08:30 3.92 743 10300 (2016) 395 (2011) 2070 403 459 500 952 3050 3450 8250
2020-12-28 07:30 3.92 743 10300 (2016) 395 (2011) 2070 403 459 500 952 3050 3450 8250
2020-12-28 06:30 3.92 743 10300 (2016) 395 (2011) 2070 403 459 500 952 3050 3450 8250
2020-12-28 05:30 3.93 748 10300 (2016) 395 (2011) 2070 403 459 500 952 3050 3450 8250
2020-12-28 04:30 3.93 748 10300 (2016) 395 (2011) 2070 403 459 500 952 3050 3450 8250
2020-12-28 03:30 3.93 748 10300 (2016) 395 (2011) 2070 403 459 500 952 3050 3450 8250
2020-12-28 02:30 3.93 748 10300 (2016) 395 (2011) 2070 403 459 500 952 3050 3450 8250
2020-12-28 01:30 3.93 748 10300 (2016) 395 (2011) 2070 403 459 500 952 3050 3450 8250
2020-12-28 00:30 3.93 748 10300 (2016) 395 (2011) 2070 403 459 500 952 3050 3450 8250
2020-12-27 23:30 3.94 754 4370 (2016) 394 (2011) 1380 403 456 491 777 2410 2870 3970
2020-12-27 22:30 3.94 754 4370 (2016) 394 (2011) 1380 403 456 491 777 2410 2870 3970
2020-12-27 21:30 3.94 754 4370 (2016) 394 (2011) 1380 403 456 491 777 2410 2870 3970
2020-12-27 20:30 3.94 754 4370 (2016) 394 (2011) 1380 403 456 491 777 2410 2870 3970
2020-12-27 19:30 3.94 754 4370 (2016) 394 (2011) 1380 403 456 491 777 2410 2870 3970
2020-12-27 18:30 3.94 754 4370 (2016) 394 (2011) 1380 403 456 491 777 2410 2870 3970
2020-12-27 17:30 3.94 754 4370 (2016) 394 (2011) 1380 403 456 491 777 2410 2870 3970
2020-12-27 16:30 3.95 760 4370 (2016) 394 (2011) 1380 403 456 491 777 2410 2870 3970
2020-12-27 15:30 3.95 760 4370 (2016) 394 (2011) 1380 403 456 491 777 2410 2870 3970
2020-12-27 14:30 3.95 760 4370 (2016) 394 (2011) 1380 403 456 491 777 2410 2870 3970
2020-12-27 13:30 3.95 760 4370 (2016) 394 (2011) 1380 403 456 491 777 2410 2870 3970
2020-12-27 12:30 3.95 760 4370 (2016) 394 (2011) 1380 403 456 491 777 2410 2870 3970
2020-12-27 11:30 3.95 760 4370 (2016) 394 (2011) 1380 403 456 491 777 2410 2870 3970
2020-12-27 10:30 3.94 754 4370 (2016) 394 (2011) 1380 403 456 491 777 2410 2870 3970
2020-12-27 09:30 3.94 754 4370 (2016) 394 (2011) 1380 403 456 491 777 2410 2870 3970
2020-12-27 08:30 3.94 754 4370 (2016) 394 (2011) 1380 403 456 491 777 2410 2870 3970
2020-12-27 07:30 3.93 748 4370 (2016) 394 (2011) 1380 403 456 491 777 2410 2870 3970
2020-12-27 06:30 3.93 748 4370 (2016) 394 (2011) 1380 403 456 491 777 2410 2870 3970
2020-12-27 05:30 3.93 748 4370 (2016) 394 (2011) 1380 403 456 491 777 2410 2870 3970
2020-12-27 04:30 3.94 754 4370 (2016) 394 (2011) 1380 403 456 491 777 2410 2870 3970
2020-12-27 03:30 3.94 754 4370 (2016) 394 (2011) 1380 403 456 491 777 2410 2870 3970
2020-12-27 02:30 3.94 754 4370 (2016) 394 (2011) 1380 403 456 491 777 2410 2870 3970
2020-12-27 01:30 3.94 754 4370 (2016) 394 (2011) 1380 403 456 491 777 2410 2870 3970
2020-12-27 00:30 3.94 754 4370 (2016) 394 (2011) 1380 403 456 491 777 2410 2870 3970
2020-12-26 23:30 3.94 754 3370 (2016) 395 (2011) 1170 406 431 445 800 1860 2280 3110
2020-12-26 22:30 3.94 754 3370 (2016) 395 (2011) 1170 406 431 445 800 1860 2280 3110
2020-12-26 21:30 3.95 760 3370 (2016) 395 (2011) 1170 406 431 445 800 1860 2280 3110
2020-12-26 20:30 3.94 754 3370 (2016) 395 (2011) 1170 406 431 445 800 1860 2280 3110
2020-12-26 19:30 3.95 760 3370 (2016) 395 (2011) 1170 406 431 445 800 1860 2280 3110
2020-12-26 18:30 3.95 760 3370 (2016) 395 (2011) 1170 406 431 445 800 1860 2280 3110
2020-12-26 17:30 3.95 760 3370 (2016) 395 (2011) 1170 406 431 445 800 1860 2280 3110
2020-12-26 16:30 3.95 760 3370 (2016) 395 (2011) 1170 406 431 445 800 1860 2280 3110
2020-12-26 15:30 3.95 760 3370 (2016) 395 (2011) 1170 406 431 445 800 1860 2280 3110
2020-12-26 14:30 3.95 760 3370 (2016) 395 (2011) 1170 406 431 445 800 1860 2280 3110
2020-12-26 13:30 3.95 760 3370 (2016) 395 (2011) 1170 406 431 445 800 1860 2280 3110
2020-12-26 12:30 3.95 760 3370 (2016) 395 (2011) 1170 406 431 445 800 1860 2280 3110
2020-12-26 11:30 3.95 760 3370 (2016) 395 (2011) 1170 406 431 445 800 1860 2280 3110
2020-12-26 10:30 3.95 760 3370 (2016) 395 (2011) 1170 406 431 445 800 1860 2280 3110
2020-12-26 09:30 3.95 760 3370 (2016) 395 (2011) 1170 406 431 445 800 1860 2280 3110
2020-12-26 08:30 3.94 754 3370 (2016) 395 (2011) 1170 406 431 445 800 1860 2280 3110
2020-12-26 07:30 3.94 754 3370 (2016) 395 (2011) 1170 406 431 445 800 1860 2280 3110
2020-12-26 06:30 3.94 754 3370 (2016) 395 (2011) 1170 406 431 445 800 1860 2280 3110
2020-12-26 05:30 3.95 760 3370 (2016) 395 (2011) 1170 406 431 445 800 1860 2280 3110
2020-12-26 04:30 3.95 760 3370 (2016) 395 (2011) 1170 406 431 445 800 1860 2280 3110
2020-12-26 03:30 3.95 760 3370 (2016) 395 (2011) 1170 406 431 445 800 1860 2280 3110
2020-12-26 02:30 3.94 754 3370 (2016) 395 (2011) 1170 406 431 445 800 1860 2280 3110
2020-12-26 01:30 3.94 754 3370 (2016) 395 (2011) 1170 406 431 445 800 1860 2280 3110
2020-12-26 00:30 3.95 760 3370 (2016) 395 (2011) 1170 406 431 445 800 1860 2280 3110
2020-12-25 23:30 3.95 760 5460 (2010) 399 (2011) 1420 406 430 448 812 2040 2670 4760
2020-12-25 22:30 3.95 760 5460 (2010) 399 (2011) 1420 406 430 448 812 2040 2670 4760
2020-12-25 21:30 3.95 760 5460 (2010) 399 (2011) 1420 406 430 448 812 2040 2670 4760
2020-12-25 20:30 3.95 760 5460 (2010) 399 (2011) 1420 406 430 448 812 2040 2670 4760
2020-12-25 19:30 3.95 760 5460 (2010) 399 (2011) 1420 406 430 448 812 2040 2670 4760
2020-12-25 18:30 3.95 760 5460 (2010) 399 (2011) 1420 406 430 448 812 2040 2670 4760
2020-12-25 17:30 3.96 766 5460 (2010) 399 (2011) 1420 406 430 448 812 2040 2670 4760
2020-12-25 16:30 3.96 766 5460 (2010) 399 (2011) 1420 406 430 448 812 2040 2670 4760
2020-12-25 15:30 3.96 766 5460 (2010) 399 (2011) 1420 406 430 448 812 2040 2670 4760
2020-12-25 14:30 3.96 766 5460 (2010) 399 (2011) 1420 406 430 448 812 2040 2670 4760
2020-12-25 13:30 3.96 766 5460 (2010) 399 (2011) 1420 406 430 448 812 2040 2670 4760
2020-12-25 12:30 3.96 766 5460 (2010) 399 (2011) 1420 406 430 448 812 2040 2670 4760
2020-12-25 11:30 3.96 766 5460 (2010) 399 (2011) 1420 406 430 448 812 2040 2670 4760
2020-12-25 10:30 3.96 766 5460 (2010) 399 (2011) 1420 406 430 448 812 2040 2670 4760
2020-12-25 09:30 3.96 766 5460 (2010) 399 (2011) 1420 406 430 448 812 2040 2670 4760
2020-12-25 08:30 3.97 772 5460 (2010) 399 (2011) 1420 406 430 448 812 2040 2670 4760
2020-12-25 07:30 3.96 766 5460 (2010) 399 (2011) 1420 406 430 448 812 2040 2670 4760
2020-12-25 06:30 3.97 772 5460 (2010) 399 (2011) 1420 406 430 448 812 2040 2670 4760
2020-12-25 05:30 3.96 766 5460 (2010) 399 (2011) 1420 406 430 448 812 2040 2670 4760
2020-12-25 04:30 3.97 772 5460 (2010) 399 (2011) 1420 406 430 448 812 2040 2670 4760
2020-12-25 03:30 3.97 772 5460 (2010) 399 (2011) 1420 406 430 448 812 2040 2670 4760
2020-12-25 02:30 3.97 772 5460 (2010) 399 (2011) 1420 406 430 448 812 2040 2670 4760
2020-12-25 01:30 3.97 772 5460 (2010) 399 (2011) 1420 406 430 448 812 2040 2670 4760
2020-12-25 00:30 3.97 772 5460 (2010) 399 (2011) 1420 406 430 448 812 2040 2670 4760
2020-12-24 23:30 3.97 772 3030 (2010) 400 (2011) 1050 412 446 459 821 1420 1630 2670
2020-12-24 22:30 3.97 772 3030 (2010) 400 (2011) 1050 412 446 459 821 1420 1630 2670
2020-12-24 21:30 3.97 772 3030 (2010) 400 (2011) 1050 412 446 459 821 1420 1630 2670
2020-12-24 20:30 3.97 772 3030 (2010) 400 (2011) 1050 412 446 459 821 1420 1630 2670
2020-12-24 19:30 3.98 777 3030 (2010) 400 (2011) 1050 412 446 459 821 1420 1630 2670
2020-12-24 18:30 3.98 777 3030 (2010) 400 (2011) 1050 412 446 459 821 1420 1630 2670
2020-12-24 17:30 3.98 777 3030 (2010) 400 (2011) 1050 412 446 459 821 1420 1630 2670
2020-12-24 16:30 3.99 783 3030 (2010) 400 (2011) 1050 412 446 459 821 1420 1630 2670
2020-12-24 15:30 3.99 783 3030 (2010) 400 (2011) 1050 412 446 459 821 1420 1630 2670
2020-12-24 14:30 3.99 783 3030 (2010) 400 (2011) 1050 412 446 459 821 1420 1630 2670
2020-12-24 13:30 3.99 783 3030 (2010) 400 (2011) 1050 412 446 459 821 1420 1630 2670
2020-12-24 12:30 4.00 789 3030 (2010) 400 (2011) 1050 412 446 459 821 1420 1630 2670
2020-12-24 11:30 4.00 789 3030 (2010) 400 (2011) 1050 412 446 459 821 1420 1630 2670
2020-12-24 10:30 4.00 789 3030 (2010) 400 (2011) 1050 412 446 459 821 1420 1630 2670
2020-12-24 09:30 4.00 789 3030 (2010) 400 (2011) 1050 412 446 459 821 1420 1630 2670
2020-12-24 08:30 4.00 789 3030 (2010) 400 (2011) 1050 412 446 459 821 1420 1630 2670
2020-12-24 07:30 4.00 789 3030 (2010) 400 (2011) 1050 412 446 459 821 1420 1630 2670
2020-12-24 06:30 4.00 789 3030 (2010) 400 (2011) 1050 412 446 459 821 1420 1630 2670
2020-12-24 05:30 4.00 789 3030 (2010) 400 (2011) 1050 412 446 459 821 1420 1630 2670
2020-12-24 04:30 4.01 795 3030 (2010) 400 (2011) 1050 412 446 459 821 1420 1630 2670
2020-12-24 03:30 4.01 795 3030 (2010) 400 (2011) 1050 412 446 459 821 1420 1630 2670
2020-12-24 02:30 4.01 795 3030 (2010) 400 (2011) 1050 412 446 459 821 1420 1630 2670
2020-12-24 01:30 4.02 801 3030 (2010) 400 (2011) 1050 412 446 459 821 1420 1630 2670
2020-12-24 00:30 4.02 801 3030 (2010) 400 (2011) 1050 412 446 459 821 1420 1630 2670
2020-12-23 23:30 4.03 807 1890 (2014) 402 (2011) 928 417 462 473 834 1410 1580 1840
2020-12-23 22:30 4.02 801 1890 (2014) 402 (2011) 928 417 462 473 834 1410 1580 1840
2020-12-23 21:30 4.03 807 1890 (2014) 402 (2011) 928 417 462 473 834 1410 1580 1840
2020-12-23 20:30 4.03 807 1890 (2014) 402 (2011) 928 417 462 473 834 1410 1580 1840
2020-12-23 19:30 4.03 807 1890 (2014) 402 (2011) 928 417 462 473 834 1410 1580 1840
2020-12-23 18:30 4.03 807 1890 (2014) 402 (2011) 928 417 462 473 834 1410 1580 1840
2020-12-23 17:30 4.01 795 1890 (2014) 402 (2011) 928 417 462 473 834 1410 1580 1840
2020-12-23 16:30 4.01 795 1890 (2014) 402 (2011) 928 417 462 473 834 1410 1580 1840
2020-12-23 15:30 4.02 801 1890 (2014) 402 (2011) 928 417 462 473 834 1410 1580 1840
2020-12-23 14:30 4.01 795 1890 (2014) 402 (2011) 928 417 462 473 834 1410 1580 1840
2020-12-23 13:30 4.01 795 1890 (2014) 402 (2011) 928 417 462 473 834 1410 1580 1840
2020-12-23 12:30 4.02 801 1890 (2014) 402 (2011) 928 417 462 473 834 1410 1580 1840
2020-12-23 11:30 4.02 801 1890 (2014) 402 (2011) 928 417 462 473 834 1410 1580 1840
2020-12-23 10:30 4.02 801 1890 (2014) 402 (2011) 928 417 462 473 834 1410 1580 1840
2020-12-23 09:30 4.02 801 1890 (2014) 402 (2011) 928 417 462 473 834 1410 1580 1840
2020-12-23 08:30 4.02 801 1890 (2014) 402 (2011) 928 417 462 473 834 1410 1580 1840
2020-12-23 07:30 4.02 801 1890 (2014) 402 (2011) 928 417 462 473 834 1410 1580 1840
2020-12-23 06:30 4.03 807 1890 (2014) 402 (2011) 928 417 462 473 834 1410 1580 1840
2020-12-23 05:30 4.03 807 1890 (2014) 402 (2011) 928 417 462 473 834 1410 1580 1840
2020-12-23 04:30 4.03 807 1890 (2014) 402 (2011) 928 417 462 473 834 1410 1580 1840
2020-12-23 03:30 4.04 813 1890 (2014) 402 (2011) 928 417 462 473 834 1410 1580 1840
2020-12-23 02:30 4.04 813 1890 (2014) 402 (2011) 928 417 462 473 834 1410 1580 1840
2020-12-23 01:30 4.05 819 1890 (2014) 402 (2011) 928 417 462 473 834 1410 1580 1840
2020-12-23 00:30 4.06 825 1890 (2014) 402 (2011) 928 417 462 473 834 1410 1580 1840
2020-12-22 23:30 4.07 831 5670 (2014) 396 (2018) 1310 401 458 488 854 1610 1710 4510
2020-12-22 22:30 4.08 837 5670 (2014) 396 (2018) 1310 401 458 488 854 1610 1710 4510
2020-12-22 21:30 4.10 849 5670 (2014) 396 (2018) 1310 401 458 488 854 1610 1710 4510
2020-12-22 20:30 4.12 861 5670 (2014) 396 (2018) 1310 401 458 488 854 1610 1710 4510
2020-12-22 19:30 4.14 873 5670 (2014) 396 (2018) 1310 401 458 488 854 1610 1710 4510
2020-12-22 18:30 4.17 891 5670 (2014) 396 (2018) 1310 401 458 488 854 1610 1710 4510
2020-12-22 17:30 4.21 916 5670 (2014) 396 (2018) 1310 401 458 488 854 1610 1710 4510
2020-12-22 16:30 4.25 941 5670 (2014) 396 (2018) 1310 401 458 488 854 1610 1710 4510
2020-12-22 15:30 4.29 967 5670 (2014) 396 (2018) 1310 401 458 488 854 1610 1710 4510
2020-12-22 14:30 4.31 979 5670 (2014) 396 (2018) 1310 401 458 488 854 1610 1710 4510
2020-12-22 13:30 4.33 992 5670 (2014) 396 (2018) 1310 401 458 488 854 1610 1710 4510
2020-12-22 12:30 4.32 986 5670 (2014) 396 (2018) 1310 401 458 488 854 1610 1710 4510
2020-12-22 11:30 4.33 992 5670 (2014) 396 (2018) 1310 401 458 488 854 1610 1710 4510
2020-12-22 10:30 4.32 986 5670 (2014) 396 (2018) 1310 401 458 488 854 1610 1710 4510
2020-12-22 09:30 4.32 986 5670 (2014) 396 (2018) 1310 401 458 488 854 1610 1710 4510
2020-12-22 08:30 4.32 986 5670 (2014) 396 (2018) 1310 401 458 488 854 1610 1710 4510
2020-12-22 07:30 4.31 979 5670 (2014) 396 (2018) 1310 401 458 488 854 1610 1710 4510
2020-12-22 06:30 4.31 979 5670 (2014) 396 (2018) 1310 401 458 488 854 1610 1710 4510
2020-12-22 05:30 4.31 979 5670 (2014) 396 (2018) 1310 401 458 488 854 1610 1710 4510
2020-12-22 04:30 4.31 979 5670 (2014) 396 (2018) 1310 401 458 488 854 1610 1710 4510
2020-12-22 03:30 4.31 979 5670 (2014) 396 (2018) 1310 401 458 488 854 1610 1710 4510
2020-12-22 02:30 4.31 979 5670 (2014) 396 (2018) 1310 401 458 488 854 1610 1710 4510
2020-12-22 01:30 4.30 973 5670 (2014) 396 (2018) 1310 401 458 488 854 1610 1710 4510
2020-12-22 00:30 4.30 973 5670 (2014) 396 (2018) 1310 401 458 488 854 1610 1710 4510
2020-12-21 23:30 4.29 967 6430 (2014) 391 (2018) 1500 409 472 487 906 2070 2140 5170
2020-12-21 22:30 4.28 960 6430 (2014) 391 (2018) 1500 409 472 487 906 2070 2140 5170
2020-12-21 21:30 4.27 954 6430 (2014) 391 (2018) 1500 409 472 487 906 2070 2140 5170
2020-12-21 20:30 4.26 948 6430 (2014) 391 (2018) 1500 409 472 487 906 2070 2140 5170
2020-12-21 19:30 4.25 941 6430 (2014) 391 (2018) 1500 409 472 487 906 2070 2140 5170
2020-12-21 18:30 4.22 922 6430 (2014) 391 (2018) 1500 409 472 487 906 2070 2140 5170
2020-12-21 17:30 4.20 910 6430 (2014) 391 (2018) 1500 409 472 487 906 2070 2140 5170
2020-12-21 16:30 4.17 891 6430 (2014) 391 (2018) 1500 409 472 487 906 2070 2140 5170
2020-12-21 15:30 4.13 867 6430 (2014) 391 (2018) 1500 409 472 487 906 2070 2140 5170
2020-12-21 14:30 4.10 849 6430 (2014) 391 (2018) 1500 409 472 487 906 2070 2140 5170
2020-12-21 13:30 4.09 843 6430 (2014) 391 (2018) 1500 409 472 487 906 2070 2140 5170
2020-12-21 12:30 4.09 843 6430 (2014) 391 (2018) 1500 409 472 487 906 2070 2140 5170
2020-12-21 11:30 4.09 843 6430 (2014) 391 (2018) 1500 409 472 487 906 2070 2140 5170
2020-12-21 10:30 4.09 843 6430 (2014) 391 (2018) 1500 409 472 487 906 2070 2140 5170
2020-12-21 09:30 4.09 843 6430 (2014) 391 (2018) 1500 409 472 487 906 2070 2140 5170
2020-12-21 08:30 4.09 843 6430 (2014) 391 (2018) 1500 409 472 487 906 2070 2140 5170
2020-12-21 07:30 4.09 843 6430 (2014) 391 (2018) 1500 409 472 487 906 2070 2140 5170
2020-12-21 06:30 4.09 843 6430 (2014) 391 (2018) 1500 409 472 487 906 2070 2140 5170
2020-12-21 05:30 4.09 843 6430 (2014) 391 (2018) 1500 409 472 487 906 2070 2140 5170
2020-12-21 04:30 4.09 843 6430 (2014) 391 (2018) 1500 409 472 487 906 2070 2140 5170
2020-12-21 03:30 4.09 843 6430 (2014) 391 (2018) 1500 409 472 487 906 2070 2140 5170
2020-12-21 02:30 4.09 843 6430 (2014) 391 (2018) 1500 409 472 487 906 2070 2140 5170
2020-12-21 01:30 4.09 843 6430 (2014) 391 (2018) 1500 409 472 487 906 2070 2140 5170
2020-12-21 00:30 4.09 843 6430 (2014) 391 (2018) 1500 409 472 487 906 2070 2140 5170
2020-12-20 23:30 4.10 849 3340 (2019) 390 (2018) 1210 406 452 467 905 1970 2240 3060
2020-12-20 22:30 4.09 843 3340 (2019) 390 (2018) 1210 406 452 467 905 1970 2240 3060
2020-12-20 21:30 4.10 849 3340 (2019) 390 (2018) 1210 406 452 467 905 1970 2240 3060
2020-12-20 20:30 4.10 849 3340 (2019) 390 (2018) 1210 406 452 467 905 1970 2240 3060
2020-12-20 19:30 4.10 849 3340 (2019) 390 (2018) 1210 406 452 467 905 1970 2240 3060
2020-12-20 18:30 4.10 849 3340 (2019) 390 (2018) 1210 406 452 467 905 1970 2240 3060
2020-12-20 17:30 4.10 849 3340 (2019) 390 (2018) 1210 406 452 467 905 1970 2240 3060
2020-12-20 16:30 4.11 855 3340 (2019) 390 (2018) 1210 406 452 467 905 1970 2240 3060
2020-12-20 15:30 4.10 849 3340 (2019) 390 (2018) 1210 406 452 467 905 1970 2240 3060
2020-12-20 14:30 4.11 855 3340 (2019) 390 (2018) 1210 406 452 467 905 1970 2240 3060
2020-12-20 13:30 4.10 849 3340 (2019) 390 (2018) 1210 406 452 467 905 1970 2240 3060
2020-12-20 12:30 4.10 849 3340 (2019) 390 (2018) 1210 406 452 467 905 1970 2240 3060
2020-12-20 11:30 4.11 855 3340 (2019) 390 (2018) 1210 406 452 467 905 1970 2240 3060
2020-12-20 10:30 4.10 849 3340 (2019) 390 (2018) 1210 406 452 467 905 1970 2240 3060
2020-12-20 09:30 4.11 855 3340 (2019) 390 (2018) 1210 406 452 467 905 1970 2240 3060
2020-12-20 08:30 4.11 855 3340 (2019) 390 (2018) 1210 406 452 467 905 1970 2240 3060
2020-12-20 07:30 4.11 855 3340 (2019) 390 (2018) 1210 406 452 467 905 1970 2240 3060
2020-12-20 06:30 4.11 855 3340 (2019) 390 (2018) 1210 406 452 467 905 1970 2240 3060
2020-12-20 05:30 4.11 855 3340 (2019) 390 (2018) 1210 406 452 467 905 1970 2240 3060
2020-12-20 04:30 4.11 855 3340 (2019) 390 (2018) 1210 406 452 467 905 1970 2240 3060
2020-12-20 03:30 4.11 855 3340 (2019) 390 (2018) 1210 406 452 467 905 1970 2240 3060
2020-12-20 02:30 4.12 861 3340 (2019) 390 (2018) 1210 406 452 467 905 1970 2240 3060
2020-12-20 01:30 4.11 855 3340 (2019) 390 (2018) 1210 406 452 467 905 1970 2240 3060
2020-12-20 00:30 4.12 861 3340 (2019) 390 (2018) 1210 406 452 467 905 1970 2240 3060
2020-12-19 23:30 4.12 861 3580 (2019) 367 (2017) 1170 374 432 464 845 1690 2090 3240
2020-12-19 22:30 4.12 861 3580 (2019) 367 (2017) 1170 374 432 464 845 1690 2090 3240
2020-12-19 21:30 4.12 861 3580 (2019) 367 (2017) 1170 374 432 464 845 1690 2090 3240
2020-12-19 20:30 4.12 861 3580 (2019) 367 (2017) 1170 374 432 464 845 1690 2090 3240
2020-12-19 19:30 4.12 861 3580 (2019) 367 (2017) 1170 374 432 464 845 1690 2090 3240
2020-12-19 18:30 4.13 867 3580 (2019) 367 (2017) 1170 374 432 464 845 1690 2090 3240
2020-12-19 17:30 4.13 867 3580 (2019) 367 (2017) 1170 374 432 464 845 1690 2090 3240
2020-12-19 16:30 4.13 867 3580 (2019) 367 (2017) 1170 374 432 464 845 1690 2090 3240
2020-12-19 15:30 4.13 867 3580 (2019) 367 (2017) 1170 374 432 464 845 1690 2090 3240
2020-12-19 14:30 4.13 867 3580 (2019) 367 (2017) 1170 374 432 464 845 1690 2090 3240
2020-12-19 13:30 4.13 867 3580 (2019) 367 (2017) 1170 374 432 464 845 1690 2090 3240
2020-12-19 12:30 4.14 873 3580 (2019) 367 (2017) 1170 374 432 464 845 1690 2090 3240
2020-12-19 11:30 4.14 873 3580 (2019) 367 (2017) 1170 374 432 464 845 1690 2090 3240
2020-12-19 10:30 4.14 873 3580 (2019) 367 (2017) 1170 374 432 464 845 1690 2090 3240
2020-12-19 09:30 4.14 873 3580 (2019) 367 (2017) 1170 374 432 464 845 1690 2090 3240
2020-12-19 08:30 4.14 873 3580 (2019) 367 (2017) 1170 374 432 464 845 1690 2090 3240
2020-12-19 07:30 4.14 873 3580 (2019) 367 (2017) 1170 374 432 464 845 1690 2090 3240
2020-12-19 06:30 4.15 879 3580 (2019) 367 (2017) 1170 374 432 464 845 1690 2090 3240
2020-12-19 05:30 4.15 879 3580 (2019) 367 (2017) 1170 374 432 464 845 1690 2090 3240
2020-12-19 04:30 4.15 879 3580 (2019) 367 (2017) 1170 374 432 464 845 1690 2090 3240
2020-12-19 03:30 4.15 879 3580 (2019) 367 (2017) 1170 374 432 464 845 1690 2090 3240
2020-12-19 02:30 4.16 885 3580 (2019) 367 (2017) 1170 374 432 464 845 1690 2090 3240
2020-12-19 01:30 4.17 891 3580 (2019) 367 (2017) 1170 374 432 464 845 1690 2090 3240
2020-12-19 00:30 4.17 891 3580 (2019) 367 (2017) 1170 374 432 464 845 1690 2090 3240
2020-12-18 23:30 4.18 898 3580 (2019) 372 (2017) 1170 378 426 453 848 1660 2050 3220
2020-12-18 22:30 4.19 904 3580 (2019) 372 (2017) 1170 378 426 453 848 1660 2050 3220
2020-12-18 21:30 4.20 910 3580 (2019) 372 (2017) 1170 378 426 453 848 1660 2050 3220
2020-12-18 20:30 4.22 922 3580 (2019) 372 (2017) 1170 378 426 453 848 1660 2050 3220
2020-12-18 19:30 4.23 929 3580 (2019) 372 (2017) 1170 378 426 453 848 1660 2050 3220
2020-12-18 18:30 4.25 941 3580 (2019) 372 (2017) 1170 378 426 453 848 1660 2050 3220
2020-12-18 17:30 4.27 954 3580 (2019) 372 (2017) 1170 378 426 453 848 1660 2050 3220
2020-12-18 16:30 4.29 967 3580 (2019) 372 (2017) 1170 378 426 453 848 1660 2050 3220
2020-12-18 15:30 4.32 986 3580 (2019) 372 (2017) 1170 378 426 453 848 1660 2050 3220
2020-12-18 14:30 4.34 999 3580 (2019) 372 (2017) 1170 378 426 453 848 1660 2050 3220
2020-12-18 13:30 4.36 1010 3580 (2019) 372 (2017) 1170 378 426 453 848 1660 2050 3220
2020-12-18 12:30 4.36 1010 3580 (2019) 372 (2017) 1170 378 426 453 848 1660 2050 3220
2020-12-18 11:30 4.36 1010 3580 (2019) 372 (2017) 1170 378 426 453 848 1660 2050 3220
2020-12-18 10:30 4.36 1010 3580 (2019) 372 (2017) 1170 378 426 453 848 1660 2050 3220
2020-12-18 09:30 4.36 1010 3580 (2019) 372 (2017) 1170 378 426 453 848 1660 2050 3220
2020-12-18 08:30 4.36 1010 3580 (2019) 372 (2017) 1170 378 426 453 848 1660 2050 3220
2020-12-18 07:30 4.36 1010 3580 (2019) 372 (2017) 1170 378 426 453 848 1660 2050 3220
2020-12-18 06:30 4.37 1020 3580 (2019) 372 (2017) 1170 378 426 453 848 1660 2050 3220
2020-12-18 05:30 4.37 1020 3580 (2019) 372 (2017) 1170 378 426 453 848 1660 2050 3220
2020-12-18 04:30 4.37 1020 3580 (2019) 372 (2017) 1170 378 426 453 848 1660 2050 3220
2020-12-18 03:30 4.37 1020 3580 (2019) 372 (2017) 1170 378 426 453 848 1660 2050 3220
2020-12-18 02:30 4.37 1020 3580 (2019) 372 (2017) 1170 378 426 453 848 1660 2050 3220
2020-12-18 01:30 4.37 1020 3580 (2019) 372 (2017) 1170 378 426 453 848 1660 2050 3220
2020-12-18 00:30 4.38 1020 3580 (2019) 372 (2017) 1170 378 426 453 848 1660 2050 3220
2020-12-17 23:30 4.38 1020 2040 (2016) 384 (2017) 999 387 428 461 871 1490 1680 1970
2020-12-17 22:30 4.38 1020 2040 (2016) 384 (2017) 999 387 428 461 871 1490 1680 1970
2020-12-17 21:30 4.38 1020 2040 (2016) 384 (2017) 999 387 428 461 871 1490 1680 1970
2020-12-17 20:30 4.38 1020 2040 (2016) 384 (2017) 999 387 428 461 871 1490 1680 1970
2020-12-17 19:30 4.39 1030 2040 (2016) 384 (2017) 999 387 428 461 871 1490 1680 1970
2020-12-17 18:30 4.39 1030 2040 (2016) 384 (2017) 999 387 428 461 871 1490 1680 1970
2020-12-17 17:30 4.39 1030 2040 (2016) 384 (2017) 999 387 428 461 871 1490 1680 1970
2020-12-17 16:30 4.39 1030 2040 (2016) 384 (2017) 999 387 428 461 871 1490 1680 1970
2020-12-17 15:30 4.40 1040 2040 (2016) 384 (2017) 999 387 428 461 871 1490 1680 1970
2020-12-17 14:30 4.39 1030 2040 (2016) 384 (2017) 999 387 428 461 871 1490 1680 1970
2020-12-17 13:30 4.40 1040 2040 (2016) 384 (2017) 999 387 428 461 871 1490 1680 1970
2020-12-17 12:30 4.40 1040 2040 (2016) 384 (2017) 999 387 428 461 871 1490 1680 1970
2020-12-17 11:30 4.40 1040 2040 (2016) 384 (2017) 999 387 428 461 871 1490 1680 1970
2020-12-17 10:30 4.41 1040 2040 (2016) 384 (2017) 999 387 428 461 871 1490 1680 1970
2020-12-17 09:30 4.41 1040 2040 (2016) 384 (2017) 999 387 428 461 871 1490 1680 1970
2020-12-17 08:30 4.41 1040 2040 (2016) 384 (2017) 999 387 428 461 871 1490 1680 1970
2020-12-17 07:30 4.41 1040 2040 (2016) 384 (2017) 999 387 428 461 871 1490 1680 1970
2020-12-17 06:30 4.42 1050 2040 (2016) 384 (2017) 999 387 428 461 871 1490 1680 1970
2020-12-17 05:30 4.42 1050 2040 (2016) 384 (2017) 999 387 428 461 871 1490 1680 1970
2020-12-17 04:30 4.43 1060 2040 (2016) 384 (2017) 999 387 428 461 871 1490 1680 1970
2020-12-17 03:30 4.43 1060 2040 (2016) 384 (2017) 999 387 428 461 871 1490 1680 1970
2020-12-17 02:30 4.44 1060 2040 (2016) 384 (2017) 999 387 428 461 871 1490 1680 1970
2020-12-17 01:30 4.45 1070 2040 (2016) 384 (2017) 999 387 428 461 871 1490 1680 1970
2020-12-17 00:30 4.46 1080 2040 (2016) 384 (2017) 999 387 428 461 871 1490 1680 1970
2020-12-16 23:30 4.47 1080 1820 (2012) 378 (2017) 937 383 430 465 826 1260 1480 1800
2020-12-16 22:30 4.49 1100 1820 (2012) 378 (2017) 937 383 430 465 826 1260 1480 1800
2020-12-16 21:30 4.51 1110 1820 (2012) 378 (2017) 937 383 430 465 826 1260 1480 1800
2020-12-16 20:30 4.53 1120 1820 (2012) 378 (2017) 937 383 430 465 826 1260 1480 1800
2020-12-16 19:30 4.56 1140 1820 (2012) 378 (2017) 937 383 430 465 826 1260 1480 1800
2020-12-16 18:30 4.60 1170 1820 (2012) 378 (2017) 937 383 430 465 826 1260 1480 1800
2020-12-16 17:30 4.64 1200 1820 (2012) 378 (2017) 937 383 430 465 826 1260 1480 1800
2020-12-16 16:30 4.69 1230 1820 (2012) 378 (2017) 937 383 430 465 826 1260 1480 1800
2020-12-16 15:30 4.75 1270 1820 (2012) 378 (2017) 937 383 430 465 826 1260 1480 1800
2020-12-16 14:30 4.80 1310 1820 (2012) 378 (2017) 937 383 430 465 826 1260 1480 1800
2020-12-16 13:30 4.84 1340 1820 (2012) 378 (2017) 937 383 430 465 826 1260 1480 1800
2020-12-16 12:30 4.85 1340 1820 (2012) 378 (2017) 937 383 430 465 826 1260 1480 1800
2020-12-16 11:30 4.86 1350 1820 (2012) 378 (2017) 937 383 430 465 826 1260 1480 1800
2020-12-16 10:30 4.86 1350 1820 (2012) 378 (2017) 937 383 430 465 826 1260 1480 1800
2020-12-16 09:30 4.86 1350 1820 (2012) 378 (2017) 937 383 430 465 826 1260 1480 1800
2020-12-16 08:30 4.86 1350 1820 (2012) 378 (2017) 937 383 430 465 826 1260 1480 1800
2020-12-16 07:30 4.86 1350 1820 (2012) 378 (2017) 937 383 430 465 826 1260 1480 1800
2020-12-16 06:30 4.86 1350 1820 (2012) 378 (2017) 937 383 430 465 826 1260 1480 1800
2020-12-16 05:30 4.86 1350 1820 (2012) 378 (2017) 937 383 430 465 826 1260 1480 1800
2020-12-16 04:30 4.86 1350 1820 (2012) 378 (2017) 937 383 430 465 826 1260 1480 1800
2020-12-16 03:30 4.86 1350 1820 (2012) 378 (2017) 937 383 430 465 826 1260 1480 1800
2020-12-16 02:30 4.86 1350 1820 (2012) 378 (2017) 937 383 430 465 826 1260 1480 1800
2020-12-16 01:30 4.86 1350 1820 (2012) 378 (2017) 937 383 430 465 826 1260 1480 1800
2020-12-16 00:30 4.86 1350 1820 (2012) 378 (2017) 937 383 430 465 826 1260 1480 1800
2020-12-15 23:30 4.86 1350 2130 (2012) 380 (2017) 988 389 439 461 916 1420 1700 2090
2020-12-15 22:30 4.85 1340 2130 (2012) 380 (2017) 988 389 439 461 916 1420 1700 2090
2020-12-15 21:30 4.85 1340 2130 (2012) 380 (2017) 988 389 439 461 916 1420 1700 2090
2020-12-15 20:30 4.85 1340 2130 (2012) 380 (2017) 988 389 439 461 916 1420 1700 2090
2020-12-15 19:30 4.85 1340 2130 (2012) 380 (2017) 988 389 439 461 916 1420 1700 2090
2020-12-15 18:30 4.85 1340 2130 (2012) 380 (2017) 988 389 439 461 916 1420 1700 2090
2020-12-15 17:30 4.85 1340 2130 (2012) 380 (2017) 988 389 439 461 916 1420 1700 2090
2020-12-15 16:30 4.85 1340 2130 (2012) 380 (2017) 988 389 439 461 916 1420 1700 2090
2020-12-15 15:30 4.84 1340 2130 (2012) 380 (2017) 988 389 439 461 916 1420 1700 2090
2020-12-15 14:30 4.84 1340 2130 (2012) 380 (2017) 988 389 439 461 916 1420 1700 2090
2020-12-15 13:30 4.84 1340 2130 (2012) 380 (2017) 988 389 439 461 916 1420 1700 2090
2020-12-15 12:30 4.84 1340 2130 (2012) 380 (2017) 988 389 439 461 916 1420 1700 2090
2020-12-15 11:30 4.83 1330 2130 (2012) 380 (2017) 988 389 439 461 916 1420 1700 2090
2020-12-15 10:30 4.83 1330 2130 (2012) 380 (2017) 988 389 439 461 916 1420 1700 2090
2020-12-15 09:30 4.83 1330 2130 (2012) 380 (2017) 988 389 439 461 916 1420 1700 2090
2020-12-15 08:30 4.82 1320 2130 (2012) 380 (2017) 988 389 439 461 916 1420 1700 2090
2020-12-15 07:30 4.82 1320 2130 (2012) 380 (2017) 988 389 439 461 916 1420 1700 2090
2020-12-15 06:30 4.81 1320 2130 (2012) 380 (2017) 988 389 439 461 916 1420 1700 2090
2020-12-15 05:30 4.81 1320 2130 (2012) 380 (2017) 988 389 439 461 916 1420 1700 2090
2020-12-15 04:30 4.80 1310 2130 (2012) 380 (2017) 988 389 439 461 916 1420 1700 2090
2020-12-15 03:30 4.79 1300 2130 (2012) 380 (2017) 988 389 439 461 916 1420 1700 2090
2020-12-15 02:30 4.78 1300 2130 (2012) 380 (2017) 988 389 439 461 916 1420 1700 2090
2020-12-15 01:30 4.77 1290 2130 (2012) 380 (2017) 988 389 439 461 916 1420 1700 2090
2020-12-15 00:30 4.75 1270 2130 (2012) 380 (2017) 988 389 439 461 916 1420 1700 2090
2020-12-14 23:30 4.73 1260 2290 (2016) 391 (2017) 861 397 415 425 659 1210 1300 2020
2020-12-14 22:30 4.70 1240 2290 (2016) 391 (2017) 861 397 415 425 659 1210 1300 2020
2020-12-14 21:30 4.67 1220 2290 (2016) 391 (2017) 861 397 415 425 659 1210 1300 2020
2020-12-14 20:30 4.63 1190 2290 (2016) 391 (2017) 861 397 415 425 659 1210 1300 2020
2020-12-14 19:30 4.58 1160 2290 (2016) 391 (2017) 861 397 415 425 659 1210 1300 2020
2020-12-14 18:30 4.51 1110 2290 (2016) 391 (2017) 861 397 415 425 659 1210 1300 2020
2020-12-14 17:30 4.42 1050 2290 (2016) 391 (2017) 861 397 415 425 659 1210 1300 2020
2020-12-14 16:30 4.31 979 2290 (2016) 391 (2017) 861 397 415 425 659 1210 1300 2020
2020-12-14 15:30 4.20 910 2290 (2016) 391 (2017) 861 397 415 425 659 1210 1300 2020
2020-12-14 14:30 4.12 861 2290 (2016) 391 (2017) 861 397 415 425 659 1210 1300 2020
2020-12-14 13:30 4.10 849 2290 (2016) 391 (2017) 861 397 415 425 659 1210 1300 2020
2020-12-14 12:30 4.09 843 2290 (2016) 391 (2017) 861 397 415 425 659 1210 1300 2020
2020-12-14 11:30 4.09 843 2290 (2016) 391 (2017) 861 397 415 425 659 1210 1300 2020
2020-12-14 10:30 4.10 849 2290 (2016) 391 (2017) 861 397 415 425 659 1210 1300 2020
2020-12-14 09:30 4.09 843 2290 (2016) 391 (2017) 861 397 415 425 659 1210 1300 2020
2020-12-14 08:30 4.09 843 2290 (2016) 391 (2017) 861 397 415 425 659 1210 1300 2020
2020-12-14 07:30 4.09 843 2290 (2016) 391 (2017) 861 397 415 425 659 1210 1300 2020
2020-12-14 06:30 4.09 843 2290 (2016) 391 (2017) 861 397 415 425 659 1210 1300 2020
2020-12-14 05:30 4.09 843 2290 (2016) 391 (2017) 861 397 415 425 659 1210 1300 2020
2020-12-14 04:30 4.09 843 2290 (2016) 391 (2017) 861 397 415 425 659 1210 1300 2020
2020-12-14 03:30 4.09 843 2290 (2016) 391 (2017) 861 397 415 425 659 1210 1300 2020
2020-12-14 02:30 4.09 843 2290 (2016) 391 (2017) 861 397 415 425 659 1210 1300 2020
2020-12-14 01:30 4.09 843 2290 (2016) 391 (2017) 861 397 415 425 659 1210 1300 2020
2020-12-14 00:30 4.08 837 2290 (2016) 391 (2017) 861 397 415 425 659 1210 1300 2020
2020-12-13 23:30 4.08 837 2270 (2016) 410 (2017) 894 412 431 442 670 1250 1360 2030
2020-12-13 22:30 4.08 837 2270 (2016) 410 (2017) 894 412 431 442 670 1250 1360 2030
2020-12-13 21:30 4.08 837 2270 (2016) 410 (2017) 894 412 431 442 670 1250 1360 2030
2020-12-13 20:30 4.07 831 2270 (2016) 410 (2017) 894 412 431 442 670 1250 1360 2030
2020-12-13 19:30 4.07 831 2270 (2016) 410 (2017) 894 412 431 442 670 1250 1360 2030
2020-12-13 18:30 4.07 831 2270 (2016) 410 (2017) 894 412 431 442 670 1250 1360 2030
2020-12-13 17:30 4.06 825 2270 (2016) 410 (2017) 894 412 431 442 670 1250 1360 2030
2020-12-13 16:30 4.06 825 2270 (2016) 410 (2017) 894 412 431 442 670 1250 1360 2030
2020-12-13 15:30 4.06 825 2270 (2016) 410 (2017) 894 412 431 442 670 1250 1360 2030
2020-12-13 14:30 4.06 825 2270 (2016) 410 (2017) 894 412 431 442 670 1250 1360 2030
2020-12-13 13:30 4.05 819 2270 (2016) 410 (2017) 894 412 431 442 670 1250 1360 2030
2020-12-13 12:30 4.05 819 2270 (2016) 410 (2017) 894 412 431 442 670 1250 1360 2030
2020-12-13 11:30 4.04 813 2270 (2016) 410 (2017) 894 412 431 442 670 1250 1360 2030
2020-12-13 10:30 4.05 819 2270 (2016) 410 (2017) 894 412 431 442 670 1250 1360 2030
2020-12-13 09:30 4.05 819 2270 (2016) 410 (2017) 894 412 431 442 670 1250 1360 2030
2020-12-13 08:30 4.05 819 2270 (2016) 410 (2017) 894 412 431 442 670 1250 1360 2030
2020-12-13 07:30 4.05 819 2270 (2016) 410 (2017) 894 412 431 442 670 1250 1360 2030
2020-12-13 06:30 4.05 819 2270 (2016) 410 (2017) 894 412 431 442 670 1250 1360 2030
2020-12-13 05:30 4.06 825 2270 (2016) 410 (2017) 894 412 431 442 670 1250 1360 2030
2020-12-13 04:30 4.06 825 2270 (2016) 410 (2017) 894 412 431 442 670 1250 1360 2030
2020-12-13 03:30 4.06 825 2270 (2016) 410 (2017) 894 412 431 442 670 1250 1360 2030
2020-12-13 02:30 4.07 831 2270 (2016) 410 (2017) 894 412 431 442 670 1250 1360 2030
2020-12-13 01:30 4.07 831 2270 (2016) 410 (2017) 894 412 431 442 670 1250 1360 2030
2020-12-13 00:30 4.08 837 2270 (2016) 410 (2017) 894 412 431 442 670 1250 1360 2030
2020-12-12 23:30 4.08 837 2320 (2016) 425 (2018) 993 431 451 459 657 1390 1710 2260
2020-12-12 22:30 4.08 837 2320 (2016) 425 (2018) 993 431 451 459 657 1390 1710 2260
2020-12-12 21:30 4.09 843 2320 (2016) 425 (2018) 993 431 451 459 657 1390 1710 2260
2020-12-12 20:30 4.09 843 2320 (2016) 425 (2018) 993 431 451 459 657 1390 1710 2260
2020-12-12 19:30 4.10 849 2320 (2016) 425 (2018) 993 431 451 459 657 1390 1710 2260
2020-12-12 18:30 4.10 849 2320 (2016) 425 (2018) 993 431 451 459 657 1390 1710 2260
2020-12-12 17:30 4.11 855 2320 (2016) 425 (2018) 993 431 451 459 657 1390 1710 2260
2020-12-12 16:30 4.12 861 2320 (2016) 425 (2018) 993 431 451 459 657 1390 1710 2260
2020-12-12 15:30 4.13 867 2320 (2016) 425 (2018) 993 431 451 459 657 1390 1710 2260
2020-12-12 14:30 4.13 867 2320 (2016) 425 (2018) 993 431 451 459 657 1390 1710 2260
2020-12-12 13:30 4.14 873 2320 (2016) 425 (2018) 993 431 451 459 657 1390 1710 2260
2020-12-12 12:30 4.15 879 2320 (2016) 425 (2018) 993 431 451 459 657 1390 1710 2260
2020-12-12 11:30 4.15 879 2320 (2016) 425 (2018) 993 431 451 459 657 1390 1710 2260
2020-12-12 10:30 4.15 879 2320 (2016) 425 (2018) 993 431 451 459 657 1390 1710 2260
2020-12-12 09:30 4.15 879 2320 (2016) 425 (2018) 993 431 451 459 657 1390 1710 2260
2020-12-12 08:30 4.15 879 2320 (2016) 425 (2018) 993 431 451 459 657 1390 1710 2260
2020-12-12 07:30 4.14 873 2320 (2016) 425 (2018) 993 431 451 459 657 1390 1710 2260
2020-12-12 06:30 4.14 873 2320 (2016) 425 (2018) 993 431 451 459 657 1390 1710 2260
2020-12-12 05:30 4.13 867 2320 (2016) 425 (2018) 993 431 451 459 657 1390 1710 2260
2020-12-12 04:30 4.11 855 2320 (2016) 425 (2018) 993 431 451 459 657 1390 1710 2260
2020-12-12 03:30 4.11 855 2320 (2016) 425 (2018) 993 431 451 459 657 1390 1710 2260
2020-12-12 02:30 4.10 849 2320 (2016) 425 (2018) 993 431 451 459 657 1390 1710 2260
2020-12-12 01:30 4.09 843 2320 (2016) 425 (2018) 993 431 451 459 657 1390 1710 2260
2020-12-12 00:30 4.08 837 2320 (2016) 425 (2018) 993 431 451 459 657 1390 1710 2260
2020-12-11 23:30 4.07 831 2560 (2016) 461 (2013) 1090 461 465 472 688 1670 1940 2480
2020-12-11 22:30 4.06 825 2560 (2016) 461 (2013) 1090 461 465 472 688 1670 1940 2480
2020-12-11 21:30 4.06 825 2560 (2016) 461 (2013) 1090 461 465 472 688 1670 1940 2480
2020-12-11 20:30 4.04 813 2560 (2016) 461 (2013) 1090 461 465 472 688 1670 1940 2480
2020-12-11 19:30 4.02 801 2560 (2016) 461 (2013) 1090 461 465 472 688 1670 1940 2480
2020-12-11 18:30 4.00 789 2560 (2016) 461 (2013) 1090 461 465 472 688 1670 1940 2480
2020-12-11 17:30 3.99 783 2560 (2016) 461 (2013) 1090 461 465 472 688 1670 1940 2480
2020-12-11 16:30 3.98 777 2560 (2016) 461 (2013) 1090 461 465 472 688 1670 1940 2480
2020-12-11 15:30 3.96 766 2560 (2016) 461 (2013) 1090 461 465 472 688 1670 1940 2480
2020-12-11 14:30 3.95 760 2560 (2016) 461 (2013) 1090 461 465 472 688 1670 1940 2480
2020-12-11 13:30 3.95 760 2560 (2016) 461 (2013) 1090 461 465 472 688 1670 1940 2480
2020-12-11 12:30 3.96 766 2560 (2016) 461 (2013) 1090 461 465 472 688 1670 1940 2480
2020-12-11 11:30 3.96 766 2560 (2016) 461 (2013) 1090 461 465 472 688 1670 1940 2480
2020-12-11 10:30 3.96 766 2560 (2016) 461 (2013) 1090 461 465 472 688 1670 1940 2480
2020-12-11 09:30 3.96 766 2560 (2016) 461 (2013) 1090 461 465 472 688 1670 1940 2480
2020-12-11 08:30 3.96 766 2560 (2016) 461 (2013) 1090 461 465 472 688 1670 1940 2480
2020-12-11 07:30 3.96 766 2560 (2016) 461 (2013) 1090 461 465 472 688 1670 1940 2480
2020-12-11 06:30 3.97 772 2560 (2016) 461 (2013) 1090 461 465 472 688 1670 1940 2480
2020-12-11 05:30 3.97 772 2560 (2016) 461 (2013) 1090 461 465 472 688 1670 1940 2480
2020-12-11 04:30 3.98 777 2560 (2016) 461 (2013) 1090 461 465 472 688 1670 1940 2480
2020-12-11 03:30 3.98 777 2560 (2016) 461 (2013) 1090 461 465 472 688 1670 1940 2480
2020-12-11 02:30 3.99 783 2560 (2016) 461 (2013) 1090 461 465 472 688 1670 1940 2480
2020-12-11 01:30 4.00 789 2560 (2016) 461 (2013) 1090 461 465 472 688 1670 1940 2480
2020-12-11 00:30 4.01 795 2560 (2016) 461 (2013) 1090 461 465 472 688 1670 1940 2480
2020-12-10 23:30 4.03 807 3040 (2016) 463 (2013) 1240 464 479 488 737 2110 2390 2890
2020-12-10 22:30 4.04 813 3040 (2016) 463 (2013) 1240 464 479 488 737 2110 2390 2890
2020-12-10 21:30 4.06 825 3040 (2016) 463 (2013) 1240 464 479 488 737 2110 2390 2890
2020-12-10 20:30 4.08 837 3040 (2016) 463 (2013) 1240 464 479 488 737 2110 2390 2890
2020-12-10 19:30 4.10 849 3040 (2016) 463 (2013) 1240 464 479 488 737 2110 2390 2890
2020-12-10 18:30 4.13 867 3040 (2016) 463 (2013) 1240 464 479 488 737 2110 2390 2890
2020-12-10 17:30 4.17 891 3040 (2016) 463 (2013) 1240 464 479 488 737 2110 2390 2890
2020-12-10 16:30 4.20 910 3040 (2016) 463 (2013) 1240 464 479 488 737 2110 2390 2890
2020-12-10 15:30 4.24 935 3040 (2016) 463 (2013) 1240 464 479 488 737 2110 2390 2890
2020-12-10 14:30 4.26 948 3040 (2016) 463 (2013) 1240 464 479 488 737 2110 2390 2890
2020-12-10 13:30 4.27 954 3040 (2016) 463 (2013) 1240 464 479 488 737 2110 2390 2890
2020-12-10 12:30 4.27 954 3040 (2016) 463 (2013) 1240 464 479 488 737 2110 2390 2890
2020-12-10 11:30 4.27 954 3040 (2016) 463 (2013) 1240 464 479 488 737 2110 2390 2890
2020-12-10 10:30 4.27 954 3040 (2016) 463 (2013) 1240 464 479 488 737 2110 2390 2890
2020-12-10 09:30 4.27 954 3040 (2016) 463 (2013) 1240 464 479 488 737 2110 2390 2890
2020-12-10 08:30 4.27 954 3040 (2016) 463 (2013) 1240 464 479 488 737 2110 2390 2890
2020-12-10 07:30 4.27 954 3040 (2016) 463 (2013) 1240 464 479 488 737 2110 2390 2890
2020-12-10 06:30 4.27 954 3040 (2016) 463 (2013) 1240 464 479 488 737 2110 2390 2890
2020-12-10 05:30 4.28 960 3040 (2016) 463 (2013) 1240 464 479 488 737 2110 2390 2890
2020-12-10 04:30 4.28 960 3040 (2016) 463 (2013) 1240 464 479 488 737 2110 2390 2890
2020-12-10 03:30 4.28 960 3040 (2016) 463 (2013) 1240 464 479 488 737 2110 2390 2890
2020-12-10 02:30 4.29 967 3040 (2016) 463 (2013) 1240 464 479 488 737 2110 2390 2890
2020-12-10 01:30 4.29 967 3040 (2016) 463 (2013) 1240 464 479 488 737 2110 2390 2890
2020-12-10 00:30 4.30 973 3040 (2016) 463 (2013) 1240 464 479 488 737 2110 2390 2890
2020-12-09 23:30 4.31 979 3440 (2016) 420 (2009) 1320 431 466 482 735 1940 2390 3320
2020-12-09 22:30 4.32 986 3440 (2016) 420 (2009) 1320 431 466 482 735 1940 2390 3320
2020-12-09 21:30 4.33 992 3440 (2016) 420 (2009) 1320 431 466 482 735 1940 2390 3320
2020-12-09 20:30 4.34 999 3440 (2016) 420 (2009) 1320 431 466 482 735 1940 2390 3320
2020-12-09 19:30 4.35 1010 3440 (2016) 420 (2009) 1320 431 466 482 735 1940 2390 3320
2020-12-09 18:30 4.37 1020 3440 (2016) 420 (2009) 1320 431 466 482 735 1940 2390 3320
2020-12-09 17:30 4.38 1020 3440 (2016) 420 (2009) 1320 431 466 482 735 1940 2390 3320
2020-12-09 16:30 4.40 1040 3440 (2016) 420 (2009) 1320 431 466 482 735 1940 2390 3320
2020-12-09 15:30 4.42 1050 3440 (2016) 420 (2009) 1320 431 466 482 735 1940 2390 3320
2020-12-09 14:30 4.44 1060 3440 (2016) 420 (2009) 1320 431 466 482 735 1940 2390 3320
2020-12-09 13:30 4.44 1060 3440 (2016) 420 (2009) 1320 431 466 482 735 1940 2390 3320
2020-12-09 12:30 4.44 1060 3440 (2016) 420 (2009) 1320 431 466 482 735 1940 2390 3320
2020-12-09 11:30 4.44 1060 3440 (2016) 420 (2009) 1320 431 466 482 735 1940 2390 3320
2020-12-09 10:30 4.44 1060 3440 (2016) 420 (2009) 1320 431 466 482 735 1940 2390 3320
2020-12-09 09:30 4.44 1060 3440 (2016) 420 (2009) 1320 431 466 482 735 1940 2390 3320
2020-12-09 08:30 4.43 1060 3440 (2016) 420 (2009) 1320 431 466 482 735 1940 2390 3320
2020-12-09 07:30 4.43 1060 3440 (2016) 420 (2009) 1320 431 466 482 735 1940 2390 3320
2020-12-09 06:30 4.43 1060 3440 (2016) 420 (2009) 1320 431 466 482 735 1940 2390 3320
2020-12-09 05:30 4.44 1060 3440 (2016) 420 (2009) 1320 431 466 482 735 1940 2390 3320
2020-12-09 04:30 4.44 1060 3440 (2016) 420 (2009) 1320 431 466 482 735 1940 2390 3320
2020-12-09 03:30 4.44 1060 3440 (2016) 420 (2009) 1320 431 466 482 735 1940 2390 3320
2020-12-09 02:30 4.44 1060 3440 (2016) 420 (2009) 1320 431 466 482 735 1940 2390 3320
2020-12-09 01:30 4.44 1060 3440 (2016) 420 (2009) 1320 431 466 482 735 1940 2390 3320
2020-12-09 00:30 4.44 1060 3440 (2016) 420 (2009) 1320 431 466 482 735 1940 2390 3320
2020-12-08 23:30 4.44 1060 3590 (2016) 387 (2009) 1330 405 480 524 775 2240 2730 3470
2020-12-08 22:30 4.44 1060 3590 (2016) 387 (2009) 1330 405 480 524 775 2240 2730 3470
2020-12-08 21:30 4.44 1060 3590 (2016) 387 (2009) 1330 405 480 524 775 2240 2730 3470
2020-12-08 20:30 4.44 1060 3590 (2016) 387 (2009) 1330 405 480 524 775 2240 2730 3470
2020-12-08 19:30 4.44 1060 3590 (2016) 387 (2009) 1330 405 480 524 775 2240 2730 3470
2020-12-08 18:30 4.45 1070 3590 (2016) 387 (2009) 1330 405 480 524 775 2240 2730 3470
2020-12-08 17:30 4.45 1070 3590 (2016) 387 (2009) 1330 405 480 524 775 2240 2730 3470
2020-12-08 16:30 4.45 1070 3590 (2016) 387 (2009) 1330 405 480 524 775 2240 2730 3470
2020-12-08 15:30 4.45 1070 3590 (2016) 387 (2009) 1330 405 480 524 775 2240 2730 3470
2020-12-08 14:30 4.45 1070 3590 (2016) 387 (2009) 1330 405 480 524 775 2240 2730 3470
2020-12-08 13:30 4.45 1070 3590 (2016) 387 (2009) 1330 405 480 524 775 2240 2730 3470
2020-12-08 12:30 4.45 1070 3590 (2016) 387 (2009) 1330 405 480 524 775 2240 2730 3470
2020-12-08 11:30 4.45 1070 3590 (2016) 387 (2009) 1330 405 480 524 775 2240 2730 3470
2020-12-08 10:30 4.45 1070 3590 (2016) 387 (2009) 1330 405 480 524 775 2240 2730 3470
2020-12-08 09:30 4.45 1070 3590 (2016) 387 (2009) 1330 405 480 524 775 2240 2730 3470
2020-12-08 08:30 4.45 1070 3590 (2016) 387 (2009) 1330 405 480 524 775 2240 2730 3470
2020-12-08 07:30 4.45 1070 3590 (2016) 387 (2009) 1330 405 480 524 775 2240 2730 3470
2020-12-08 06:30 4.44 1060 3590 (2016) 387 (2009) 1330 405 480 524 775 2240 2730 3470
2020-12-08 05:30 4.45 1070 3590 (2016) 387 (2009) 1330 405 480 524 775 2240 2730 3470
2020-12-08 04:30 4.44 1060 3590 (2016) 387 (2009) 1330 405 480 524 775 2240 2730 3470
2020-12-08 03:30 4.44 1060 3590 (2016) 387 (2009) 1330 405 480 524 775 2240 2730 3470
2020-12-08 02:30 4.44 1060 3590 (2016) 387 (2009) 1330 405 480 524 775 2240 2730 3470
2020-12-08 01:30 4.44 1060 3590 (2016) 387 (2009) 1330 405 480 524 775 2240 2730 3470
2020-12-08 00:30 4.44 1060 3590 (2016) 387 (2009) 1330 405 480 524 775 2240 2730 3470
2020-12-07 23:30 4.43 1060 3680 (2016) 399 (2009) 1410 422 494 539 785 2720 3190 3550
2020-12-07 22:30 4.43 1060 3680 (2016) 399 (2009) 1410 422 494 539 785 2720 3190 3550
2020-12-07 21:30 4.42 1050 3680 (2016) 399 (2009) 1410 422 494 539 785 2720 3190 3550
2020-12-07 20:30 4.41 1040 3680 (2016) 399 (2009) 1410 422 494 539 785 2720 3190 3550
2020-12-07 19:30 4.40 1040 3680 (2016) 399 (2009) 1410 422 494 539 785 2720 3190 3550
2020-12-07 18:30 4.38 1020 3680 (2016) 399 (2009) 1410 422 494 539 785 2720 3190 3550
2020-12-07 17:30 4.36 1010 3680 (2016) 399 (2009) 1410 422 494 539 785 2720 3190 3550
2020-12-07 16:30 4.33 992 3680 (2016) 399 (2009) 1410 422 494 539 785 2720 3190 3550
2020-12-07 15:30 4.31 979 3680 (2016) 399 (2009) 1410 422 494 539 785 2720 3190 3550
2020-12-07 14:30 4.29 967 3680 (2016) 399 (2009) 1410 422 494 539 785 2720 3190 3550
2020-12-07 13:30 4.28 960 3680 (2016) 399 (2009) 1410 422 494 539 785 2720 3190 3550
2020-12-07 12:30 4.28 960 3680 (2016) 399 (2009) 1410 422 494 539 785 2720 3190 3550
2020-12-07 11:30 4.28 960 3680 (2016) 399 (2009) 1410 422 494 539 785 2720 3190 3550
2020-12-07 10:30 4.28 960 3680 (2016) 399 (2009) 1410 422 494 539 785 2720 3190 3550
2020-12-07 09:30 4.28 960 3680 (2016) 399 (2009) 1410 422 494 539 785 2720 3190 3550
2020-12-07 08:30 4.28 960 3680 (2016) 399 (2009) 1410 422 494 539 785 2720 3190 3550
2020-12-07 07:30 4.28 960 3680 (2016) 399 (2009) 1410 422 494 539 785 2720 3190 3550
2020-12-07 06:30 4.28 960 3680 (2016) 399 (2009) 1410 422 494 539 785 2720 3190 3550
2020-12-07 05:30 4.29 967 3680 (2016) 399 (2009) 1410 422 494 539 785 2720 3190 3550
2020-12-07 04:30 4.29 967 3680 (2016) 399 (2009) 1410 422 494 539 785 2720 3190 3550
2020-12-07 03:30 4.29 967 3680 (2016) 399 (2009) 1410 422 494 539 785 2720 3190 3550
2020-12-07 02:30 4.29 967 3680 (2016) 399 (2009) 1410 422 494 539 785 2720 3190 3550
2020-12-07 01:30 4.29 967 3680 (2016) 399 (2009) 1410 422 494 539 785 2720 3190 3550
2020-12-07 00:30 4.29 967 3680 (2016) 399 (2009) 1410 422 494 539 785 2720 3190 3550
2020-12-06 23:30 4.30 973 3760 (2016) 402 (2009) 1560 424 491 550 895 3100 3450 3690
2020-12-06 22:30 4.30 973 3760 (2016) 402 (2009) 1560 424 491 550 895 3100 3450 3690
2020-12-06 21:30 4.30 973 3760 (2016) 402 (2009) 1560 424 491 550 895 3100 3450 3690
2020-12-06 20:30 4.30 973 3760 (2016) 402 (2009) 1560 424 491 550 895 3100 3450 3690
2020-12-06 19:30 4.30 973 3760 (2016) 402 (2009) 1560 424 491 550 895 3100 3450 3690
2020-12-06 18:30 4.31 979 3760 (2016) 402 (2009) 1560 424 491 550 895 3100 3450 3690
2020-12-06 17:30 4.31 979 3760 (2016) 402 (2009) 1560 424 491 550 895 3100 3450 3690
2020-12-06 16:30 4.31 979 3760 (2016) 402 (2009) 1560 424 491 550 895 3100 3450 3690
2020-12-06 15:30 4.31 979 3760 (2016) 402 (2009) 1560 424 491 550 895 3100 3450 3690
2020-12-06 14:30 4.31 979 3760 (2016) 402 (2009) 1560 424 491 550 895 3100 3450 3690
2020-12-06 13:30 4.31 979 3760 (2016) 402 (2009) 1560 424 491 550 895 3100 3450 3690
2020-12-06 12:30 4.32 986 3760 (2016) 402 (2009) 1560 424 491 550 895 3100 3450 3690
2020-12-06 11:30 4.32 986 3760 (2016) 402 (2009) 1560 424 491 550 895 3100 3450 3690
2020-12-06 10:30 4.32 986 3760 (2016) 402 (2009) 1560 424 491 550 895 3100 3450 3690
2020-12-06 09:30 4.32 986 3760 (2016) 402 (2009) 1560 424 491 550 895 3100 3450 3690
2020-12-06 08:30 4.32 986 3760 (2016) 402 (2009) 1560 424 491 550 895 3100 3450 3690
2020-12-06 07:30 4.32 986 3760 (2016) 402 (2009) 1560 424 491 550 895 3100 3450 3690
2020-12-06 06:30 4.32 986 3760 (2016) 402 (2009) 1560 424 491 550 895 3100 3450 3690
2020-12-06 05:30 4.32 986 3760 (2016) 402 (2009) 1560 424 491 550 895 3100 3450 3690
2020-12-06 04:30 4.33 992 3760 (2016) 402 (2009) 1560 424 491 550 895 3100 3450 3690
2020-12-06 03:30 4.33 992 3760 (2016) 402 (2009) 1560 424 491 550 895 3100 3450 3690
2020-12-06 02:30 4.33 992 3760 (2016) 402 (2009) 1560 424 491 550 895 3100 3450 3690
2020-12-06 01:30 4.33 992 3760 (2016) 402 (2009) 1560 424 491 550 895 3100 3450 3690
2020-12-06 00:30 4.34 999 3760 (2016) 402 (2009) 1560 424 491 550 895 3100 3450 3690
2020-12-05 23:30 4.34 999 3840 (2016) 409 (2009) 1660 423 469 494 931 3430 3550 3780
2020-12-05 22:30 4.34 999 3840 (2016) 409 (2009) 1660 423 469 494 931 3430 3550 3780
2020-12-05 21:30 4.34 999 3840 (2016) 409 (2009) 1660 423 469 494 931 3430 3550 3780
2020-12-05 20:30 4.35 1010 3840 (2016) 409 (2009) 1660 423 469 494 931 3430 3550 3780
2020-12-05 19:30 4.35 1010 3840 (2016) 409 (2009) 1660 423 469 494 931 3430 3550 3780
2020-12-05 18:30 4.36 1010 3840 (2016) 409 (2009) 1660 423 469 494 931 3430 3550 3780
2020-12-05 17:30 4.36 1010 3840 (2016) 409 (2009) 1660 423 469 494 931 3430 3550 3780
2020-12-05 16:30 4.37 1020 3840 (2016) 409 (2009) 1660 423 469 494 931 3430 3550 3780
2020-12-05 15:30 4.37 1020 3840 (2016) 409 (2009) 1660 423 469 494 931 3430 3550 3780
2020-12-05 14:30 4.37 1020 3840 (2016) 409 (2009) 1660 423 469 494 931 3430 3550 3780
2020-12-05 13:30 4.38 1020 3840 (2016) 409 (2009) 1660 423 469 494 931 3430 3550 3780
2020-12-05 12:30 4.38 1020 3840 (2016) 409 (2009) 1660 423 469 494 931 3430 3550 3780
2020-12-05 11:30 4.38 1020 3840 (2016) 409 (2009) 1660 423 469 494 931 3430 3550 3780
2020-12-05 10:30 4.38 1020 3840 (2016) 409 (2009) 1660 423 469 494 931 3430 3550 3780
2020-12-05 09:30 4.38 1020 3840 (2016) 409 (2009) 1660 423 469 494 931 3430 3550 3780
2020-12-05 08:30 4.39 1030 3840 (2016) 409 (2009) 1660 423 469 494 931 3430 3550 3780
2020-12-05 07:30 4.39 1030 3840 (2016) 409 (2009) 1660 423 469 494 931 3430 3550 3780
2020-12-05 06:30 4.40 1040 3840 (2016) 409 (2009) 1660 423 469 494 931 3430 3550 3780
2020-12-05 05:30 4.40 1040 3840 (2016) 409 (2009) 1660 423 469 494 931 3430 3550 3780
2020-12-05 04:30 4.41 1040 3840 (2016) 409 (2009) 1660 423 469 494 931 3430 3550 3780
2020-12-05 03:30 4.42 1050 3840 (2016) 409 (2009) 1660 423 469 494 931 3430 3550 3780
2020-12-05 02:30 4.43 1060 3840 (2016) 409 (2009) 1660 423 469 494 931 3430 3550 3780
2020-12-05 01:30 4.44 1060 3840 (2016) 409 (2009) 1660 423 469 494 931 3430 3550 3780
2020-12-05 00:30 4.45 1070 3840 (2016) 409 (2009) 1660 423 469 494 931 3430 3550 3780
2020-12-04 23:30 4.46 1080 3810 (2016) 408 (2018) 1480 417 462 491 956 2910 3550 3780
2020-12-04 22:30 4.48 1090 3810 (2016) 408 (2018) 1480 417 462 491 956 2910 3550 3780
2020-12-04 21:30 4.50 1100 3810 (2016) 408 (2018) 1480 417 462 491 956 2910 3550 3780
2020-12-04 20:30 4.52 1120 3810 (2016) 408 (2018) 1480 417 462 491 956 2910 3550 3780
2020-12-04 19:30 4.55 1140 3810 (2016) 408 (2018) 1480 417 462 491 956 2910 3550 3780
2020-12-04 18:30 4.59 1160 3810 (2016) 408 (2018) 1480 417 462 491 956 2910 3550 3780
2020-12-04 17:30 4.63 1190 3810 (2016) 408 (2018) 1480 417 462 491 956 2910 3550 3780
2020-12-04 16:30 4.67 1220 3810 (2016) 408 (2018) 1480 417 462 491 956 2910 3550 3780
2020-12-04 15:30 4.71 1250 3810 (2016) 408 (2018) 1480 417 462 491 956 2910 3550 3780
2020-12-04 14:30 4.75 1270 3810 (2016) 408 (2018) 1480 417 462 491 956 2910 3550 3780
2020-12-04 13:30 4.77 1290 3810 (2016) 408 (2018) 1480 417 462 491 956 2910 3550 3780
2020-12-04 12:30 4.78 1300 3810 (2016) 408 (2018) 1480 417 462 491 956 2910 3550 3780
2020-12-04 11:30 4.78 1300 3810 (2016) 408 (2018) 1480 417 462 491 956 2910 3550 3780
2020-12-04 10:30 4.78 1300 3810 (2016) 408 (2018) 1480 417 462 491 956 2910 3550 3780
2020-12-04 09:30 4.78 1300 3810 (2016) 408 (2018) 1480 417 462 491 956 2910 3550 3780
2020-12-04 08:30 4.78 1300 3810 (2016) 408 (2018) 1480 417 462 491 956 2910 3550 3780
2020-12-04 07:30 4.78 1300 3810 (2016) 408 (2018) 1480 417 462 491 956 2910 3550 3780
2020-12-04 06:30 4.79 1300 3810 (2016) 408 (2018) 1480 417 462 491 956 2910 3550 3780
2020-12-04 05:30 4.79 1300 3810 (2016) 408 (2018) 1480 417 462 491 956 2910 3550 3780
2020-12-04 04:30 4.80 1310 3810 (2016) 408 (2018) 1480 417 462 491 956 2910 3550 3780
2020-12-04 03:30 4.80 1310 3810 (2016) 408 (2018) 1480 417 462 491 956 2910 3550 3780
2020-12-04 02:30 4.80 1310 3810 (2016) 408 (2018) 1480 417 462 491 956 2910 3550 3780
2020-12-04 01:30 4.80 1310 3810 (2016) 408 (2018) 1480 417 462 491 956 2910 3550 3780
2020-12-04 00:30 4.81 1320 3810 (2016) 408 (2018) 1480 417 462 491 956 2910 3550 3780
2020-12-03 23:30 4.81 1320 3700 (2016) 407 (2018) 1450 415 441 472 872 2950 3540 3660
2020-12-03 22:30 4.82 1320 3700 (2016) 407 (2018) 1450 415 441 472 872 2950 3540 3660
2020-12-03 21:30 4.82 1320 3700 (2016) 407 (2018) 1450 415 441 472 872 2950 3540 3660
2020-12-03 20:30 4.82 1320 3700 (2016) 407 (2018) 1450 415 441 472 872 2950 3540 3660
2020-12-03 19:30 4.83 1330 3700 (2016) 407 (2018) 1450 415 441 472 872 2950 3540 3660
2020-12-03 18:30 4.83 1330 3700 (2016) 407 (2018) 1450 415 441 472 872 2950 3540 3660
2020-12-03 17:30 4.84 1340 3700 (2016) 407 (2018) 1450 415 441 472 872 2950 3540 3660
2020-12-03 16:30 4.84 1340 3700 (2016) 407 (2018) 1450 415 441 472 872 2950 3540 3660
2020-12-03 15:30 4.85 1340 3700 (2016) 407 (2018) 1450 415 441 472 872 2950 3540 3660
2020-12-03 14:30 4.85 1340 3700 (2016) 407 (2018) 1450 415 441 472 872 2950 3540 3660
2020-12-03 13:30 4.85 1340 3700 (2016) 407 (2018) 1450 415 441 472 872 2950 3540 3660
2020-12-03 12:30 4.86 1350 3700 (2016) 407 (2018) 1450 415 441 472 872 2950 3540 3660
2020-12-03 11:30 4.86 1350 3700 (2016) 407 (2018) 1450 415 441 472 872 2950 3540 3660
2020-12-03 10:30 4.87 1360 3700 (2016) 407 (2018) 1450 415 441 472 872 2950 3540 3660
2020-12-03 09:30 4.88 1370 3700 (2016) 407 (2018) 1450 415 441 472 872 2950 3540 3660
2020-12-03 08:30 4.89 1370 3700 (2016) 407 (2018) 1450 415 441 472 872 2950 3540 3660
2020-12-03 07:30 4.90 1380 3700 (2016) 407 (2018) 1450 415 441 472 872 2950 3540 3660
2020-12-03 06:30 4.90 1380 3700 (2016) 407 (2018) 1450 415 441 472 872 2950 3540 3660
2020-12-03 05:30 4.91 1390 3700 (2016) 407 (2018) 1450 415 441 472 872 2950 3540 3660
2020-12-03 04:30 4.92 1400 3700 (2016) 407 (2018) 1450 415 441 472 872 2950 3540 3660
2020-12-03 03:30 4.93 1400 3700 (2016) 407 (2018) 1450 415 441 472 872 2950 3540 3660
2020-12-03 02:30 4.95 1420 3700 (2016) 407 (2018) 1450 415 441 472 872 2950 3540 3660
2020-12-03 01:30 4.96 1420 3700 (2016) 407 (2018) 1450 415 441 472 872 2950 3540 3660
2020-12-03 00:30 4.98 1440 3700 (2016) 407 (2018) 1450 415 441 472 872 2950 3540 3660
2020-12-02 23:30 5.00 1450 3580 (2010) 400 (2018) 1270 408 440 494 1010 1270 2060 3480
2020-12-02 22:30 5.03 1480 3580 (2010) 400 (2018) 1270 408 440 494 1010 1270 2060 3480
2020-12-02 21:30 5.06 1500 3580 (2010) 400 (2018) 1270 408 440 494 1010 1270 2060 3480
2020-12-02 20:30 5.10 1530 3580 (2010) 400 (2018) 1270 408 440 494 1010 1270 2060 3480
2020-12-02 19:30 5.15 1560 3580 (2010) 400 (2018) 1270 408 440 494 1010 1270 2060 3480
2020-12-02 18:30 5.20 1600 3580 (2010) 400 (2018) 1270 408 440 494 1010 1270 2060 3480
2020-12-02 17:30 5.27 1650 3580 (2010) 400 (2018) 1270 408 440 494 1010 1270 2060 3480
2020-12-02 16:30 5.36 1720 3580 (2010) 400 (2018) 1270 408 440 494 1010 1270 2060 3480
2020-12-02 15:30 5.45 1790 3580 (2010) 400 (2018) 1270 408 440 494 1010 1270 2060 3480
2020-12-02 14:30 5.54 1860 3580 (2010) 400 (2018) 1270 408 440 494 1010 1270 2060 3480
2020-12-02 13:30 5.60 1900 3580 (2010) 400 (2018) 1270 408 440 494 1010 1270 2060 3480
2020-12-02 12:30 5.63 1930 3580 (2010) 400 (2018) 1270 408 440 494 1010 1270 2060 3480
2020-12-02 11:30 5.64 1930 3580 (2010) 400 (2018) 1270 408 440 494 1010 1270 2060 3480
2020-12-02 10:30 5.64 1930 3580 (2010) 400 (2018) 1270 408 440 494 1010 1270 2060 3480
2020-12-02 09:30 5.65 1940 3580 (2010) 400 (2018) 1270 408 440 494 1010 1270 2060 3480
2020-12-02 08:30 5.66 1950 3580 (2010) 400 (2018) 1270 408 440 494 1010 1270 2060 3480
2020-12-02 07:30 5.67 1960 3580 (2010) 400 (2018) 1270 408 440 494 1010 1270 2060 3480
2020-12-02 06:30 5.67 1960 3580 (2010) 400 (2018) 1270 408 440 494 1010 1270 2060 3480
2020-12-02 05:30 5.69 1970 3580 (2010) 400 (2018) 1270 408 440 494 1010 1270 2060 3480
2020-12-02 04:30 5.69 1970 3580 (2010) 400 (2018) 1270 408 440 494 1010 1270 2060 3480
2020-12-02 03:30 5.71 1990 3580 (2010) 400 (2018) 1270 408 440 494 1010 1270 2060 3480
2020-12-02 02:30 5.72 2000 3580 (2010) 400 (2018) 1270 408 440 494 1010 1270 2060 3480
2020-12-02 01:30 5.74 2010 3580 (2010) 400 (2018) 1270 408 440 494 1010 1270 2060 3480
2020-12-02 00:30 5.77 2040 3580 (2010) 400 (2018) 1270 408 440 494 1010 1270 2060 3480
2020-12-01 23:30 5.79 2050 3600 (2010) 353 (2018) 1240 366 436 513 1200 1290 1750 3250
2020-12-01 22:30 5.82 2080 3600 (2010) 353 (2018) 1240 366 436 513 1200 1290 1750 3250
2020-12-01 21:30 5.86 2110 3600 (2010) 353 (2018) 1240 366 436 513 1200 1290 1750 3250
2020-12-01 20:30 5.91 2150 3600 (2010) 353 (2018) 1240 366 436 513 1200 1290 1750 3250
2020-12-01 19:30 5.98 2210 3600 (2010) 353 (2018) 1240 366 436 513 1200 1290 1750 3250
2020-12-01 18:30 6.06 2280 3600 (2010) 353 (2018) 1240 366 436 513 1200 1290 1750 3250
2020-12-01 17:30 6.16 2360 3600 (2010) 353 (2018) 1240 366 436 513 1200 1290 1750 3250
2020-12-01 16:30 6.29 2470 3600 (2010) 353 (2018) 1240 366 436 513 1200 1290 1750 3250
2020-12-01 15:30 6.41 2580 3600 (2010) 353 (2018) 1240 366 436 513 1200 1290 1750 3250
2020-12-01 14:30 6.51 2670 3600 (2010) 353 (2018) 1240 366 436 513 1200 1290 1750 3250
2020-12-01 13:30 6.58 2730 3600 (2010) 353 (2018) 1240 366 436 513 1200 1290 1750 3250
2020-12-01 12:30 6.60 2750 3600 (2010) 353 (2018) 1240 366 436 513 1200 1290 1750 3250
2020-12-01 11:30 6.61 2760 3600 (2010) 353 (2018) 1240 366 436 513 1200 1290 1750 3250
2020-12-01 10:30 6.62 2770 3600 (2010) 353 (2018) 1240 366 436 513 1200 1290 1750 3250
2020-12-01 09:30 6.62 2770 3600 (2010) 353 (2018) 1240 366 436 513 1200 1290 1750 3250
2020-12-01 08:30 6.63 2780 3600 (2010) 353 (2018) 1240 366 436 513 1200 1290 1750 3250
2020-12-01 07:30 6.63 2780 3600 (2010) 353 (2018) 1240 366 436 513 1200 1290 1750 3250
2020-12-01 06:30 6.64 2790 3600 (2010) 353 (2018) 1240 366 436 513 1200 1290 1750 3250
2020-12-01 05:30 6.64 2790 3600 (2010) 353 (2018) 1240 366 436 513 1200 1290 1750 3250
2020-12-01 04:30 6.65 2790 3600 (2010) 353 (2018) 1240 366 436 513 1200 1290 1750 3250
2020-12-01 03:30 6.66 2800 3600 (2010) 353 (2018) 1240 366 436 513 1200 1290 1750 3250
2020-12-01 02:30 6.67 2810 3600 (2010) 353 (2018) 1240 366 436 513 1200 1290 1750 3250
2020-12-01 01:30 6.68 2820 3600 (2010) 353 (2018) 1240 366 436 513 1200 1290 1750 3250
2020-12-01 00:30 6.69 2830 3600 (2010) 353 (2018) 1240 366 436 513 1200 1290 1750 3250
2020-11-30 23:30 6.71 2850 3520 (2010) 350 (2018) 1290 364 437 486 1260 1780 2000 3120
2020-11-30 22:30 6.73 2870 3520 (2010) 350 (2018) 1290 364 437 486 1260 1780 2000 3120
2020-11-30 21:30 6.75 2880 3520 (2010) 350 (2018) 1290 364 437 486 1260 1780 2000 3120
2020-11-30 20:30 6.78 2910 3520 (2010) 350 (2018) 1290 364 437 486 1260 1780 2000 3120
2020-11-30 19:30 6.82 2940 3520 (2010) 350 (2018) 1290 364 437 486 1260 1780 2000 3120
2020-11-30 18:30 6.87 2990 3520 (2010) 350 (2018) 1290 364 437 486 1260 1780 2000 3120
2020-11-30 17:30 6.94 3040 3520 (2010) 350 (2018) 1290 364 437 486 1260 1780 2000 3120
2020-11-30 16:30 7.00 3100 3520 (2010) 350 (2018) 1290 364 437 486 1260 1780 2000 3120
2020-11-30 15:30 7.07 3150 3520 (2010) 350 (2018) 1290 364 437 486 1260 1780 2000 3120
2020-11-30 14:30 7.12 3200 3520 (2010) 350 (2018) 1290 364 437 486 1260 1780 2000 3120
2020-11-30 13:30 7.15 3220 3520 (2010) 350 (2018) 1290 364 437 486 1260 1780 2000 3120
2020-11-30 12:30 7.17 3240 3520 (2010) 350 (2018) 1290 364 437 486 1260 1780 2000 3120
2020-11-30 11:30 7.17 3240 3520 (2010) 350 (2018) 1290 364 437 486 1260 1780 2000 3120
2020-11-30 10:30 7.17 3240 3520 (2010) 350 (2018) 1290 364 437 486 1260 1780 2000 3120
2020-11-30 09:30 7.19 3260 3520 (2010) 350 (2018) 1290 364 437 486 1260 1780 2000 3120
2020-11-30 08:30 7.18 3250 3520 (2010) 350 (2018) 1290 364 437 486 1260 1780 2000 3120
2020-11-30 07:30 7.19 3260 3520 (2010) 350 (2018) 1290 364 437 486 1260 1780 2000 3120
2020-11-30 06:30 7.19 3260 3520 (2010) 350 (2018) 1290 364 437 486 1260 1780 2000 3120
2020-11-30 05:30 7.20 3270 3520 (2010) 350 (2018) 1290 364 437 486 1260 1780 2000 3120
2020-11-30 04:30 7.21 3280 3520 (2010) 350 (2018) 1290 364 437 486 1260 1780 2000 3120
2020-11-30 03:30 7.22 3280 3520 (2010) 350 (2018) 1290 364 437 486 1260 1780 2000 3120
2020-11-30 02:30 7.22 3280 3520 (2010) 350 (2018) 1290 364 437 486 1260 1780 2000 3120
2020-11-30 01:30 7.23 3290 3520 (2010) 350 (2018) 1290 364 437 486 1260 1780 2000 3120
2020-11-30 00:30 7.23 3290 3520 (2010) 350 (2018) 1290 364 437 486 1260 1780 2000 3120
2020-11-29 23:30 7.23 3290 3540 (2010) 356 (2018) 1230 369 482 543 1100 1510 1880 3180
2020-11-29 22:30 7.24 3300 3540 (2010) 356 (2018) 1230 369 482 543 1100 1510 1880 3180
2020-11-29 21:30 7.25 3310 3540 (2010) 356 (2018) 1230 369 482 543 1100 1510 1880 3180
2020-11-29 20:30 7.25 3310 3540 (2010) 356 (2018) 1230 369 482 543 1100 1510 1880 3180
2020-11-29 19:30 7.25 3310 3540 (2010) 356 (2018) 1230 369 482 543 1100 1510 1880 3180
2020-11-29 18:30 7.25 3310 3540 (2010) 356 (2018) 1230 369 482 543 1100 1510 1880 3180
2020-11-29 17:30 7.25 3310 3540 (2010) 356 (2018) 1230 369 482 543 1100 1510 1880 3180
2020-11-29 16:30 7.25 3310 3540 (2010) 356 (2018) 1230 369 482 543 1100 1510 1880 3180
2020-11-29 15:30 7.26 3320 3540 (2010) 356 (2018) 1230 369 482 543 1100 1510 1880 3180
2020-11-29 14:30 7.26 3320 3540 (2010) 356 (2018) 1230 369 482 543 1100 1510 1880 3180
2020-11-29 13:30 7.27 3330 3540 (2010) 356 (2018) 1230 369 482 543 1100 1510 1880 3180
2020-11-29 12:30 7.27 3330 3540 (2010) 356 (2018) 1230 369 482 543 1100 1510 1880 3180
2020-11-29 11:30 7.27 3330 3540 (2010) 356 (2018) 1230 369 482 543 1100 1510 1880 3180
2020-11-29 10:30 7.27 3330 3540 (2010) 356 (2018) 1230 369 482 543 1100 1510 1880 3180
2020-11-29 09:30 7.28 3340 3540 (2010) 356 (2018) 1230 369 482 543 1100 1510 1880 3180
2020-11-29 08:30 7.29 3350 3540 (2010) 356 (2018) 1230 369 482 543 1100 1510 1880 3180
2020-11-29 07:30 7.29 3350 3540 (2010) 356 (2018) 1230 369 482 543 1100 1510 1880 3180
2020-11-29 06:30 7.30 3350 3540 (2010) 356 (2018) 1230 369 482 543 1100 1510 1880 3180
2020-11-29 05:30 7.29 3350 3540 (2010) 356 (2018) 1230 369 482 543 1100 1510 1880 3180
2020-11-29 04:30 7.30 3350 3540 (2010) 356 (2018) 1230 369 482 543 1100 1510 1880 3180
2020-11-29 03:30 7.30 3350 3540 (2010) 356 (2018) 1230 369 482 543 1100 1510 1880 3180
2020-11-29 02:30 7.30 3350 3540 (2010) 356 (2018) 1230 369 482 543 1100 1510 1880 3180
2020-11-29 01:30 7.31 3360 3540 (2010) 356 (2018) 1230 369 482 543 1100 1510 1880 3180
2020-11-29 00:30 7.31 3360 3540 (2010) 356 (2018) 1230 369 482 543 1100 1510 1880 3180
2020-11-28 23:30 7.32 3370 4920 (2016) 369 (2018) 1410 386 466 494 995 1400 2290 4520
2020-11-28 22:30 7.33 3380 4920 (2016) 369 (2018) 1410 386 466 494 995 1400 2290 4520
2020-11-28 21:30 7.33 3380 4920 (2016) 369 (2018) 1410 386 466 494 995 1400 2290 4520
2020-11-28 20:30 7.34 3390 4920 (2016) 369 (2018) 1410 386 466 494 995 1400 2290 4520
2020-11-28 19:30 7.34 3390 4920 (2016) 369 (2018) 1410 386 466 494 995 1400 2290 4520
2020-11-28 18:30 7.35 3400 4920 (2016) 369 (2018) 1410 386 466 494 995 1400 2290 4520
2020-11-28 17:30 7.35 3400 4920 (2016) 369 (2018) 1410 386 466 494 995 1400 2290 4520
2020-11-28 16:30 7.35 3400 4920 (2016) 369 (2018) 1410 386 466 494 995 1400 2290 4520
2020-11-28 15:30 7.35 3400 4920 (2016) 369 (2018) 1410 386 466 494 995 1400 2290 4520
2020-11-28 14:30 7.35 3400 4920 (2016) 369 (2018) 1410 386 466 494 995 1400 2290 4520
2020-11-28 13:30 7.35 3400 4920 (2016) 369 (2018) 1410 386 466 494 995 1400 2290 4520
2020-11-28 12:30 7.36 3410 4920 (2016) 369 (2018) 1410 386 466 494 995 1400 2290 4520
2020-11-28 11:30 7.36 3410 4920 (2016) 369 (2018) 1410 386 466 494 995 1400 2290 4520
2020-11-28 10:30 7.36 3410 4920 (2016) 369 (2018) 1410 386 466 494 995 1400 2290 4520
2020-11-28 09:30 7.37 3420 4920 (2016) 369 (2018) 1410 386 466 494 995 1400 2290 4520
2020-11-28 08:30 7.37 3420 4920 (2016) 369 (2018) 1410 386 466 494 995 1400 2290 4520
2020-11-28 07:30 7.38 3420 4920 (2016) 369 (2018) 1410 386 466 494 995 1400 2290 4520
2020-11-28 06:30 7.37 3420 4920 (2016) 369 (2018) 1410 386 466 494 995 1400 2290 4520
2020-11-28 05:30 7.38 3420 4920 (2016) 369 (2018) 1410 386 466 494 995 1400 2290 4520
2020-11-28 04:30 7.38 3420 4920 (2016) 369 (2018) 1410 386 466 494 995 1400 2290 4520
2020-11-28 03:30 7.39 3430 4920 (2016) 369 (2018) 1410 386 466 494 995 1400 2290 4520
2020-11-28 02:30 7.39 3430 4920 (2016) 369 (2018) 1410 386 466 494 995 1400 2290 4520
2020-11-28 01:30 7.40 3440 4920 (2016) 369 (2018) 1410 386 466 494 995 1400 2290 4520
2020-11-28 00:30 7.40 3440 4920 (2016) 369 (2018) 1410 386 466 494 995 1400 2290 4520
2020-11-27 23:30 7.41 3450 3650 (2016) 421 (2017) 1310 424 438 466 954 1440 2310 3620
2020-11-27 22:30 7.42 3460 3650 (2016) 421 (2017) 1310 424 438 466 954 1440 2310 3620
2020-11-27 21:30 7.41 3450 3650 (2016) 421 (2017) 1310 424 438 466 954 1440 2310 3620
2020-11-27 20:30 7.42 3460 3650 (2016) 421 (2017) 1310 424 438 466 954 1440 2310 3620
2020-11-27 19:30 7.43 3470 3650 (2016) 421 (2017) 1310 424 438 466 954 1440 2310 3620
2020-11-27 18:30 7.43 3470 3650 (2016) 421 (2017) 1310 424 438 466 954 1440 2310 3620
2020-11-27 17:30 7.44 3480 3650 (2016) 421 (2017) 1310 424 438 466 954 1440 2310 3620
2020-11-27 16:30 7.43 3470 3650 (2016) 421 (2017) 1310 424 438 466 954 1440 2310 3620
2020-11-27 15:30 7.44 3480 3650 (2016) 421 (2017) 1310 424 438 466 954 1440 2310 3620
2020-11-27 14:30 7.45 3490 3650 (2016) 421 (2017) 1310 424 438 466 954 1440 2310 3620
2020-11-27 13:30 7.45 3490 3650 (2016) 421 (2017) 1310 424 438 466 954 1440 2310 3620
2020-11-27 12:30 7.45 3490 3650 (2016) 421 (2017) 1310 424 438 466 954 1440 2310 3620
2020-11-27 11:30 7.45 3490 3650 (2016) 421 (2017) 1310 424 438 466 954 1440 2310 3620
2020-11-27 10:30 7.45 3490 3650 (2016) 421 (2017) 1310 424 438 466 954 1440 2310 3620
2020-11-27 09:30 7.46 3490 3650 (2016) 421 (2017) 1310 424 438 466 954 1440 2310 3620
2020-11-27 08:30 7.45 3490 3650 (2016) 421 (2017) 1310 424 438 466 954 1440 2310 3620
2020-11-27 07:30 7.45 3490 3650 (2016) 421 (2017) 1310 424 438 466 954 1440 2310 3620
2020-11-27 06:30 7.47 3500 3650 (2016) 421 (2017) 1310 424 438 466 954 1440 2310 3620
2020-11-27 05:30 7.47 3500 3650 (2016) 421 (2017) 1310 424 438 466 954 1440 2310 3620
2020-11-27 04:30 7.47 3500 3650 (2016) 421 (2017) 1310 424 438 466 954 1440 2310 3620
2020-11-27 03:30 7.47 3500 3650 (2016) 421 (2017) 1310 424 438 466 954 1440 2310 3620
2020-11-27 02:30 7.47 3500 3650 (2016) 421 (2017) 1310 424 438 466 954 1440 2310 3620
2020-11-27 01:30 7.47 3500 3650 (2016) 421 (2017) 1310 424 438 466 954 1440 2310 3620
2020-11-27 00:30 7.48 3510 3650 (2016) 421 (2017) 1310 424 438 466 954 1440 2310 3620
2020-11-26 23:30 7.48 3510 3680 (2016) 429 (2017) 1300 437 459 462 917 1460 2330 3650
2020-11-26 22:30 7.49 3520 3680 (2016) 429 (2017) 1300 437 459 462 917 1460 2330 3650
2020-11-26 21:30 7.49 3520 3680 (2016) 429 (2017) 1300 437 459 462 917 1460 2330 3650
2020-11-26 20:30 7.49 3520 3680 (2016) 429 (2017) 1300 437 459 462 917 1460 2330 3650
2020-11-26 19:30 7.49 3520 3680 (2016) 429 (2017) 1300 437 459 462 917 1460 2330 3650
2020-11-26 18:30 7.50 3530 3680 (2016) 429 (2017) 1300 437 459 462 917 1460 2330 3650
2020-11-26 17:30 7.50 3530 3680 (2016) 429 (2017) 1300 437 459 462 917 1460 2330 3650
2020-11-26 16:30 7.50 3530 3680 (2016) 429 (2017) 1300 437 459 462 917 1460 2330 3650
2020-11-26 15:30 7.50 3530 3680 (2016) 429 (2017) 1300 437 459 462 917 1460 2330 3650
2020-11-26 14:30 7.51 3540 3680 (2016) 429 (2017) 1300 437 459 462 917 1460 2330 3650
2020-11-26 13:30 7.51 3540 3680 (2016) 429 (2017) 1300 437 459 462 917 1460 2330 3650
2020-11-26 12:30 7.50 3530 3680 (2016) 429 (2017) 1300 437 459 462 917 1460 2330 3650
2020-11-26 11:30 7.50 3530 3680 (2016) 429 (2017) 1300 437 459 462 917 1460 2330 3650
2020-11-26 10:30 7.50 3530 3680 (2016) 429 (2017) 1300 437 459 462 917 1460 2330 3650
2020-11-26 09:30 7.50 3530 3680 (2016) 429 (2017) 1300 437 459 462 917 1460 2330 3650
2020-11-26 08:30 7.50 3530 3680 (2016) 429 (2017) 1300 437 459 462 917 1460 2330 3650
2020-11-26 07:30 7.50 3530 3680 (2016) 429 (2017) 1300 437 459 462 917 1460 2330 3650
2020-11-26 06:30 7.50 3530 3680 (2016) 429 (2017) 1300 437 459 462 917 1460 2330 3650
2020-11-26 05:30 7.49 3520 3680 (2016) 429 (2017) 1300 437 459 462 917 1460 2330 3650
2020-11-26 04:30 7.46 3490 3680 (2016) 429 (2017) 1300 437 459 462 917 1460 2330 3650
2020-11-26 03:30 7.44 3480 3680 (2016) 429 (2017) 1300 437 459 462 917 1460 2330 3650
2020-11-26 02:30 7.41 3450 3680 (2016) 429 (2017) 1300 437 459 462 917 1460 2330 3650
2020-11-26 01:30 7.36 3410 3680 (2016) 429 (2017) 1300 437 459 462 917 1460 2330 3650
2020-11-26 00:30 7.31 3360 3680 (2016) 429 (2017) 1300 437 459 462 917 1460 2330 3650
2020-11-25 23:30 7.24 3300 3720 (2016) 441 (2017) 1230 445 459 463 727 1300 2240 3680
2020-11-25 22:30 7.16 3230 3720 (2016) 441 (2017) 1230 445 459 463 727 1300 2240 3680
2020-11-25 21:30 7.06 3150 3720 (2016) 441 (2017) 1230 445 459 463 727 1300 2240 3680
2020-11-25 20:30 6.94 3040 3720 (2016) 441 (2017) 1230 445 459 463 727 1300 2240 3680
2020-11-25 19:30 6.83 2950 3720 (2016) 441 (2017) 1230 445 459 463 727 1300 2240 3680
2020-11-25 18:30 6.73 2870 3720 (2016) 441 (2017) 1230 445 459 463 727 1300 2240 3680
2020-11-25 17:30 6.65 2790 3720 (2016) 441 (2017) 1230 445 459 463 727 1300 2240 3680
2020-11-25 16:30 6.59 2740 3720 (2016) 441 (2017) 1230 445 459 463 727 1300 2240 3680
2020-11-25 15:30 6.58 2730 3720 (2016) 441 (2017) 1230 445 459 463 727 1300 2240 3680
2020-11-25 14:30 6.62 2770 3720 (2016) 441 (2017) 1230 445 459 463 727 1300 2240 3680
2020-11-25 13:30 6.75 2880 3720 (2016) 441 (2017) 1230 445 459 463 727 1300 2240 3680
2020-11-25 12:30 6.91 3020 3720 (2016) 441 (2017) 1230 445 459 463 727 1300 2240 3680
2020-11-25 11:30 7.05 3140 3720 (2016) 441 (2017) 1230 445 459 463 727 1300 2240 3680
2020-11-25 10:30 7.12 3200 3720 (2016) 441 (2017) 1230 445 459 463 727 1300 2240 3680
2020-11-25 09:30 7.15 3220 3720 (2016) 441 (2017) 1230 445 459 463 727 1300 2240 3680
2020-11-25 08:30 7.13 3210 3720 (2016) 441 (2017) 1230 445 459 463 727 1300 2240 3680
2020-11-25 07:30 7.09 3170 3720 (2016) 441 (2017) 1230 445 459 463 727 1300 2240 3680
2020-11-25 06:30 7.05 3140 3720 (2016) 441 (2017) 1230 445 459 463 727 1300 2240 3680
2020-11-25 05:30 7.02 3110 3720 (2016) 441 (2017) 1230 445 459 463 727 1300 2240 3680
2020-11-25 04:30 7.00 3100 3720 (2016) 441 (2017) 1230 445 459 463 727 1300 2240 3680
2020-11-25 03:30 6.98 3080 3720 (2016) 441 (2017) 1230 445 459 463 727 1300 2240 3680
2020-11-25 02:30 6.95 3050 3720 (2016) 441 (2017) 1230 445 459 463 727 1300 2240 3680
2020-11-25 01:30 6.94 3040 3720 (2016) 441 (2017) 1230 445 459 463 727 1300 2240 3680
2020-11-25 00:30 6.92 3030 3720 (2016) 441 (2017) 1230 445 459 463 727 1300 2240 3680
2020-11-24 23:30 6.88 2990 3720 (2016) 395 (2009) 1210 408 449 456 597 1360 2290 3680
2020-11-24 22:30 6.87 2990 3720 (2016) 395 (2009) 1210 408 449 456 597 1360 2290 3680
2020-11-24 21:30 6.85 2970 3720 (2016) 395 (2009) 1210 408 449 456 597 1360 2290 3680
2020-11-24 20:30 6.84 2960 3720 (2016) 395 (2009) 1210 408 449 456 597 1360 2290 3680
2020-11-24 19:30 6.83 2950 3720 (2016) 395 (2009) 1210 408 449 456 597 1360 2290 3680
2020-11-24 18:30 6.82 2940 3720 (2016) 395 (2009) 1210 408 449 456 597 1360 2290 3680
2020-11-24 17:30 6.82 2940 3720 (2016) 395 (2009) 1210 408 449 456 597 1360 2290 3680
2020-11-24 16:30 6.82 2940 3720 (2016) 395 (2009) 1210 408 449 456 597 1360 2290 3680
2020-11-24 15:30 6.81 2930 3720 (2016) 395 (2009) 1210 408 449 456 597 1360 2290 3680
2020-11-24 14:30 6.79 2920 3720 (2016) 395 (2009) 1210 408 449 456 597 1360 2290 3680
2020-11-24 13:30 6.78 2910 3720 (2016) 395 (2009) 1210 408 449 456 597 1360 2290 3680
2020-11-24 12:30 6.78 2910 3720 (2016) 395 (2009) 1210 408 449 456 597 1360 2290 3680
2020-11-24 11:30 6.77 2900 3720 (2016) 395 (2009) 1210 408 449 456 597 1360 2290 3680
2020-11-24 10:30 6.75 2880 3720 (2016) 395 (2009) 1210 408 449 456 597 1360 2290 3680
2020-11-24 09:30 6.72 2860 3720 (2016) 395 (2009) 1210 408 449 456 597 1360 2290 3680
2020-11-24 08:30 6.71 2850 3720 (2016) 395 (2009) 1210 408 449 456 597 1360 2290 3680
2020-11-24 07:30